<?xml version="1.0" encoding="utf-8"?>
<gpx xmlns:xsi="http://www.w3.org/2001/XMLSchema-instance" xmlns:xsd="http://www.w3.org/2001/XMLSchema" version="1.1" creator="Shapelink.com" xmlns="http://www.topografix.com/GPX/1/1" xmlns:gpxtpx="http://www.garmin.com/xmlschemas/TrackPointExtension/v1">
  <metadata>
    <name>Ejecutar 5.35 km, 2019-12-18</name>
    <desc></desc>
    <author><name>Peter Littke</name></author> 
    <time>2019-12-18T06:26:29Z</time>
  </metadata>
  <trk>
    <name>Ejecutar 5.35 km, 2019-12-18</name>
    <trkseg>
      <trkpt lat="59.299095" lon="18.081623">
        <ele>40</ele>
        <time>2019-12-18T06:26:29Z</time>
      </trkpt>
      <trkpt lat="59.29912" lon="18.081669">
        <ele>40</ele>
        <time>2019-12-18T06:26:31Z</time>
      </trkpt>
      <trkpt lat="59.299139" lon="18.081731">
        <ele>0</ele>
        <time>2019-12-18T06:26:33Z</time>
      </trkpt>
      <trkpt lat="59.299146" lon="18.081766">
        <ele>41</ele>
        <time>2019-12-18T06:26:34Z</time>
      </trkpt>
      <trkpt lat="59.299152" lon="18.0818">
        <ele>41</ele>
        <time>2019-12-18T06:26:36Z</time>
      </trkpt>
      <trkpt lat="59.299162" lon="18.081858">
        <ele>41</ele>
        <time>2019-12-18T06:26:38Z</time>
      </trkpt>
      <trkpt lat="59.299168" lon="18.081913">
        <ele>41</ele>
        <time>2019-12-18T06:26:40Z</time>
      </trkpt>
      <trkpt lat="59.299171" lon="18.081967">
        <ele>41</ele>
        <time>2019-12-18T06:26:42Z</time>
      </trkpt>
      <trkpt lat="59.299179" lon="18.082011">
        <ele>41</ele>
        <time>2019-12-18T06:26:44Z</time>
      </trkpt>
      <trkpt lat="59.299188" lon="18.082051">
        <ele>42</ele>
        <time>2019-12-18T06:26:45Z</time>
      </trkpt>
      <trkpt lat="59.299189" lon="18.082107">
        <ele>42</ele>
        <time>2019-12-18T06:26:46Z</time>
      </trkpt>
      <trkpt lat="59.299183" lon="18.082156">
        <ele>42</ele>
        <time>2019-12-18T06:26:47Z</time>
      </trkpt>
      <trkpt lat="59.299169" lon="18.082194">
        <ele>0</ele>
        <time>2019-12-18T06:26:47Z</time>
      </trkpt>
      <trkpt lat="59.299154" lon="18.082239">
        <ele>42</ele>
        <time>2019-12-18T06:26:48Z</time>
      </trkpt>
      <trkpt lat="59.299132" lon="18.08228">
        <ele>42</ele>
        <time>2019-12-18T06:26:50Z</time>
      </trkpt>
      <trkpt lat="59.299109" lon="18.082318">
        <ele>42</ele>
        <time>2019-12-18T06:26:51Z</time>
      </trkpt>
      <trkpt lat="59.299078" lon="18.082343">
        <ele>41</ele>
        <time>2019-12-18T06:26:52Z</time>
      </trkpt>
      <trkpt lat="59.299044" lon="18.082378">
        <ele>0</ele>
        <time>2019-12-18T06:26:52Z</time>
      </trkpt>
      <trkpt lat="59.299008" lon="18.082412">
        <ele>41</ele>
        <time>2019-12-18T06:26:53Z</time>
      </trkpt>
      <trkpt lat="59.298979" lon="18.082436">
        <ele>41</ele>
        <time>2019-12-18T06:26:55Z</time>
      </trkpt>
      <trkpt lat="59.298953" lon="18.082464">
        <ele>41</ele>
        <time>2019-12-18T06:26:56Z</time>
      </trkpt>
      <trkpt lat="59.298926" lon="18.082494">
        <ele>41</ele>
        <time>2019-12-18T06:26:57Z</time>
      </trkpt>
      <trkpt lat="59.298892" lon="18.082525">
        <ele>41</ele>
        <time>2019-12-18T06:26:58Z</time>
      </trkpt>
      <trkpt lat="59.298863" lon="18.082557">
        <ele>41</ele>
        <time>2019-12-18T06:26:59Z</time>
      </trkpt>
      <trkpt lat="59.298829" lon="18.082582">
        <ele>41</ele>
        <time>2019-12-18T06:27:00Z</time>
      </trkpt>
      <trkpt lat="59.298799" lon="18.082598">
        <ele>40</ele>
        <time>2019-12-18T06:27:01Z</time>
      </trkpt>
      <trkpt lat="59.298754" lon="18.082591">
        <ele>41</ele>
        <time>2019-12-18T06:27:03Z</time>
      </trkpt>
      <trkpt lat="59.298768" lon="18.082534">
        <ele>40</ele>
        <time>2019-12-18T06:27:06Z</time>
      </trkpt>
      <trkpt lat="59.298795" lon="18.082492">
        <ele>40</ele>
        <time>2019-12-18T06:27:07Z</time>
      </trkpt>
      <trkpt lat="59.298818" lon="18.082464">
        <ele>40</ele>
        <time>2019-12-18T06:27:09Z</time>
      </trkpt>
      <trkpt lat="59.298841" lon="18.082434">
        <ele>40</ele>
        <time>2019-12-18T06:27:10Z</time>
      </trkpt>
      <trkpt lat="59.298866" lon="18.082408">
        <ele>40</ele>
        <time>2019-12-18T06:27:11Z</time>
      </trkpt>
      <trkpt lat="59.298894" lon="18.082382">
        <ele>0</ele>
        <time>2019-12-18T06:27:11Z</time>
      </trkpt>
      <trkpt lat="59.29892" lon="18.08236">
        <ele>40</ele>
        <time>2019-12-18T06:27:12Z</time>
      </trkpt>
      <trkpt lat="59.298947" lon="18.082342">
        <ele>39</ele>
        <time>2019-12-18T06:27:14Z</time>
      </trkpt>
      <trkpt lat="59.298977" lon="18.08232">
        <ele>39</ele>
        <time>2019-12-18T06:27:15Z</time>
      </trkpt>
      <trkpt lat="59.299007" lon="18.082304">
        <ele>39</ele>
        <time>2019-12-18T06:27:16Z</time>
      </trkpt>
      <trkpt lat="59.29903" lon="18.082282">
        <ele>39</ele>
        <time>2019-12-18T06:27:17Z</time>
      </trkpt>
      <trkpt lat="59.299055" lon="18.08227">
        <ele>39</ele>
        <time>2019-12-18T06:27:18Z</time>
      </trkpt>
      <trkpt lat="59.299077" lon="18.08226">
        <ele>39</ele>
        <time>2019-12-18T06:27:19Z</time>
      </trkpt>
      <trkpt lat="59.299097" lon="18.082252">
        <ele>39</ele>
        <time>2019-12-18T06:27:20Z</time>
      </trkpt>
      <trkpt lat="59.299207" lon="18.082294">
        <ele>39</ele>
        <time>2019-12-18T06:27:25Z</time>
      </trkpt>
      <trkpt lat="59.2993" lon="18.082288">
        <ele>39</ele>
        <time>2019-12-18T06:27:30Z</time>
      </trkpt>
      <trkpt lat="59.299394" lon="18.082246">
        <ele>40</ele>
        <time>2019-12-18T06:27:32Z</time>
      </trkpt>
      <trkpt lat="59.299496" lon="18.082184">
        <ele>40</ele>
        <time>2019-12-18T06:27:36Z</time>
      </trkpt>
      <trkpt lat="59.299528" lon="18.082168">
        <ele>40</ele>
        <time>2019-12-18T06:27:37Z</time>
      </trkpt>
      <trkpt lat="59.299564" lon="18.082148">
        <ele>40</ele>
        <time>2019-12-18T06:27:38Z</time>
      </trkpt>
      <trkpt lat="59.299597" lon="18.082124">
        <ele>39</ele>
        <time>2019-12-18T06:27:39Z</time>
      </trkpt>
      <trkpt lat="59.2997" lon="18.082056">
        <ele>39</ele>
        <time>2019-12-18T06:27:42Z</time>
      </trkpt>
      <trkpt lat="59.299735" lon="18.082032">
        <ele>39</ele>
        <time>2019-12-18T06:27:43Z</time>
      </trkpt>
      <trkpt lat="59.299772" lon="18.082014">
        <ele>39</ele>
        <time>2019-12-18T06:27:44Z</time>
      </trkpt>
      <trkpt lat="59.299807" lon="18.081994">
        <ele>0</ele>
        <time>2019-12-18T06:27:44Z</time>
      </trkpt>
      <trkpt lat="59.299834" lon="18.081974">
        <ele>39</ele>
        <time>2019-12-18T06:27:45Z</time>
      </trkpt>
      <trkpt lat="59.299862" lon="18.08196">
        <ele>0</ele>
        <time>2019-12-18T06:27:46Z</time>
      </trkpt>
      <trkpt lat="59.299888" lon="18.081944">
        <ele>38</ele>
        <time>2019-12-18T06:27:47Z</time>
      </trkpt>
      <trkpt lat="59.299914" lon="18.081926">
        <ele>38</ele>
        <time>2019-12-18T06:27:49Z</time>
      </trkpt>
      <trkpt lat="59.299944" lon="18.0819">
        <ele>38</ele>
        <time>2019-12-18T06:27:50Z</time>
      </trkpt>
      <trkpt lat="59.299967" lon="18.081877">
        <ele>38</ele>
        <time>2019-12-18T06:27:51Z</time>
      </trkpt>
      <trkpt lat="59.299995" lon="18.081854">
        <ele>38</ele>
        <time>2019-12-18T06:27:52Z</time>
      </trkpt>
      <trkpt lat="59.300106" lon="18.081788">
        <ele>38</ele>
        <time>2019-12-18T06:27:56Z</time>
      </trkpt>
      <trkpt lat="59.300197" lon="18.081726">
        <ele>38</ele>
        <time>2019-12-18T06:27:59Z</time>
      </trkpt>
      <trkpt lat="59.300297" lon="18.08163">
        <ele>37</ele>
        <time>2019-12-18T06:28:03Z</time>
      </trkpt>
      <trkpt lat="59.300403" lon="18.081577">
        <ele>37</ele>
        <time>2019-12-18T06:28:06Z</time>
      </trkpt>
      <trkpt lat="59.300491" lon="18.081517">
        <ele>37</ele>
        <time>2019-12-18T06:28:10Z</time>
      </trkpt>
      <trkpt lat="59.300586" lon="18.081447">
        <ele>37</ele>
        <time>2019-12-18T06:28:13Z</time>
      </trkpt>
      <trkpt lat="59.30061" lon="18.081427">
        <ele>37</ele>
        <time>2019-12-18T06:28:14Z</time>
      </trkpt>
      <trkpt lat="59.300632" lon="18.081394">
        <ele>37</ele>
        <time>2019-12-18T06:28:15Z</time>
      </trkpt>
      <trkpt lat="59.30066" lon="18.081366">
        <ele>37</ele>
        <time>2019-12-18T06:28:16Z</time>
      </trkpt>
      <trkpt lat="59.300688" lon="18.081345">
        <ele>37</ele>
        <time>2019-12-18T06:28:17Z</time>
      </trkpt>
      <trkpt lat="59.30077" lon="18.081267">
        <ele>37</ele>
        <time>2019-12-18T06:28:20Z</time>
      </trkpt>
      <trkpt lat="59.300859" lon="18.081158">
        <ele>37</ele>
        <time>2019-12-18T06:28:23Z</time>
      </trkpt>
      <trkpt lat="59.300963" lon="18.081077">
        <ele>37</ele>
        <time>2019-12-18T06:28:28Z</time>
      </trkpt>
      <trkpt lat="59.301067" lon="18.081009">
        <ele>37</ele>
        <time>2019-12-18T06:28:31Z</time>
      </trkpt>
      <trkpt lat="59.301155" lon="18.080949">
        <ele>37</ele>
        <time>2019-12-18T06:28:34Z</time>
      </trkpt>
      <trkpt lat="59.301235" lon="18.080933">
        <ele>0</ele>
        <time>2019-12-18T06:28:36Z</time>
      </trkpt>
      <trkpt lat="59.301259" lon="18.080917">
        <ele>37</ele>
        <time>2019-12-18T06:28:37Z</time>
      </trkpt>
      <trkpt lat="59.301286" lon="18.080899">
        <ele>37</ele>
        <time>2019-12-18T06:28:39Z</time>
      </trkpt>
      <trkpt lat="59.301312" lon="18.080879">
        <ele>37</ele>
        <time>2019-12-18T06:28:40Z</time>
      </trkpt>
      <trkpt lat="59.301335" lon="18.08086">
        <ele>37</ele>
        <time>2019-12-18T06:28:41Z</time>
      </trkpt>
      <trkpt lat="59.301359" lon="18.080842">
        <ele>0</ele>
        <time>2019-12-18T06:28:41Z</time>
      </trkpt>
      <trkpt lat="59.301384" lon="18.080816">
        <ele>36</ele>
        <time>2019-12-18T06:28:42Z</time>
      </trkpt>
      <trkpt lat="59.301409" lon="18.080793">
        <ele>36</ele>
        <time>2019-12-18T06:28:44Z</time>
      </trkpt>
      <trkpt lat="59.301428" lon="18.080772">
        <ele>36</ele>
        <time>2019-12-18T06:28:45Z</time>
      </trkpt>
      <trkpt lat="59.30145" lon="18.080755">
        <ele>36</ele>
        <time>2019-12-18T06:28:46Z</time>
      </trkpt>
      <trkpt lat="59.301474" lon="18.080739">
        <ele>36</ele>
        <time>2019-12-18T06:28:47Z</time>
      </trkpt>
      <trkpt lat="59.301499" lon="18.080725">
        <ele>36</ele>
        <time>2019-12-18T06:28:48Z</time>
      </trkpt>
      <trkpt lat="59.30152" lon="18.080706">
        <ele>35</ele>
        <time>2019-12-18T06:28:49Z</time>
      </trkpt>
      <trkpt lat="59.301542" lon="18.080694">
        <ele>35</ele>
        <time>2019-12-18T06:28:50Z</time>
      </trkpt>
      <trkpt lat="59.301566" lon="18.080679">
        <ele>35</ele>
        <time>2019-12-18T06:28:51Z</time>
      </trkpt>
      <trkpt lat="59.301587" lon="18.080657">
        <ele>36</ele>
        <time>2019-12-18T06:28:52Z</time>
      </trkpt>
      <trkpt lat="59.301608" lon="18.08063">
        <ele>36</ele>
        <time>2019-12-18T06:28:53Z</time>
      </trkpt>
      <trkpt lat="59.301628" lon="18.080606">
        <ele>36</ele>
        <time>2019-12-18T06:28:54Z</time>
      </trkpt>
      <trkpt lat="59.301649" lon="18.080581">
        <ele>36</ele>
        <time>2019-12-18T06:28:55Z</time>
      </trkpt>
      <trkpt lat="59.30167" lon="18.08056">
        <ele>36</ele>
        <time>2019-12-18T06:28:56Z</time>
      </trkpt>
      <trkpt lat="59.301692" lon="18.080542">
        <ele>0</ele>
        <time>2019-12-18T06:28:56Z</time>
      </trkpt>
      <trkpt lat="59.301714" lon="18.080522">
        <ele>36</ele>
        <time>2019-12-18T06:28:57Z</time>
      </trkpt>
      <trkpt lat="59.301736" lon="18.080503">
        <ele>36</ele>
        <time>2019-12-18T06:28:59Z</time>
      </trkpt>
      <trkpt lat="59.301758" lon="18.080483">
        <ele>36</ele>
        <time>2019-12-18T06:29:00Z</time>
      </trkpt>
      <trkpt lat="59.301784" lon="18.080462">
        <ele>0</ele>
        <time>2019-12-18T06:29:00Z</time>
      </trkpt>
      <trkpt lat="59.301812" lon="18.080452">
        <ele>36</ele>
        <time>2019-12-18T06:29:01Z</time>
      </trkpt>
      <trkpt lat="59.301834" lon="18.080433">
        <ele>36</ele>
        <time>2019-12-18T06:29:03Z</time>
      </trkpt>
      <trkpt lat="59.301854" lon="18.080415">
        <ele>36</ele>
        <time>2019-12-18T06:29:04Z</time>
      </trkpt>
      <trkpt lat="59.301875" lon="18.080393">
        <ele>36</ele>
        <time>2019-12-18T06:29:05Z</time>
      </trkpt>
      <trkpt lat="59.301896" lon="18.080375">
        <ele>37</ele>
        <time>2019-12-18T06:29:06Z</time>
      </trkpt>
      <trkpt lat="59.301918" lon="18.080356">
        <ele>37</ele>
        <time>2019-12-18T06:29:07Z</time>
      </trkpt>
      <trkpt lat="59.301938" lon="18.080341">
        <ele>37</ele>
        <time>2019-12-18T06:29:08Z</time>
      </trkpt>
      <trkpt lat="59.301959" lon="18.080323">
        <ele>37</ele>
        <time>2019-12-18T06:29:09Z</time>
      </trkpt>
      <trkpt lat="59.301982" lon="18.080309">
        <ele>37</ele>
        <time>2019-12-18T06:29:10Z</time>
      </trkpt>
      <trkpt lat="59.302008" lon="18.080297">
        <ele>37</ele>
        <time>2019-12-18T06:29:11Z</time>
      </trkpt>
      <trkpt lat="59.302032" lon="18.080277">
        <ele>37</ele>
        <time>2019-12-18T06:29:12Z</time>
      </trkpt>
      <trkpt lat="59.302056" lon="18.080257">
        <ele>37</ele>
        <time>2019-12-18T06:29:13Z</time>
      </trkpt>
      <trkpt lat="59.302077" lon="18.080235">
        <ele>37</ele>
        <time>2019-12-18T06:29:14Z</time>
      </trkpt>
      <trkpt lat="59.302101" lon="18.080218">
        <ele>37</ele>
        <time>2019-12-18T06:29:15Z</time>
      </trkpt>
      <trkpt lat="59.302124" lon="18.080202">
        <ele>37</ele>
        <time>2019-12-18T06:29:16Z</time>
      </trkpt>
      <trkpt lat="59.302149" lon="18.080186">
        <ele>0</ele>
        <time>2019-12-18T06:29:16Z</time>
      </trkpt>
      <trkpt lat="59.302174" lon="18.080168">
        <ele>37</ele>
        <time>2019-12-18T06:29:17Z</time>
      </trkpt>
      <trkpt lat="59.302195" lon="18.080153">
        <ele>37</ele>
        <time>2019-12-18T06:29:19Z</time>
      </trkpt>
      <trkpt lat="59.302221" lon="18.080141">
        <ele>0</ele>
        <time>2019-12-18T06:29:19Z</time>
      </trkpt>
      <trkpt lat="59.302242" lon="18.080126">
        <ele>37</ele>
        <time>2019-12-18T06:29:20Z</time>
      </trkpt>
      <trkpt lat="59.302266" lon="18.080111">
        <ele>38</ele>
        <time>2019-12-18T06:29:22Z</time>
      </trkpt>
      <trkpt lat="59.302291" lon="18.080101">
        <ele>38</ele>
        <time>2019-12-18T06:29:23Z</time>
      </trkpt>
      <trkpt lat="59.302317" lon="18.080089">
        <ele>38</ele>
        <time>2019-12-18T06:29:24Z</time>
      </trkpt>
      <trkpt lat="59.302343" lon="18.080075">
        <ele>38</ele>
        <time>2019-12-18T06:29:25Z</time>
      </trkpt>
      <trkpt lat="59.302367" lon="18.08006">
        <ele>38</ele>
        <time>2019-12-18T06:29:26Z</time>
      </trkpt>
      <trkpt lat="59.30239" lon="18.08004">
        <ele>38</ele>
        <time>2019-12-18T06:29:27Z</time>
      </trkpt>
      <trkpt lat="59.302414" lon="18.080028">
        <ele>38</ele>
        <time>2019-12-18T06:29:28Z</time>
      </trkpt>
      <trkpt lat="59.302436" lon="18.080013">
        <ele>38</ele>
        <time>2019-12-18T06:29:29Z</time>
      </trkpt>
      <trkpt lat="59.30246" lon="18.08">
        <ele>38</ele>
        <time>2019-12-18T06:29:30Z</time>
      </trkpt>
      <trkpt lat="59.30248" lon="18.079984">
        <ele>38</ele>
        <time>2019-12-18T06:29:31Z</time>
      </trkpt>
      <trkpt lat="59.302502" lon="18.07997">
        <ele>38</ele>
        <time>2019-12-18T06:29:32Z</time>
      </trkpt>
      <trkpt lat="59.302524" lon="18.079953">
        <ele>38</ele>
        <time>2019-12-18T06:29:33Z</time>
      </trkpt>
      <trkpt lat="59.302548" lon="18.079944">
        <ele>39</ele>
        <time>2019-12-18T06:29:34Z</time>
      </trkpt>
      <trkpt lat="59.302571" lon="18.07993">
        <ele>39</ele>
        <time>2019-12-18T06:29:35Z</time>
      </trkpt>
      <trkpt lat="59.302594" lon="18.079913">
        <ele>39</ele>
        <time>2019-12-18T06:29:36Z</time>
      </trkpt>
      <trkpt lat="59.302619" lon="18.079897">
        <ele>39</ele>
        <time>2019-12-18T06:29:37Z</time>
      </trkpt>
      <trkpt lat="59.302643" lon="18.079882">
        <ele>0</ele>
        <time>2019-12-18T06:29:37Z</time>
      </trkpt>
      <trkpt lat="59.302668" lon="18.079869">
        <ele>39</ele>
        <time>2019-12-18T06:29:38Z</time>
      </trkpt>
      <trkpt lat="59.302693" lon="18.079853">
        <ele>39</ele>
        <time>2019-12-18T06:29:39Z</time>
      </trkpt>
      <trkpt lat="59.302715" lon="18.079837">
        <ele>39</ele>
        <time>2019-12-18T06:29:41Z</time>
      </trkpt>
      <trkpt lat="59.30274" lon="18.079825">
        <ele>39</ele>
        <time>2019-12-18T06:29:42Z</time>
      </trkpt>
      <trkpt lat="59.302763" lon="18.079811">
        <ele>39</ele>
        <time>2019-12-18T06:29:43Z</time>
      </trkpt>
      <trkpt lat="59.302788" lon="18.079799">
        <ele>39</ele>
        <time>2019-12-18T06:29:44Z</time>
      </trkpt>
      <trkpt lat="59.302811" lon="18.079783">
        <ele>39</ele>
        <time>2019-12-18T06:29:45Z</time>
      </trkpt>
      <trkpt lat="59.302834" lon="18.079768">
        <ele>39</ele>
        <time>2019-12-18T06:29:46Z</time>
      </trkpt>
      <trkpt lat="59.302856" lon="18.079751">
        <ele>39</ele>
        <time>2019-12-18T06:29:47Z</time>
      </trkpt>
      <trkpt lat="59.302879" lon="18.079733">
        <ele>39</ele>
        <time>2019-12-18T06:29:48Z</time>
      </trkpt>
      <trkpt lat="59.302905" lon="18.079722">
        <ele>39</ele>
        <time>2019-12-18T06:29:49Z</time>
      </trkpt>
      <trkpt lat="59.302929" lon="18.079704">
        <ele>39</ele>
        <time>2019-12-18T06:29:50Z</time>
      </trkpt>
      <trkpt lat="59.302955" lon="18.07968">
        <ele>39</ele>
        <time>2019-12-18T06:29:51Z</time>
      </trkpt>
      <trkpt lat="59.30298" lon="18.079661">
        <ele>39</ele>
        <time>2019-12-18T06:29:52Z</time>
      </trkpt>
      <trkpt lat="59.303007" lon="18.079642">
        <ele>39</ele>
        <time>2019-12-18T06:29:53Z</time>
      </trkpt>
      <trkpt lat="59.303033" lon="18.079627">
        <ele>39</ele>
        <time>2019-12-18T06:29:54Z</time>
      </trkpt>
      <trkpt lat="59.30306" lon="18.079611">
        <ele>39</ele>
        <time>2019-12-18T06:29:55Z</time>
      </trkpt>
      <trkpt lat="59.303084" lon="18.079592">
        <ele>39</ele>
        <time>2019-12-18T06:29:56Z</time>
      </trkpt>
      <trkpt lat="59.303111" lon="18.079573">
        <ele>0</ele>
        <time>2019-12-18T06:29:56Z</time>
      </trkpt>
      <trkpt lat="59.303139" lon="18.079554">
        <ele>39</ele>
        <time>2019-12-18T06:29:57Z</time>
      </trkpt>
      <trkpt lat="59.303166" lon="18.079539">
        <ele>39</ele>
        <time>2019-12-18T06:29:58Z</time>
      </trkpt>
      <trkpt lat="59.303192" lon="18.079523">
        <ele>39</ele>
        <time>2019-12-18T06:30:00Z</time>
      </trkpt>
      <trkpt lat="59.303217" lon="18.079507">
        <ele>39</ele>
        <time>2019-12-18T06:30:01Z</time>
      </trkpt>
      <trkpt lat="59.30327" lon="18.079482">
        <ele>38</ele>
        <time>2019-12-18T06:30:03Z</time>
      </trkpt>
      <trkpt lat="59.303296" lon="18.079468">
        <ele>38</ele>
        <time>2019-12-18T06:30:04Z</time>
      </trkpt>
      <trkpt lat="59.303321" lon="18.079455">
        <ele>38</ele>
        <time>2019-12-18T06:30:05Z</time>
      </trkpt>
      <trkpt lat="59.303346" lon="18.079444">
        <ele>38</ele>
        <time>2019-12-18T06:30:06Z</time>
      </trkpt>
      <trkpt lat="59.303372" lon="18.079425">
        <ele>38</ele>
        <time>2019-12-18T06:30:07Z</time>
      </trkpt>
      <trkpt lat="59.303397" lon="18.079409">
        <ele>38</ele>
        <time>2019-12-18T06:30:08Z</time>
      </trkpt>
      <trkpt lat="59.303423" lon="18.079389">
        <ele>38</ele>
        <time>2019-12-18T06:30:09Z</time>
      </trkpt>
      <trkpt lat="59.30345" lon="18.079375">
        <ele>38</ele>
        <time>2019-12-18T06:30:10Z</time>
      </trkpt>
      <trkpt lat="59.303474" lon="18.07936">
        <ele>38</ele>
        <time>2019-12-18T06:30:11Z</time>
      </trkpt>
      <trkpt lat="59.3035" lon="18.079345">
        <ele>38</ele>
        <time>2019-12-18T06:30:12Z</time>
      </trkpt>
      <trkpt lat="59.303527" lon="18.07933">
        <ele>37</ele>
        <time>2019-12-18T06:30:13Z</time>
      </trkpt>
      <trkpt lat="59.303555" lon="18.079321">
        <ele>37</ele>
        <time>2019-12-18T06:30:14Z</time>
      </trkpt>
      <trkpt lat="59.30358" lon="18.079309">
        <ele>0</ele>
        <time>2019-12-18T06:30:14Z</time>
      </trkpt>
      <trkpt lat="59.303605" lon="18.079294">
        <ele>37</ele>
        <time>2019-12-18T06:30:15Z</time>
      </trkpt>
      <trkpt lat="59.30363" lon="18.079273">
        <ele>0</ele>
        <time>2019-12-18T06:30:16Z</time>
      </trkpt>
      <trkpt lat="59.303656" lon="18.079257">
        <ele>37</ele>
        <time>2019-12-18T06:30:17Z</time>
      </trkpt>
      <trkpt lat="59.303682" lon="18.079245">
        <ele>37</ele>
        <time>2019-12-18T06:30:19Z</time>
      </trkpt>
      <trkpt lat="59.303705" lon="18.07923">
        <ele>37</ele>
        <time>2019-12-18T06:30:20Z</time>
      </trkpt>
      <trkpt lat="59.303731" lon="18.079211">
        <ele>37</ele>
        <time>2019-12-18T06:30:21Z</time>
      </trkpt>
      <trkpt lat="59.303757" lon="18.079192">
        <ele>37</ele>
        <time>2019-12-18T06:30:22Z</time>
      </trkpt>
      <trkpt lat="59.303779" lon="18.079179">
        <ele>37</ele>
        <time>2019-12-18T06:30:23Z</time>
      </trkpt>
      <trkpt lat="59.303799" lon="18.079161">
        <ele>37</ele>
        <time>2019-12-18T06:30:24Z</time>
      </trkpt>
      <trkpt lat="59.303823" lon="18.079139">
        <ele>37</ele>
        <time>2019-12-18T06:30:25Z</time>
      </trkpt>
      <trkpt lat="59.30385" lon="18.079118">
        <ele>36</ele>
        <time>2019-12-18T06:30:26Z</time>
      </trkpt>
      <trkpt lat="59.303873" lon="18.079101">
        <ele>36</ele>
        <time>2019-12-18T06:30:27Z</time>
      </trkpt>
      <trkpt lat="59.303897" lon="18.079084">
        <ele>36</ele>
        <time>2019-12-18T06:30:28Z</time>
      </trkpt>
      <trkpt lat="59.30392" lon="18.079064">
        <ele>36</ele>
        <time>2019-12-18T06:30:29Z</time>
      </trkpt>
      <trkpt lat="59.303946" lon="18.079043">
        <ele>36</ele>
        <time>2019-12-18T06:30:30Z</time>
      </trkpt>
      <trkpt lat="59.30397" lon="18.079024">
        <ele>36</ele>
        <time>2019-12-18T06:30:31Z</time>
      </trkpt>
      <trkpt lat="59.303995" lon="18.079005">
        <ele>36</ele>
        <time>2019-12-18T06:30:32Z</time>
      </trkpt>
      <trkpt lat="59.30402" lon="18.078987">
        <ele>36</ele>
        <time>2019-12-18T06:30:33Z</time>
      </trkpt>
      <trkpt lat="59.304044" lon="18.078975">
        <ele>36</ele>
        <time>2019-12-18T06:30:34Z</time>
      </trkpt>
      <trkpt lat="59.304068" lon="18.078957">
        <ele>0</ele>
        <time>2019-12-18T06:30:34Z</time>
      </trkpt>
      <trkpt lat="59.304091" lon="18.078937">
        <ele>36</ele>
        <time>2019-12-18T06:30:35Z</time>
      </trkpt>
      <trkpt lat="59.304116" lon="18.078922">
        <ele>36</ele>
        <time>2019-12-18T06:30:36Z</time>
      </trkpt>
      <trkpt lat="59.304139" lon="18.078904">
        <ele>36</ele>
        <time>2019-12-18T06:30:38Z</time>
      </trkpt>
      <trkpt lat="59.304165" lon="18.07889">
        <ele>35</ele>
        <time>2019-12-18T06:30:39Z</time>
      </trkpt>
      <trkpt lat="59.304192" lon="18.078878">
        <ele>35</ele>
        <time>2019-12-18T06:30:40Z</time>
      </trkpt>
      <trkpt lat="59.304217" lon="18.078862">
        <ele>35</ele>
        <time>2019-12-18T06:30:41Z</time>
      </trkpt>
      <trkpt lat="59.304242" lon="18.078847">
        <ele>35</ele>
        <time>2019-12-18T06:30:42Z</time>
      </trkpt>
      <trkpt lat="59.304268" lon="18.078834">
        <ele>35</ele>
        <time>2019-12-18T06:30:43Z</time>
      </trkpt>
      <trkpt lat="59.304295" lon="18.078821">
        <ele>35</ele>
        <time>2019-12-18T06:30:44Z</time>
      </trkpt>
      <trkpt lat="59.30432" lon="18.078804">
        <ele>35</ele>
        <time>2019-12-18T06:30:45Z</time>
      </trkpt>
      <trkpt lat="59.304347" lon="18.07879">
        <ele>35</ele>
        <time>2019-12-18T06:30:46Z</time>
      </trkpt>
      <trkpt lat="59.304374" lon="18.078779">
        <ele>35</ele>
        <time>2019-12-18T06:30:47Z</time>
      </trkpt>
      <trkpt lat="59.304401" lon="18.078765">
        <ele>34</ele>
        <time>2019-12-18T06:30:48Z</time>
      </trkpt>
      <trkpt lat="59.304428" lon="18.078752">
        <ele>34</ele>
        <time>2019-12-18T06:30:49Z</time>
      </trkpt>
      <trkpt lat="59.304455" lon="18.078739">
        <ele>34</ele>
        <time>2019-12-18T06:30:50Z</time>
      </trkpt>
      <trkpt lat="59.304483" lon="18.07873">
        <ele>34</ele>
        <time>2019-12-18T06:30:51Z</time>
      </trkpt>
      <trkpt lat="59.304509" lon="18.078716">
        <ele>34</ele>
        <time>2019-12-18T06:30:52Z</time>
      </trkpt>
      <trkpt lat="59.304535" lon="18.078699">
        <ele>0</ele>
        <time>2019-12-18T06:30:52Z</time>
      </trkpt>
      <trkpt lat="59.30456" lon="18.078682">
        <ele>34</ele>
        <time>2019-12-18T06:30:53Z</time>
      </trkpt>
      <trkpt lat="59.304586" lon="18.078667">
        <ele>0</ele>
        <time>2019-12-18T06:30:54Z</time>
      </trkpt>
      <trkpt lat="59.304612" lon="18.078651">
        <ele>34</ele>
        <time>2019-12-18T06:30:55Z</time>
      </trkpt>
      <trkpt lat="59.304638" lon="18.078634">
        <ele>33</ele>
        <time>2019-12-18T06:30:57Z</time>
      </trkpt>
      <trkpt lat="59.304664" lon="18.078621">
        <ele>33</ele>
        <time>2019-12-18T06:30:58Z</time>
      </trkpt>
      <trkpt lat="59.304688" lon="18.078602">
        <ele>33</ele>
        <time>2019-12-18T06:30:59Z</time>
      </trkpt>
      <trkpt lat="59.304715" lon="18.078587">
        <ele>33</ele>
        <time>2019-12-18T06:31:00Z</time>
      </trkpt>
      <trkpt lat="59.304741" lon="18.078569">
        <ele>33</ele>
        <time>2019-12-18T06:31:01Z</time>
      </trkpt>
      <trkpt lat="59.304768" lon="18.07855">
        <ele>33</ele>
        <time>2019-12-18T06:31:02Z</time>
      </trkpt>
      <trkpt lat="59.304795" lon="18.078534">
        <ele>33</ele>
        <time>2019-12-18T06:31:03Z</time>
      </trkpt>
      <trkpt lat="59.304822" lon="18.078516">
        <ele>33</ele>
        <time>2019-12-18T06:31:04Z</time>
      </trkpt>
      <trkpt lat="59.304847" lon="18.0785">
        <ele>33</ele>
        <time>2019-12-18T06:31:05Z</time>
      </trkpt>
      <trkpt lat="59.304874" lon="18.078484">
        <ele>33</ele>
        <time>2019-12-18T06:31:06Z</time>
      </trkpt>
      <trkpt lat="59.304901" lon="18.078468">
        <ele>32</ele>
        <time>2019-12-18T06:31:07Z</time>
      </trkpt>
      <trkpt lat="59.304926" lon="18.078456">
        <ele>32</ele>
        <time>2019-12-18T06:31:08Z</time>
      </trkpt>
      <trkpt lat="59.304952" lon="18.07844">
        <ele>32</ele>
        <time>2019-12-18T06:31:09Z</time>
      </trkpt>
      <trkpt lat="59.304977" lon="18.078424">
        <ele>32</ele>
        <time>2019-12-18T06:31:10Z</time>
      </trkpt>
      <trkpt lat="59.305003" lon="18.078408">
        <ele>32</ele>
        <time>2019-12-18T06:31:11Z</time>
      </trkpt>
      <trkpt lat="59.30503" lon="18.078396">
        <ele>0</ele>
        <time>2019-12-18T06:31:11Z</time>
      </trkpt>
      <trkpt lat="59.305055" lon="18.07838">
        <ele>32</ele>
        <time>2019-12-18T06:31:12Z</time>
      </trkpt>
      <trkpt lat="59.305081" lon="18.078359">
        <ele>0</ele>
        <time>2019-12-18T06:31:13Z</time>
      </trkpt>
      <trkpt lat="59.305108" lon="18.078342">
        <ele>32</ele>
        <time>2019-12-18T06:31:14Z</time>
      </trkpt>
      <trkpt lat="59.305135" lon="18.078328">
        <ele>32</ele>
        <time>2019-12-18T06:31:16Z</time>
      </trkpt>
      <trkpt lat="59.305161" lon="18.07831">
        <ele>32</ele>
        <time>2019-12-18T06:31:17Z</time>
      </trkpt>
      <trkpt lat="59.305187" lon="18.078293">
        <ele>32</ele>
        <time>2019-12-18T06:31:18Z</time>
      </trkpt>
      <trkpt lat="59.305211" lon="18.078272">
        <ele>31</ele>
        <time>2019-12-18T06:31:19Z</time>
      </trkpt>
      <trkpt lat="59.305238" lon="18.078253">
        <ele>31</ele>
        <time>2019-12-18T06:31:20Z</time>
      </trkpt>
      <trkpt lat="59.305264" lon="18.078238">
        <ele>31</ele>
        <time>2019-12-18T06:31:21Z</time>
      </trkpt>
      <trkpt lat="59.30529" lon="18.078227">
        <ele>31</ele>
        <time>2019-12-18T06:31:22Z</time>
      </trkpt>
      <trkpt lat="59.305315" lon="18.078214">
        <ele>31</ele>
        <time>2019-12-18T06:31:23Z</time>
      </trkpt>
      <trkpt lat="59.305342" lon="18.0782">
        <ele>31</ele>
        <time>2019-12-18T06:31:24Z</time>
      </trkpt>
      <trkpt lat="59.305367" lon="18.078186">
        <ele>30</ele>
        <time>2019-12-18T06:31:25Z</time>
      </trkpt>
      <trkpt lat="59.305393" lon="18.07817">
        <ele>30</ele>
        <time>2019-12-18T06:31:26Z</time>
      </trkpt>
      <trkpt lat="59.30542" lon="18.078155">
        <ele>30</ele>
        <time>2019-12-18T06:31:27Z</time>
      </trkpt>
      <trkpt lat="59.305447" lon="18.078141">
        <ele>30</ele>
        <time>2019-12-18T06:31:28Z</time>
      </trkpt>
      <trkpt lat="59.305473" lon="18.078126">
        <ele>30</ele>
        <time>2019-12-18T06:31:29Z</time>
      </trkpt>
      <trkpt lat="59.305499" lon="18.07811">
        <ele>0</ele>
        <time>2019-12-18T06:31:29Z</time>
      </trkpt>
      <trkpt lat="59.305524" lon="18.078092">
        <ele>30</ele>
        <time>2019-12-18T06:31:30Z</time>
      </trkpt>
      <trkpt lat="59.30555" lon="18.078074">
        <ele>30</ele>
        <time>2019-12-18T06:31:32Z</time>
      </trkpt>
      <trkpt lat="59.305576" lon="18.07806">
        <ele>0</ele>
        <time>2019-12-18T06:31:32Z</time>
      </trkpt>
      <trkpt lat="59.305602" lon="18.078044">
        <ele>30</ele>
        <time>2019-12-18T06:31:33Z</time>
      </trkpt>
      <trkpt lat="59.305628" lon="18.078026">
        <ele>30</ele>
        <time>2019-12-18T06:31:35Z</time>
      </trkpt>
      <trkpt lat="59.305653" lon="18.078006">
        <ele>29</ele>
        <time>2019-12-18T06:31:36Z</time>
      </trkpt>
      <trkpt lat="59.305682" lon="18.07799">
        <ele>29</ele>
        <time>2019-12-18T06:31:37Z</time>
      </trkpt>
      <trkpt lat="59.305711" lon="18.077976">
        <ele>29</ele>
        <time>2019-12-18T06:31:38Z</time>
      </trkpt>
      <trkpt lat="59.305735" lon="18.077968">
        <ele>29</ele>
        <time>2019-12-18T06:31:39Z</time>
      </trkpt>
      <trkpt lat="59.305757" lon="18.077954">
        <ele>29</ele>
        <time>2019-12-18T06:31:40Z</time>
      </trkpt>
      <trkpt lat="59.305783" lon="18.077938">
        <ele>29</ele>
        <time>2019-12-18T06:31:41Z</time>
      </trkpt>
      <trkpt lat="59.305809" lon="18.077924">
        <ele>29</ele>
        <time>2019-12-18T06:31:42Z</time>
      </trkpt>
      <trkpt lat="59.305833" lon="18.07791">
        <ele>28</ele>
        <time>2019-12-18T06:31:43Z</time>
      </trkpt>
      <trkpt lat="59.305858" lon="18.07789">
        <ele>28</ele>
        <time>2019-12-18T06:31:44Z</time>
      </trkpt>
      <trkpt lat="59.305885" lon="18.077872">
        <ele>28</ele>
        <time>2019-12-18T06:31:45Z</time>
      </trkpt>
      <trkpt lat="59.305911" lon="18.077852">
        <ele>28</ele>
        <time>2019-12-18T06:31:46Z</time>
      </trkpt>
      <trkpt lat="59.305937" lon="18.077834">
        <ele>28</ele>
        <time>2019-12-18T06:31:47Z</time>
      </trkpt>
      <trkpt lat="59.305963" lon="18.077816">
        <ele>0</ele>
        <time>2019-12-18T06:31:47Z</time>
      </trkpt>
      <trkpt lat="59.305988" lon="18.077802">
        <ele>28</ele>
        <time>2019-12-18T06:31:48Z</time>
      </trkpt>
      <trkpt lat="59.306013" lon="18.077788">
        <ele>27</ele>
        <time>2019-12-18T06:31:50Z</time>
      </trkpt>
      <trkpt lat="59.306037" lon="18.07777">
        <ele>27</ele>
        <time>2019-12-18T06:31:51Z</time>
      </trkpt>
      <trkpt lat="59.30606" lon="18.077751">
        <ele>0</ele>
        <time>2019-12-18T06:31:51Z</time>
      </trkpt>
      <trkpt lat="59.306085" lon="18.077736">
        <ele>27</ele>
        <time>2019-12-18T06:31:52Z</time>
      </trkpt>
      <trkpt lat="59.306111" lon="18.077716">
        <ele>27</ele>
        <time>2019-12-18T06:31:54Z</time>
      </trkpt>
      <trkpt lat="59.306138" lon="18.077699">
        <ele>27</ele>
        <time>2019-12-18T06:31:55Z</time>
      </trkpt>
      <trkpt lat="59.306162" lon="18.077684">
        <ele>27</ele>
        <time>2019-12-18T06:31:56Z</time>
      </trkpt>
      <trkpt lat="59.306188" lon="18.077668">
        <ele>27</ele>
        <time>2019-12-18T06:31:57Z</time>
      </trkpt>
      <trkpt lat="59.306213" lon="18.077654">
        <ele>27</ele>
        <time>2019-12-18T06:31:58Z</time>
      </trkpt>
      <trkpt lat="59.306238" lon="18.077636">
        <ele>27</ele>
        <time>2019-12-18T06:31:59Z</time>
      </trkpt>
      <trkpt lat="59.306264" lon="18.077626">
        <ele>27</ele>
        <time>2019-12-18T06:32:00Z</time>
      </trkpt>
      <trkpt lat="59.306288" lon="18.077616">
        <ele>27</ele>
        <time>2019-12-18T06:32:01Z</time>
      </trkpt>
      <trkpt lat="59.306313" lon="18.077607">
        <ele>26</ele>
        <time>2019-12-18T06:32:02Z</time>
      </trkpt>
      <trkpt lat="59.306337" lon="18.077595">
        <ele>26</ele>
        <time>2019-12-18T06:32:03Z</time>
      </trkpt>
      <trkpt lat="59.306361" lon="18.077582">
        <ele>26</ele>
        <time>2019-12-18T06:32:04Z</time>
      </trkpt>
      <trkpt lat="59.306385" lon="18.077569">
        <ele>26</ele>
        <time>2019-12-18T06:32:05Z</time>
      </trkpt>
      <trkpt lat="59.306409" lon="18.077553">
        <ele>26</ele>
        <time>2019-12-18T06:32:06Z</time>
      </trkpt>
      <trkpt lat="59.306434" lon="18.077538">
        <ele>0</ele>
        <time>2019-12-18T06:32:06Z</time>
      </trkpt>
      <trkpt lat="59.306458" lon="18.077524">
        <ele>26</ele>
        <time>2019-12-18T06:32:07Z</time>
      </trkpt>
      <trkpt lat="59.306483" lon="18.077514">
        <ele>25</ele>
        <time>2019-12-18T06:32:09Z</time>
      </trkpt>
      <trkpt lat="59.306507" lon="18.077499">
        <ele>25</ele>
        <time>2019-12-18T06:32:10Z</time>
      </trkpt>
      <trkpt lat="59.306533" lon="18.077484">
        <ele>0</ele>
        <time>2019-12-18T06:32:10Z</time>
      </trkpt>
      <trkpt lat="59.30656" lon="18.07747">
        <ele>25</ele>
        <time>2019-12-18T06:32:11Z</time>
      </trkpt>
      <trkpt lat="59.306587" lon="18.07746">
        <ele>25</ele>
        <time>2019-12-18T06:32:13Z</time>
      </trkpt>
      <trkpt lat="59.306613" lon="18.077449">
        <ele>25</ele>
        <time>2019-12-18T06:32:14Z</time>
      </trkpt>
      <trkpt lat="59.306638" lon="18.07744">
        <ele>25</ele>
        <time>2019-12-18T06:32:15Z</time>
      </trkpt>
      <trkpt lat="59.306662" lon="18.077427">
        <ele>25</ele>
        <time>2019-12-18T06:32:16Z</time>
      </trkpt>
      <trkpt lat="59.306687" lon="18.077413">
        <ele>25</ele>
        <time>2019-12-18T06:32:17Z</time>
      </trkpt>
      <trkpt lat="59.306714" lon="18.077402">
        <ele>25</ele>
        <time>2019-12-18T06:32:18Z</time>
      </trkpt>
      <trkpt lat="59.30674" lon="18.077391">
        <ele>25</ele>
        <time>2019-12-18T06:32:19Z</time>
      </trkpt>
      <trkpt lat="59.306766" lon="18.07738">
        <ele>25</ele>
        <time>2019-12-18T06:32:20Z</time>
      </trkpt>
      <trkpt lat="59.306791" lon="18.077372">
        <ele>25</ele>
        <time>2019-12-18T06:32:21Z</time>
      </trkpt>
      <trkpt lat="59.306817" lon="18.077365">
        <ele>25</ele>
        <time>2019-12-18T06:32:22Z</time>
      </trkpt>
      <trkpt lat="59.306841" lon="18.07735">
        <ele>25</ele>
        <time>2019-12-18T06:32:23Z</time>
      </trkpt>
      <trkpt lat="59.306863" lon="18.077332">
        <ele>25</ele>
        <time>2019-12-18T06:32:24Z</time>
      </trkpt>
      <trkpt lat="59.306888" lon="18.077317">
        <ele>25</ele>
        <time>2019-12-18T06:32:25Z</time>
      </trkpt>
      <trkpt lat="59.306914" lon="18.077298">
        <ele>25</ele>
        <time>2019-12-18T06:32:26Z</time>
      </trkpt>
      <trkpt lat="59.306939" lon="18.077285">
        <ele>0</ele>
        <time>2019-12-18T06:32:26Z</time>
      </trkpt>
      <trkpt lat="59.306964" lon="18.077278">
        <ele>25</ele>
        <time>2019-12-18T06:32:27Z</time>
      </trkpt>
      <trkpt lat="59.306989" lon="18.077267">
        <ele>25</ele>
        <time>2019-12-18T06:32:29Z</time>
      </trkpt>
      <trkpt lat="59.307017" lon="18.077264">
        <ele>0</ele>
        <time>2019-12-18T06:32:29Z</time>
      </trkpt>
      <trkpt lat="59.307045" lon="18.077257">
        <ele>25</ele>
        <time>2019-12-18T06:32:30Z</time>
      </trkpt>
      <trkpt lat="59.307073" lon="18.077248">
        <ele>25</ele>
        <time>2019-12-18T06:32:32Z</time>
      </trkpt>
      <trkpt lat="59.307099" lon="18.077245">
        <ele>25</ele>
        <time>2019-12-18T06:32:33Z</time>
      </trkpt>
      <trkpt lat="59.307125" lon="18.077238">
        <ele>25</ele>
        <time>2019-12-18T06:32:34Z</time>
      </trkpt>
      <trkpt lat="59.307152" lon="18.077228">
        <ele>24</ele>
        <time>2019-12-18T06:32:35Z</time>
      </trkpt>
      <trkpt lat="59.307178" lon="18.077221">
        <ele>24</ele>
        <time>2019-12-18T06:32:36Z</time>
      </trkpt>
      <trkpt lat="59.307203" lon="18.077211">
        <ele>24</ele>
        <time>2019-12-18T06:32:37Z</time>
      </trkpt>
      <trkpt lat="59.307229" lon="18.0772">
        <ele>24</ele>
        <time>2019-12-18T06:32:38Z</time>
      </trkpt>
      <trkpt lat="59.30725" lon="18.077186">
        <ele>24</ele>
        <time>2019-12-18T06:32:39Z</time>
      </trkpt>
      <trkpt lat="59.30727" lon="18.077152">
        <ele>24</ele>
        <time>2019-12-18T06:32:40Z</time>
      </trkpt>
      <trkpt lat="59.307296" lon="18.077145">
        <ele>24</ele>
        <time>2019-12-18T06:32:41Z</time>
      </trkpt>
      <trkpt lat="59.307319" lon="18.077138">
        <ele>23</ele>
        <time>2019-12-18T06:32:42Z</time>
      </trkpt>
      <trkpt lat="59.307342" lon="18.077134">
        <ele>23</ele>
        <time>2019-12-18T06:32:43Z</time>
      </trkpt>
      <trkpt lat="59.307364" lon="18.077107">
        <ele>23</ele>
        <time>2019-12-18T06:32:44Z</time>
      </trkpt>
      <trkpt lat="59.30739" lon="18.077095">
        <ele>23</ele>
        <time>2019-12-18T06:32:45Z</time>
      </trkpt>
      <trkpt lat="59.307411" lon="18.077039">
        <ele>0</ele>
        <time>2019-12-18T06:32:45Z</time>
      </trkpt>
      <trkpt lat="59.307438" lon="18.07703">
        <ele>23</ele>
        <time>2019-12-18T06:32:46Z</time>
      </trkpt>
      <trkpt lat="59.307464" lon="18.07702">
        <ele>23</ele>
        <time>2019-12-18T06:32:48Z</time>
      </trkpt>
      <trkpt lat="59.307488" lon="18.076998">
        <ele>0</ele>
        <time>2019-12-18T06:32:48Z</time>
      </trkpt>
      <trkpt lat="59.307513" lon="18.076983">
        <ele>23</ele>
        <time>2019-12-18T06:32:49Z</time>
      </trkpt>
      <trkpt lat="59.307536" lon="18.076964">
        <ele>23</ele>
        <time>2019-12-18T06:32:51Z</time>
      </trkpt>
      <trkpt lat="59.307562" lon="18.076949">
        <ele>23</ele>
        <time>2019-12-18T06:32:52Z</time>
      </trkpt>
      <trkpt lat="59.307587" lon="18.07694">
        <ele>22</ele>
        <time>2019-12-18T06:32:53Z</time>
      </trkpt>
      <trkpt lat="59.307611" lon="18.076942">
        <ele>22</ele>
        <time>2019-12-18T06:32:54Z</time>
      </trkpt>
      <trkpt lat="59.307633" lon="18.076949">
        <ele>22</ele>
        <time>2019-12-18T06:32:55Z</time>
      </trkpt>
      <trkpt lat="59.307656" lon="18.076955">
        <ele>22</ele>
        <time>2019-12-18T06:32:56Z</time>
      </trkpt>
      <trkpt lat="59.307678" lon="18.076963">
        <ele>22</ele>
        <time>2019-12-18T06:32:57Z</time>
      </trkpt>
      <trkpt lat="59.307697" lon="18.076967">
        <ele>22</ele>
        <time>2019-12-18T06:32:58Z</time>
      </trkpt>
      <trkpt lat="59.307718" lon="18.07697">
        <ele>22</ele>
        <time>2019-12-18T06:32:59Z</time>
      </trkpt>
      <trkpt lat="59.307741" lon="18.076963">
        <ele>23</ele>
        <time>2019-12-18T06:33:00Z</time>
      </trkpt>
      <trkpt lat="59.307764" lon="18.076958">
        <ele>23</ele>
        <time>2019-12-18T06:33:01Z</time>
      </trkpt>
      <trkpt lat="59.307785" lon="18.076958">
        <ele>23</ele>
        <time>2019-12-18T06:33:02Z</time>
      </trkpt>
      <trkpt lat="59.307804" lon="18.076966">
        <ele>23</ele>
        <time>2019-12-18T06:33:03Z</time>
      </trkpt>
      <trkpt lat="59.307828" lon="18.076968">
        <ele>23</ele>
        <time>2019-12-18T06:33:04Z</time>
      </trkpt>
      <trkpt lat="59.307854" lon="18.076957">
        <ele>22</ele>
        <time>2019-12-18T06:33:05Z</time>
      </trkpt>
      <trkpt lat="59.307883" lon="18.07695">
        <ele>0</ele>
        <time>2019-12-18T06:33:05Z</time>
      </trkpt>
      <trkpt lat="59.30791" lon="18.076941">
        <ele>22</ele>
        <time>2019-12-18T06:33:06Z</time>
      </trkpt>
      <trkpt lat="59.307935" lon="18.076928">
        <ele>0</ele>
        <time>2019-12-18T06:33:07Z</time>
      </trkpt>
      <trkpt lat="59.307962" lon="18.076914">
        <ele>23</ele>
        <time>2019-12-18T06:33:10Z</time>
      </trkpt>
      <trkpt lat="59.307977" lon="18.076884">
        <ele>23</ele>
        <time>2019-12-18T06:33:11Z</time>
      </trkpt>
      <trkpt lat="59.307984" lon="18.07684">
        <ele>23</ele>
        <time>2019-12-18T06:33:12Z</time>
      </trkpt>
      <trkpt lat="59.307992" lon="18.076788">
        <ele>23</ele>
        <time>2019-12-18T06:33:13Z</time>
      </trkpt>
      <trkpt lat="59.308009" lon="18.076738">
        <ele>23</ele>
        <time>2019-12-18T06:33:14Z</time>
      </trkpt>
      <trkpt lat="59.308031" lon="18.07672">
        <ele>23</ele>
        <time>2019-12-18T06:33:15Z</time>
      </trkpt>
      <trkpt lat="59.308054" lon="18.076704">
        <ele>23</ele>
        <time>2019-12-18T06:33:16Z</time>
      </trkpt>
      <trkpt lat="59.308079" lon="18.07669">
        <ele>24</ele>
        <time>2019-12-18T06:33:17Z</time>
      </trkpt>
      <trkpt lat="59.308102" lon="18.076664">
        <ele>24</ele>
        <time>2019-12-18T06:33:18Z</time>
      </trkpt>
      <trkpt lat="59.30813" lon="18.076646">
        <ele>24</ele>
        <time>2019-12-18T06:33:19Z</time>
      </trkpt>
      <trkpt lat="59.308154" lon="18.076624">
        <ele>24</ele>
        <time>2019-12-18T06:33:20Z</time>
      </trkpt>
      <trkpt lat="59.308179" lon="18.076611">
        <ele>23</ele>
        <time>2019-12-18T06:33:21Z</time>
      </trkpt>
      <trkpt lat="59.308208" lon="18.076597">
        <ele>23</ele>
        <time>2019-12-18T06:33:22Z</time>
      </trkpt>
      <trkpt lat="59.308237" lon="18.076589">
        <ele>23</ele>
        <time>2019-12-18T06:33:23Z</time>
      </trkpt>
      <trkpt lat="59.308265" lon="18.076579">
        <ele>23</ele>
        <time>2019-12-18T06:33:24Z</time>
      </trkpt>
      <trkpt lat="59.308297" lon="18.07657">
        <ele>24</ele>
        <time>2019-12-18T06:33:25Z</time>
      </trkpt>
      <trkpt lat="59.308325" lon="18.076558">
        <ele>0</ele>
        <time>2019-12-18T06:33:25Z</time>
      </trkpt>
      <trkpt lat="59.308354" lon="18.076543">
        <ele>24</ele>
        <time>2019-12-18T06:33:26Z</time>
      </trkpt>
      <trkpt lat="59.308382" lon="18.076532">
        <ele>24</ele>
        <time>2019-12-18T06:33:27Z</time>
      </trkpt>
      <trkpt lat="59.308407" lon="18.076514">
        <ele>24</ele>
        <time>2019-12-18T06:33:29Z</time>
      </trkpt>
      <trkpt lat="59.308433" lon="18.076501">
        <ele>24</ele>
        <time>2019-12-18T06:33:30Z</time>
      </trkpt>
      <trkpt lat="59.308459" lon="18.076491">
        <ele>24</ele>
        <time>2019-12-18T06:33:31Z</time>
      </trkpt>
      <trkpt lat="59.308483" lon="18.076481">
        <ele>24</ele>
        <time>2019-12-18T06:33:32Z</time>
      </trkpt>
      <trkpt lat="59.308506" lon="18.076451">
        <ele>24</ele>
        <time>2019-12-18T06:33:33Z</time>
      </trkpt>
      <trkpt lat="59.308533" lon="18.076436">
        <ele>24</ele>
        <time>2019-12-18T06:33:34Z</time>
      </trkpt>
      <trkpt lat="59.308561" lon="18.076425">
        <ele>24</ele>
        <time>2019-12-18T06:33:35Z</time>
      </trkpt>
      <trkpt lat="59.308589" lon="18.076414">
        <ele>24</ele>
        <time>2019-12-18T06:33:36Z</time>
      </trkpt>
      <trkpt lat="59.308616" lon="18.076402">
        <ele>24</ele>
        <time>2019-12-18T06:33:37Z</time>
      </trkpt>
      <trkpt lat="59.308641" lon="18.07639">
        <ele>24</ele>
        <time>2019-12-18T06:33:38Z</time>
      </trkpt>
      <trkpt lat="59.308667" lon="18.076373">
        <ele>24</ele>
        <time>2019-12-18T06:33:39Z</time>
      </trkpt>
      <trkpt lat="59.308693" lon="18.076348">
        <ele>24</ele>
        <time>2019-12-18T06:33:40Z</time>
      </trkpt>
      <trkpt lat="59.30872" lon="18.076329">
        <ele>24</ele>
        <time>2019-12-18T06:33:41Z</time>
      </trkpt>
      <trkpt lat="59.308746" lon="18.076312">
        <ele>24</ele>
        <time>2019-12-18T06:33:42Z</time>
      </trkpt>
      <trkpt lat="59.308774" lon="18.0763">
        <ele>24</ele>
        <time>2019-12-18T06:33:43Z</time>
      </trkpt>
      <trkpt lat="59.308799" lon="18.076286">
        <ele>0</ele>
        <time>2019-12-18T06:33:43Z</time>
      </trkpt>
      <trkpt lat="59.308817" lon="18.07624">
        <ele>24</ele>
        <time>2019-12-18T06:33:44Z</time>
      </trkpt>
      <trkpt lat="59.308842" lon="18.076228">
        <ele>0</ele>
        <time>2019-12-18T06:33:45Z</time>
      </trkpt>
      <trkpt lat="59.308867" lon="18.076223">
        <ele>24</ele>
        <time>2019-12-18T06:33:46Z</time>
      </trkpt>
      <trkpt lat="59.308886" lon="18.076173">
        <ele>24</ele>
        <time>2019-12-18T06:33:48Z</time>
      </trkpt>
      <trkpt lat="59.30891" lon="18.076163">
        <ele>24</ele>
        <time>2019-12-18T06:33:49Z</time>
      </trkpt>
      <trkpt lat="59.308934" lon="18.076155">
        <ele>24</ele>
        <time>2019-12-18T06:33:50Z</time>
      </trkpt>
      <trkpt lat="59.308958" lon="18.076143">
        <ele>24</ele>
        <time>2019-12-18T06:33:51Z</time>
      </trkpt>
      <trkpt lat="59.308983" lon="18.076137">
        <ele>24</ele>
        <time>2019-12-18T06:33:52Z</time>
      </trkpt>
      <trkpt lat="59.309006" lon="18.076128">
        <ele>25</ele>
        <time>2019-12-18T06:33:53Z</time>
      </trkpt>
      <trkpt lat="59.30903" lon="18.076121">
        <ele>25</ele>
        <time>2019-12-18T06:33:54Z</time>
      </trkpt>
      <trkpt lat="59.309055" lon="18.076119">
        <ele>25</ele>
        <time>2019-12-18T06:33:55Z</time>
      </trkpt>
      <trkpt lat="59.309074" lon="18.076119">
        <ele>25</ele>
        <time>2019-12-18T06:33:56Z</time>
      </trkpt>
      <trkpt lat="59.309098" lon="18.076109">
        <ele>25</ele>
        <time>2019-12-18T06:33:57Z</time>
      </trkpt>
      <trkpt lat="59.309121" lon="18.076089">
        <ele>25</ele>
        <time>2019-12-18T06:33:58Z</time>
      </trkpt>
      <trkpt lat="59.309144" lon="18.076094">
        <ele>25</ele>
        <time>2019-12-18T06:33:59Z</time>
      </trkpt>
      <trkpt lat="59.309171" lon="18.076101">
        <ele>25</ele>
        <time>2019-12-18T06:34:00Z</time>
      </trkpt>
      <trkpt lat="59.309198" lon="18.076096">
        <ele>25</ele>
        <time>2019-12-18T06:34:01Z</time>
      </trkpt>
      <trkpt lat="59.309226" lon="18.07608">
        <ele>25</ele>
        <time>2019-12-18T06:34:02Z</time>
      </trkpt>
      <trkpt lat="59.309252" lon="18.076061">
        <ele>0</ele>
        <time>2019-12-18T06:34:02Z</time>
      </trkpt>
      <trkpt lat="59.309281" lon="18.076048">
        <ele>24</ele>
        <time>2019-12-18T06:34:03Z</time>
      </trkpt>
      <trkpt lat="59.309308" lon="18.076037">
        <ele>0</ele>
        <time>2019-12-18T06:34:04Z</time>
      </trkpt>
      <trkpt lat="59.309335" lon="18.076037">
        <ele>24</ele>
        <time>2019-12-18T06:34:05Z</time>
      </trkpt>
      <trkpt lat="59.30936" lon="18.076034">
        <ele>24</ele>
        <time>2019-12-18T06:34:07Z</time>
      </trkpt>
      <trkpt lat="59.309383" lon="18.076027">
        <ele>24</ele>
        <time>2019-12-18T06:34:08Z</time>
      </trkpt>
      <trkpt lat="59.30941" lon="18.076008">
        <ele>24</ele>
        <time>2019-12-18T06:34:09Z</time>
      </trkpt>
      <trkpt lat="59.30944" lon="18.07599">
        <ele>25</ele>
        <time>2019-12-18T06:34:10Z</time>
      </trkpt>
      <trkpt lat="59.309466" lon="18.075967">
        <ele>25</ele>
        <time>2019-12-18T06:34:11Z</time>
      </trkpt>
      <trkpt lat="59.309489" lon="18.075944">
        <ele>25</ele>
        <time>2019-12-18T06:34:12Z</time>
      </trkpt>
      <trkpt lat="59.309514" lon="18.075929">
        <ele>25</ele>
        <time>2019-12-18T06:34:13Z</time>
      </trkpt>
      <trkpt lat="59.30954" lon="18.0759">
        <ele>25</ele>
        <time>2019-12-18T06:34:14Z</time>
      </trkpt>
      <trkpt lat="59.309563" lon="18.075866">
        <ele>25</ele>
        <time>2019-12-18T06:34:15Z</time>
      </trkpt>
      <trkpt lat="59.309587" lon="18.075835">
        <ele>25</ele>
        <time>2019-12-18T06:34:16Z</time>
      </trkpt>
      <trkpt lat="59.30961" lon="18.075793">
        <ele>25</ele>
        <time>2019-12-18T06:34:17Z</time>
      </trkpt>
      <trkpt lat="59.309634" lon="18.075765">
        <ele>25</ele>
        <time>2019-12-18T06:34:18Z</time>
      </trkpt>
      <trkpt lat="59.309661" lon="18.075745">
        <ele>25</ele>
        <time>2019-12-18T06:34:19Z</time>
      </trkpt>
      <trkpt lat="59.309686" lon="18.07573">
        <ele>25</ele>
        <time>2019-12-18T06:34:20Z</time>
      </trkpt>
      <trkpt lat="59.309712" lon="18.075725">
        <ele>0</ele>
        <time>2019-12-18T06:34:20Z</time>
      </trkpt>
      <trkpt lat="59.309738" lon="18.075715">
        <ele>25</ele>
        <time>2019-12-18T06:34:21Z</time>
      </trkpt>
      <trkpt lat="59.309764" lon="18.075709">
        <ele>25</ele>
        <time>2019-12-18T06:34:23Z</time>
      </trkpt>
      <trkpt lat="59.309788" lon="18.075703">
        <ele>0</ele>
        <time>2019-12-18T06:34:23Z</time>
      </trkpt>
      <trkpt lat="59.309814" lon="18.075697">
        <ele>25</ele>
        <time>2019-12-18T06:34:24Z</time>
      </trkpt>
      <trkpt lat="59.309869" lon="18.075692">
        <ele>25</ele>
        <time>2019-12-18T06:34:27Z</time>
      </trkpt>
      <trkpt lat="59.309895" lon="18.075679">
        <ele>25</ele>
        <time>2019-12-18T06:34:28Z</time>
      </trkpt>
      <trkpt lat="59.309921" lon="18.075664">
        <ele>25</ele>
        <time>2019-12-18T06:34:29Z</time>
      </trkpt>
      <trkpt lat="59.309948" lon="18.07566">
        <ele>25</ele>
        <time>2019-12-18T06:34:30Z</time>
      </trkpt>
      <trkpt lat="59.309975" lon="18.075651">
        <ele>25</ele>
        <time>2019-12-18T06:34:31Z</time>
      </trkpt>
      <trkpt lat="59.310002" lon="18.075633">
        <ele>25</ele>
        <time>2019-12-18T06:34:32Z</time>
      </trkpt>
      <trkpt lat="59.310028" lon="18.075617">
        <ele>25</ele>
        <time>2019-12-18T06:34:33Z</time>
      </trkpt>
      <trkpt lat="59.310054" lon="18.075596">
        <ele>25</ele>
        <time>2019-12-18T06:34:34Z</time>
      </trkpt>
      <trkpt lat="59.310076" lon="18.075566">
        <ele>25</ele>
        <time>2019-12-18T06:34:35Z</time>
      </trkpt>
      <trkpt lat="59.3101" lon="18.075546">
        <ele>25</ele>
        <time>2019-12-18T06:34:36Z</time>
      </trkpt>
      <trkpt lat="59.310125" lon="18.075534">
        <ele>26</ele>
        <time>2019-12-18T06:34:37Z</time>
      </trkpt>
      <trkpt lat="59.310151" lon="18.075519">
        <ele>26</ele>
        <time>2019-12-18T06:34:38Z</time>
      </trkpt>
      <trkpt lat="59.310176" lon="18.0755">
        <ele>26</ele>
        <time>2019-12-18T06:34:39Z</time>
      </trkpt>
      <trkpt lat="59.310198" lon="18.075477">
        <ele>0</ele>
        <time>2019-12-18T06:34:39Z</time>
      </trkpt>
      <trkpt lat="59.310222" lon="18.075436">
        <ele>26</ele>
        <time>2019-12-18T06:34:40Z</time>
      </trkpt>
      <trkpt lat="59.310244" lon="18.075414">
        <ele>26</ele>
        <time>2019-12-18T06:34:42Z</time>
      </trkpt>
      <trkpt lat="59.310268" lon="18.075389">
        <ele>0</ele>
        <time>2019-12-18T06:34:42Z</time>
      </trkpt>
      <trkpt lat="59.310289" lon="18.075357">
        <ele>26</ele>
        <time>2019-12-18T06:34:43Z</time>
      </trkpt>
      <trkpt lat="59.310312" lon="18.075348">
        <ele>26</ele>
        <time>2019-12-18T06:34:45Z</time>
      </trkpt>
      <trkpt lat="59.310337" lon="18.075337">
        <ele>26</ele>
        <time>2019-12-18T06:34:46Z</time>
      </trkpt>
      <trkpt lat="59.31036" lon="18.075301">
        <ele>26</ele>
        <time>2019-12-18T06:34:47Z</time>
      </trkpt>
      <trkpt lat="59.310387" lon="18.075293">
        <ele>26</ele>
        <time>2019-12-18T06:34:48Z</time>
      </trkpt>
      <trkpt lat="59.310414" lon="18.075293">
        <ele>26</ele>
        <time>2019-12-18T06:34:49Z</time>
      </trkpt>
      <trkpt lat="59.31044" lon="18.075295">
        <ele>26</ele>
        <time>2019-12-18T06:34:50Z</time>
      </trkpt>
      <trkpt lat="59.310468" lon="18.075298">
        <ele>26</ele>
        <time>2019-12-18T06:34:51Z</time>
      </trkpt>
      <trkpt lat="59.310496" lon="18.075297">
        <ele>26</ele>
        <time>2019-12-18T06:34:52Z</time>
      </trkpt>
      <trkpt lat="59.310525" lon="18.075288">
        <ele>26</ele>
        <time>2019-12-18T06:34:53Z</time>
      </trkpt>
      <trkpt lat="59.310551" lon="18.075275">
        <ele>26</ele>
        <time>2019-12-18T06:34:54Z</time>
      </trkpt>
      <trkpt lat="59.310578" lon="18.075261">
        <ele>26</ele>
        <time>2019-12-18T06:34:55Z</time>
      </trkpt>
      <trkpt lat="59.310604" lon="18.075246">
        <ele>26</ele>
        <time>2019-12-18T06:34:56Z</time>
      </trkpt>
      <trkpt lat="59.310631" lon="18.075239">
        <ele>26</ele>
        <time>2019-12-18T06:34:57Z</time>
      </trkpt>
      <trkpt lat="59.310655" lon="18.075228">
        <ele>0</ele>
        <time>2019-12-18T06:34:57Z</time>
      </trkpt>
      <trkpt lat="59.310678" lon="18.075224">
        <ele>26</ele>
        <time>2019-12-18T06:34:58Z</time>
      </trkpt>
      <trkpt lat="59.310702" lon="18.075223">
        <ele>26</ele>
        <time>2019-12-18T06:35:00Z</time>
      </trkpt>
      <trkpt lat="59.310724" lon="18.075224">
        <ele>26</ele>
        <time>2019-12-18T06:35:01Z</time>
      </trkpt>
      <trkpt lat="59.310742" lon="18.075215">
        <ele>26</ele>
        <time>2019-12-18T06:35:01Z</time>
      </trkpt>
      <trkpt lat="59.310762" lon="18.075185">
        <ele>26</ele>
        <time>2019-12-18T06:35:02Z</time>
      </trkpt>
      <trkpt lat="59.310784" lon="18.075175">
        <ele>27</ele>
        <time>2019-12-18T06:35:03Z</time>
      </trkpt>
      <trkpt lat="59.310804" lon="18.075169">
        <ele>27</ele>
        <time>2019-12-18T06:35:05Z</time>
      </trkpt>
      <trkpt lat="59.310821" lon="18.07516">
        <ele>27</ele>
        <time>2019-12-18T06:35:06Z</time>
      </trkpt>
      <trkpt lat="59.310835" lon="18.075133">
        <ele>28</ele>
        <time>2019-12-18T06:35:07Z</time>
      </trkpt>
      <trkpt lat="59.310851" lon="18.075112">
        <ele>28</ele>
        <time>2019-12-18T06:35:08Z</time>
      </trkpt>
      <trkpt lat="59.310868" lon="18.075084">
        <ele>28</ele>
        <time>2019-12-18T06:35:09Z</time>
      </trkpt>
      <trkpt lat="59.310888" lon="18.075056">
        <ele>29</ele>
        <time>2019-12-18T06:35:10Z</time>
      </trkpt>
      <trkpt lat="59.310911" lon="18.075046">
        <ele>29</ele>
        <time>2019-12-18T06:35:11Z</time>
      </trkpt>
      <trkpt lat="59.310932" lon="18.075027">
        <ele>29</ele>
        <time>2019-12-18T06:35:12Z</time>
      </trkpt>
      <trkpt lat="59.310951" lon="18.075007">
        <ele>30</ele>
        <time>2019-12-18T06:35:13Z</time>
      </trkpt>
      <trkpt lat="59.310973" lon="18.075">
        <ele>30</ele>
        <time>2019-12-18T06:35:14Z</time>
      </trkpt>
      <trkpt lat="59.310989" lon="18.074977">
        <ele>31</ele>
        <time>2019-12-18T06:35:15Z</time>
      </trkpt>
      <trkpt lat="59.311009" lon="18.074971">
        <ele>31</ele>
        <time>2019-12-18T06:35:16Z</time>
      </trkpt>
      <trkpt lat="59.311026" lon="18.074957">
        <ele>32</ele>
        <time>2019-12-18T06:35:17Z</time>
      </trkpt>
      <trkpt lat="59.311043" lon="18.074941">
        <ele>32</ele>
        <time>2019-12-18T06:35:18Z</time>
      </trkpt>
      <trkpt lat="59.311072" lon="18.074923">
        <ele>33</ele>
        <time>2019-12-18T06:35:20Z</time>
      </trkpt>
      <trkpt lat="59.311093" lon="18.074917">
        <ele>0</ele>
        <time>2019-12-18T06:35:20Z</time>
      </trkpt>
      <trkpt lat="59.311113" lon="18.074905">
        <ele>33</ele>
        <time>2019-12-18T06:35:21Z</time>
      </trkpt>
      <trkpt lat="59.311135" lon="18.074889">
        <ele>34</ele>
        <time>2019-12-18T06:35:22Z</time>
      </trkpt>
      <trkpt lat="59.311157" lon="18.074869">
        <ele>35</ele>
        <time>2019-12-18T06:35:24Z</time>
      </trkpt>
      <trkpt lat="59.311181" lon="18.074847">
        <ele>35</ele>
        <time>2019-12-18T06:35:25Z</time>
      </trkpt>
      <trkpt lat="59.311205" lon="18.074835">
        <ele>35</ele>
        <time>2019-12-18T06:35:26Z</time>
      </trkpt>
      <trkpt lat="59.311235" lon="18.074813">
        <ele>35</ele>
        <time>2019-12-18T06:35:27Z</time>
      </trkpt>
      <trkpt lat="59.31127" lon="18.074788">
        <ele>34</ele>
        <time>2019-12-18T06:35:28Z</time>
      </trkpt>
      <trkpt lat="59.311305" lon="18.07478">
        <ele>34</ele>
        <time>2019-12-18T06:35:29Z</time>
      </trkpt>
      <trkpt lat="59.311343" lon="18.074768">
        <ele>34</ele>
        <time>2019-12-18T06:35:30Z</time>
      </trkpt>
      <trkpt lat="59.311375" lon="18.074752">
        <ele>34</ele>
        <time>2019-12-18T06:35:31Z</time>
      </trkpt>
      <trkpt lat="59.311408" lon="18.074736">
        <ele>35</ele>
        <time>2019-12-18T06:35:32Z</time>
      </trkpt>
      <trkpt lat="59.311439" lon="18.074729">
        <ele>34</ele>
        <time>2019-12-18T06:35:33Z</time>
      </trkpt>
      <trkpt lat="59.31147" lon="18.074725">
        <ele>34</ele>
        <time>2019-12-18T06:35:34Z</time>
      </trkpt>
      <trkpt lat="59.3115" lon="18.074722">
        <ele>34</ele>
        <time>2019-12-18T06:35:35Z</time>
      </trkpt>
      <trkpt lat="59.311538" lon="18.074703">
        <ele>34</ele>
        <time>2019-12-18T06:35:36Z</time>
      </trkpt>
      <trkpt lat="59.311573" lon="18.074686">
        <ele>34</ele>
        <time>2019-12-18T06:35:37Z</time>
      </trkpt>
      <trkpt lat="59.311604" lon="18.074683">
        <ele>0</ele>
        <time>2019-12-18T06:35:37Z</time>
      </trkpt>
      <trkpt lat="59.311643" lon="18.074675">
        <ele>34</ele>
        <time>2019-12-18T06:35:38Z</time>
      </trkpt>
      <trkpt lat="59.31168" lon="18.074672">
        <ele>0</ele>
        <time>2019-12-18T06:35:39Z</time>
      </trkpt>
      <trkpt lat="59.311708" lon="18.074668">
        <ele>33</ele>
        <time>2019-12-18T06:35:40Z</time>
      </trkpt>
      <trkpt lat="59.311738" lon="18.074661">
        <ele>33</ele>
        <time>2019-12-18T06:35:42Z</time>
      </trkpt>
      <trkpt lat="59.311771" lon="18.074649">
        <ele>33</ele>
        <time>2019-12-18T06:35:43Z</time>
      </trkpt>
      <trkpt lat="59.311802" lon="18.074644">
        <ele>32</ele>
        <time>2019-12-18T06:35:44Z</time>
      </trkpt>
      <trkpt lat="59.311832" lon="18.074636">
        <ele>32</ele>
        <time>2019-12-18T06:35:45Z</time>
      </trkpt>
      <trkpt lat="59.31186" lon="18.074625">
        <ele>32</ele>
        <time>2019-12-18T06:35:46Z</time>
      </trkpt>
      <trkpt lat="59.311889" lon="18.074616">
        <ele>31</ele>
        <time>2019-12-18T06:35:47Z</time>
      </trkpt>
      <trkpt lat="59.311919" lon="18.074607">
        <ele>31</ele>
        <time>2019-12-18T06:35:48Z</time>
      </trkpt>
      <trkpt lat="59.311948" lon="18.074597">
        <ele>31</ele>
        <time>2019-12-18T06:35:49Z</time>
      </trkpt>
      <trkpt lat="59.311977" lon="18.074588">
        <ele>31</ele>
        <time>2019-12-18T06:35:50Z</time>
      </trkpt>
      <trkpt lat="59.312007" lon="18.074578">
        <ele>30</ele>
        <time>2019-12-18T06:35:51Z</time>
      </trkpt>
      <trkpt lat="59.312037" lon="18.07457">
        <ele>30</ele>
        <time>2019-12-18T06:35:52Z</time>
      </trkpt>
      <trkpt lat="59.312065" lon="18.074559">
        <ele>30</ele>
        <time>2019-12-18T06:35:53Z</time>
      </trkpt>
      <trkpt lat="59.312094" lon="18.074538">
        <ele>0</ele>
        <time>2019-12-18T06:35:53Z</time>
      </trkpt>
      <trkpt lat="59.312123" lon="18.074525">
        <ele>30</ele>
        <time>2019-12-18T06:35:54Z</time>
      </trkpt>
      <trkpt lat="59.312151" lon="18.074512">
        <ele>29</ele>
        <time>2019-12-18T06:35:56Z</time>
      </trkpt>
      <trkpt lat="59.312178" lon="18.074495">
        <ele>29</ele>
        <time>2019-12-18T06:35:57Z</time>
      </trkpt>
      <trkpt lat="59.312206" lon="18.074477">
        <ele>29</ele>
        <time>2019-12-18T06:35:58Z</time>
      </trkpt>
      <trkpt lat="59.312233" lon="18.074457">
        <ele>0</ele>
        <time>2019-12-18T06:35:58Z</time>
      </trkpt>
      <trkpt lat="59.312259" lon="18.074437">
        <ele>29</ele>
        <time>2019-12-18T06:35:59Z</time>
      </trkpt>
      <trkpt lat="59.312285" lon="18.074416">
        <ele>30</ele>
        <time>2019-12-18T06:36:01Z</time>
      </trkpt>
      <trkpt lat="59.312307" lon="18.074357">
        <ele>30</ele>
        <time>2019-12-18T06:36:02Z</time>
      </trkpt>
      <trkpt lat="59.31233" lon="18.07434">
        <ele>30</ele>
        <time>2019-12-18T06:36:03Z</time>
      </trkpt>
      <trkpt lat="59.312353" lon="18.074323">
        <ele>29</ele>
        <time>2019-12-18T06:36:04Z</time>
      </trkpt>
      <trkpt lat="59.312377" lon="18.0743">
        <ele>29</ele>
        <time>2019-12-18T06:36:05Z</time>
      </trkpt>
      <trkpt lat="59.312402" lon="18.074279">
        <ele>29</ele>
        <time>2019-12-18T06:36:06Z</time>
      </trkpt>
      <trkpt lat="59.312424" lon="18.074255">
        <ele>29</ele>
        <time>2019-12-18T06:36:07Z</time>
      </trkpt>
      <trkpt lat="59.312447" lon="18.074231">
        <ele>29</ele>
        <time>2019-12-18T06:36:08Z</time>
      </trkpt>
      <trkpt lat="59.312466" lon="18.074194">
        <ele>30</ele>
        <time>2019-12-18T06:36:09Z</time>
      </trkpt>
      <trkpt lat="59.312492" lon="18.074183">
        <ele>29</ele>
        <time>2019-12-18T06:36:10Z</time>
      </trkpt>
      <trkpt lat="59.31252" lon="18.074175">
        <ele>29</ele>
        <time>2019-12-18T06:36:11Z</time>
      </trkpt>
      <trkpt lat="59.31255" lon="18.074167">
        <ele>0</ele>
        <time>2019-12-18T06:36:11Z</time>
      </trkpt>
      <trkpt lat="59.312578" lon="18.074159">
        <ele>29</ele>
        <time>2019-12-18T06:36:12Z</time>
      </trkpt>
      <trkpt lat="59.312604" lon="18.074151">
        <ele>29</ele>
        <time>2019-12-18T06:36:14Z</time>
      </trkpt>
      <trkpt lat="59.312632" lon="18.074142">
        <ele>29</ele>
        <time>2019-12-18T06:36:15Z</time>
      </trkpt>
      <trkpt lat="59.31266" lon="18.074137">
        <ele>29</ele>
        <time>2019-12-18T06:36:16Z</time>
      </trkpt>
      <trkpt lat="59.31269" lon="18.074133">
        <ele>29</ele>
        <time>2019-12-18T06:36:17Z</time>
      </trkpt>
      <trkpt lat="59.312717" lon="18.074129">
        <ele>0</ele>
        <time>2019-12-18T06:36:17Z</time>
      </trkpt>
      <trkpt lat="59.312744" lon="18.074119">
        <ele>29</ele>
        <time>2019-12-18T06:36:18Z</time>
      </trkpt>
      <trkpt lat="59.312769" lon="18.074112">
        <ele>29</ele>
        <time>2019-12-18T06:36:20Z</time>
      </trkpt>
      <trkpt lat="59.312796" lon="18.074107">
        <ele>29</ele>
        <time>2019-12-18T06:36:21Z</time>
      </trkpt>
      <trkpt lat="59.312823" lon="18.074096">
        <ele>29</ele>
        <time>2019-12-18T06:36:22Z</time>
      </trkpt>
      <trkpt lat="59.312849" lon="18.074087">
        <ele>29</ele>
        <time>2019-12-18T06:36:23Z</time>
      </trkpt>
      <trkpt lat="59.312877" lon="18.07408">
        <ele>29</ele>
        <time>2019-12-18T06:36:24Z</time>
      </trkpt>
      <trkpt lat="59.312903" lon="18.074073">
        <ele>29</ele>
        <time>2019-12-18T06:36:25Z</time>
      </trkpt>
      <trkpt lat="59.312929" lon="18.074065">
        <ele>29</ele>
        <time>2019-12-18T06:36:26Z</time>
      </trkpt>
      <trkpt lat="59.312956" lon="18.074061">
        <ele>29</ele>
        <time>2019-12-18T06:36:27Z</time>
      </trkpt>
      <trkpt lat="59.31298" lon="18.074051">
        <ele>29</ele>
        <time>2019-12-18T06:36:28Z</time>
      </trkpt>
      <trkpt lat="59.313008" lon="18.074045">
        <ele>29</ele>
        <time>2019-12-18T06:36:29Z</time>
      </trkpt>
      <trkpt lat="59.313033" lon="18.074037">
        <ele>0</ele>
        <time>2019-12-18T06:36:29Z</time>
      </trkpt>
      <trkpt lat="59.313059" lon="18.074032">
        <ele>29</ele>
        <time>2019-12-18T06:36:30Z</time>
      </trkpt>
      <trkpt lat="59.313085" lon="18.074028">
        <ele>29</ele>
        <time>2019-12-18T06:36:32Z</time>
      </trkpt>
      <trkpt lat="59.31311" lon="18.074019">
        <ele>29</ele>
        <time>2019-12-18T06:36:33Z</time>
      </trkpt>
      <trkpt lat="59.313133" lon="18.074">
        <ele>30</ele>
        <time>2019-12-18T06:36:34Z</time>
      </trkpt>
      <trkpt lat="59.313156" lon="18.073985">
        <ele>30</ele>
        <time>2019-12-18T06:36:35Z</time>
      </trkpt>
      <trkpt lat="59.313184" lon="18.073966">
        <ele>30</ele>
        <time>2019-12-18T06:36:36Z</time>
      </trkpt>
      <trkpt lat="59.313213" lon="18.073942">
        <ele>0</ele>
        <time>2019-12-18T06:36:36Z</time>
      </trkpt>
      <trkpt lat="59.313243" lon="18.073922">
        <ele>31</ele>
        <time>2019-12-18T06:36:37Z</time>
      </trkpt>
      <trkpt lat="59.313271" lon="18.073898">
        <ele>31</ele>
        <time>2019-12-18T06:36:39Z</time>
      </trkpt>
      <trkpt lat="59.313299" lon="18.073874">
        <ele>32</ele>
        <time>2019-12-18T06:36:40Z</time>
      </trkpt>
      <trkpt lat="59.313327" lon="18.073848">
        <ele>32</ele>
        <time>2019-12-18T06:36:41Z</time>
      </trkpt>
      <trkpt lat="59.313356" lon="18.073825">
        <ele>32</ele>
        <time>2019-12-18T06:36:42Z</time>
      </trkpt>
      <trkpt lat="59.313383" lon="18.073813">
        <ele>32</ele>
        <time>2019-12-18T06:36:43Z</time>
      </trkpt>
      <trkpt lat="59.313406" lon="18.073803">
        <ele>32</ele>
        <time>2019-12-18T06:36:44Z</time>
      </trkpt>
      <trkpt lat="59.313433" lon="18.073787">
        <ele>33</ele>
        <time>2019-12-18T06:36:45Z</time>
      </trkpt>
      <trkpt lat="59.313461" lon="18.073758">
        <ele>33</ele>
        <time>2019-12-18T06:36:46Z</time>
      </trkpt>
      <trkpt lat="59.31349" lon="18.073733">
        <ele>33</ele>
        <time>2019-12-18T06:36:47Z</time>
      </trkpt>
      <trkpt lat="59.313518" lon="18.073715">
        <ele>0</ele>
        <time>2019-12-18T06:36:47Z</time>
      </trkpt>
      <trkpt lat="59.313546" lon="18.073696">
        <ele>34</ele>
        <time>2019-12-18T06:36:48Z</time>
      </trkpt>
      <trkpt lat="59.313573" lon="18.073668">
        <ele>34</ele>
        <time>2019-12-18T06:36:50Z</time>
      </trkpt>
      <trkpt lat="59.3136" lon="18.073638">
        <ele>35</ele>
        <time>2019-12-18T06:36:51Z</time>
      </trkpt>
      <trkpt lat="59.31363" lon="18.073612">
        <ele>35</ele>
        <time>2019-12-18T06:36:52Z</time>
      </trkpt>
      <trkpt lat="59.313657" lon="18.073588">
        <ele>35</ele>
        <time>2019-12-18T06:36:53Z</time>
      </trkpt>
      <trkpt lat="59.313684" lon="18.073566">
        <ele>36</ele>
        <time>2019-12-18T06:36:54Z</time>
      </trkpt>
      <trkpt lat="59.313713" lon="18.073531">
        <ele>36</ele>
        <time>2019-12-18T06:36:55Z</time>
      </trkpt>
      <trkpt lat="59.313743" lon="18.073504">
        <ele>0</ele>
        <time>2019-12-18T06:36:55Z</time>
      </trkpt>
      <trkpt lat="59.313775" lon="18.073483">
        <ele>37</ele>
        <time>2019-12-18T06:36:56Z</time>
      </trkpt>
      <trkpt lat="59.313807" lon="18.073462">
        <ele>37</ele>
        <time>2019-12-18T06:36:58Z</time>
      </trkpt>
      <trkpt lat="59.313846" lon="18.073431">
        <ele>37</ele>
        <time>2019-12-18T06:36:59Z</time>
      </trkpt>
      <trkpt lat="59.313883" lon="18.073404">
        <ele>38</ele>
        <time>2019-12-18T06:37:00Z</time>
      </trkpt>
      <trkpt lat="59.313919" lon="18.073392">
        <ele>38</ele>
        <time>2019-12-18T06:37:01Z</time>
      </trkpt>
      <trkpt lat="59.313948" lon="18.073392">
        <ele>39</ele>
        <time>2019-12-18T06:37:02Z</time>
      </trkpt>
      <trkpt lat="59.313971" lon="18.073379">
        <ele>0</ele>
        <time>2019-12-18T06:37:02Z</time>
      </trkpt>
      <trkpt lat="59.313996" lon="18.073366">
        <ele>39</ele>
        <time>2019-12-18T06:37:03Z</time>
      </trkpt>
      <trkpt lat="59.314024" lon="18.073355">
        <ele>39</ele>
        <time>2019-12-18T06:37:05Z</time>
      </trkpt>
      <trkpt lat="59.314048" lon="18.073338">
        <ele>40</ele>
        <time>2019-12-18T06:37:06Z</time>
      </trkpt>
      <trkpt lat="59.314076" lon="18.073321">
        <ele>40</ele>
        <time>2019-12-18T06:37:07Z</time>
      </trkpt>
      <trkpt lat="59.314102" lon="18.073307">
        <ele>41</ele>
        <time>2019-12-18T06:37:08Z</time>
      </trkpt>
      <trkpt lat="59.31413" lon="18.073288">
        <ele>41</ele>
        <time>2019-12-18T06:37:09Z</time>
      </trkpt>
      <trkpt lat="59.314162" lon="18.073296">
        <ele>41</ele>
        <time>2019-12-18T06:37:10Z</time>
      </trkpt>
      <trkpt lat="59.314193" lon="18.073296">
        <ele>41</ele>
        <time>2019-12-18T06:37:11Z</time>
      </trkpt>
      <trkpt lat="59.314221" lon="18.073302">
        <ele>40</ele>
        <time>2019-12-18T06:37:12Z</time>
      </trkpt>
      <trkpt lat="59.314246" lon="18.073314">
        <ele>40</ele>
        <time>2019-12-18T06:37:13Z</time>
      </trkpt>
      <trkpt lat="59.314263" lon="18.073319">
        <ele>40</ele>
        <time>2019-12-18T06:37:14Z</time>
      </trkpt>
      <trkpt lat="59.314286" lon="18.073332">
        <ele>41</ele>
        <time>2019-12-18T06:37:15Z</time>
      </trkpt>
      <trkpt lat="59.314303" lon="18.073366">
        <ele>41</ele>
        <time>2019-12-18T06:37:19Z</time>
      </trkpt>
      <trkpt lat="59.314328" lon="18.073367">
        <ele>40</ele>
        <time>2019-12-18T06:37:21Z</time>
      </trkpt>
      <trkpt lat="59.314358" lon="18.073353">
        <ele>40</ele>
        <time>2019-12-18T06:37:22Z</time>
      </trkpt>
      <trkpt lat="59.31439" lon="18.073346">
        <ele>40</ele>
        <time>2019-12-18T06:37:23Z</time>
      </trkpt>
      <trkpt lat="59.314415" lon="18.073332">
        <ele>39</ele>
        <time>2019-12-18T06:37:24Z</time>
      </trkpt>
      <trkpt lat="59.314442" lon="18.073319">
        <ele>0</ele>
        <time>2019-12-18T06:37:24Z</time>
      </trkpt>
      <trkpt lat="59.314468" lon="18.073289">
        <ele>39</ele>
        <time>2019-12-18T06:37:25Z</time>
      </trkpt>
      <trkpt lat="59.314491" lon="18.073264">
        <ele>38</ele>
        <time>2019-12-18T06:37:27Z</time>
      </trkpt>
      <trkpt lat="59.314514" lon="18.073235">
        <ele>37</ele>
        <time>2019-12-18T06:37:28Z</time>
      </trkpt>
      <trkpt lat="59.314536" lon="18.073207">
        <ele>37</ele>
        <time>2019-12-18T06:37:29Z</time>
      </trkpt>
      <trkpt lat="59.31456" lon="18.073182">
        <ele>36</ele>
        <time>2019-12-18T06:37:30Z</time>
      </trkpt>
      <trkpt lat="59.314584" lon="18.073157">
        <ele>35</ele>
        <time>2019-12-18T06:37:31Z</time>
      </trkpt>
      <trkpt lat="59.314598" lon="18.073133">
        <ele>35</ele>
        <time>2019-12-18T06:37:32Z</time>
      </trkpt>
      <trkpt lat="59.31462" lon="18.073098">
        <ele>35</ele>
        <time>2019-12-18T06:37:33Z</time>
      </trkpt>
      <trkpt lat="59.314643" lon="18.073067">
        <ele>0</ele>
        <time>2019-12-18T06:37:33Z</time>
      </trkpt>
      <trkpt lat="59.314666" lon="18.073037">
        <ele>35</ele>
        <time>2019-12-18T06:37:34Z</time>
      </trkpt>
      <trkpt lat="59.31469" lon="18.073022">
        <ele>36</ele>
        <time>2019-12-18T06:37:36Z</time>
      </trkpt>
      <trkpt lat="59.314716" lon="18.07301">
        <ele>36</ele>
        <time>2019-12-18T06:37:37Z</time>
      </trkpt>
      <trkpt lat="59.31474" lon="18.072988">
        <ele>36</ele>
        <time>2019-12-18T06:37:38Z</time>
      </trkpt>
      <trkpt lat="59.314767" lon="18.072979">
        <ele>36</ele>
        <time>2019-12-18T06:37:39Z</time>
      </trkpt>
      <trkpt lat="59.314794" lon="18.072967">
        <ele>36</ele>
        <time>2019-12-18T06:37:40Z</time>
      </trkpt>
      <trkpt lat="59.31482" lon="18.07296">
        <ele>36</ele>
        <time>2019-12-18T06:37:41Z</time>
      </trkpt>
      <trkpt lat="59.314848" lon="18.07296">
        <ele>36</ele>
        <time>2019-12-18T06:37:42Z</time>
      </trkpt>
      <trkpt lat="59.31488" lon="18.072961">
        <ele>36</ele>
        <time>2019-12-18T06:37:43Z</time>
      </trkpt>
      <trkpt lat="59.31491" lon="18.072953">
        <ele>0</ele>
        <time>2019-12-18T06:37:43Z</time>
      </trkpt>
      <trkpt lat="59.31494" lon="18.072949">
        <ele>36</ele>
        <time>2019-12-18T06:37:44Z</time>
      </trkpt>
      <trkpt lat="59.314971" lon="18.072944">
        <ele>36</ele>
        <time>2019-12-18T06:37:46Z</time>
      </trkpt>
      <trkpt lat="59.315002" lon="18.072937">
        <ele>36</ele>
        <time>2019-12-18T06:37:47Z</time>
      </trkpt>
      <trkpt lat="59.315032" lon="18.072931">
        <ele>36</ele>
        <time>2019-12-18T06:37:48Z</time>
      </trkpt>
      <trkpt lat="59.315062" lon="18.07292">
        <ele>37</ele>
        <time>2019-12-18T06:37:49Z</time>
      </trkpt>
      <trkpt lat="59.31509" lon="18.07291">
        <ele>37</ele>
        <time>2019-12-18T06:37:50Z</time>
      </trkpt>
      <trkpt lat="59.315118" lon="18.072905">
        <ele>36</ele>
        <time>2019-12-18T06:37:51Z</time>
      </trkpt>
      <trkpt lat="59.315142" lon="18.072892">
        <ele>36</ele>
        <time>2019-12-18T06:37:52Z</time>
      </trkpt>
      <trkpt lat="59.31517" lon="18.072874">
        <ele>0</ele>
        <time>2019-12-18T06:37:52Z</time>
      </trkpt>
      <trkpt lat="59.315198" lon="18.072859">
        <ele>36</ele>
        <time>2019-12-18T06:37:53Z</time>
      </trkpt>
      <trkpt lat="59.315227" lon="18.072849">
        <ele>37</ele>
        <time>2019-12-18T06:37:55Z</time>
      </trkpt>
      <trkpt lat="59.315256" lon="18.072846">
        <ele>37</ele>
        <time>2019-12-18T06:37:56Z</time>
      </trkpt>
      <trkpt lat="59.315282" lon="18.072843">
        <ele>37</ele>
        <time>2019-12-18T06:37:57Z</time>
      </trkpt>
      <trkpt lat="59.315312" lon="18.072836">
        <ele>37</ele>
        <time>2019-12-18T06:37:58Z</time>
      </trkpt>
      <trkpt lat="59.31534" lon="18.072827">
        <ele>37</ele>
        <time>2019-12-18T06:37:59Z</time>
      </trkpt>
      <trkpt lat="59.31537" lon="18.072821">
        <ele>37</ele>
        <time>2019-12-18T06:38:00Z</time>
      </trkpt>
      <trkpt lat="59.315397" lon="18.072812">
        <ele>0</ele>
        <time>2019-12-18T06:38:00Z</time>
      </trkpt>
      <trkpt lat="59.315424" lon="18.072801">
        <ele>37</ele>
        <time>2019-12-18T06:38:01Z</time>
      </trkpt>
      <trkpt lat="59.315452" lon="18.072785">
        <ele>37</ele>
        <time>2019-12-18T06:38:03Z</time>
      </trkpt>
      <trkpt lat="59.315476" lon="18.072768">
        <ele>36</ele>
        <time>2019-12-18T06:38:04Z</time>
      </trkpt>
      <trkpt lat="59.315501" lon="18.072754">
        <ele>36</ele>
        <time>2019-12-18T06:38:05Z</time>
      </trkpt>
      <trkpt lat="59.315524" lon="18.07274">
        <ele>36</ele>
        <time>2019-12-18T06:38:06Z</time>
      </trkpt>
      <trkpt lat="59.315548" lon="18.072728">
        <ele>36</ele>
        <time>2019-12-18T06:38:07Z</time>
      </trkpt>
      <trkpt lat="59.315574" lon="18.072716">
        <ele>36</ele>
        <time>2019-12-18T06:38:08Z</time>
      </trkpt>
      <trkpt lat="59.315597" lon="18.0727">
        <ele>36</ele>
        <time>2019-12-18T06:38:09Z</time>
      </trkpt>
      <trkpt lat="59.315621" lon="18.072679">
        <ele>35</ele>
        <time>2019-12-18T06:38:10Z</time>
      </trkpt>
      <trkpt lat="59.315643" lon="18.07266">
        <ele>35</ele>
        <time>2019-12-18T06:38:11Z</time>
      </trkpt>
      <trkpt lat="59.315665" lon="18.072643">
        <ele>0</ele>
        <time>2019-12-18T06:38:11Z</time>
      </trkpt>
      <trkpt lat="59.315686" lon="18.072638">
        <ele>34</ele>
        <time>2019-12-18T06:38:12Z</time>
      </trkpt>
      <trkpt lat="59.315706" lon="18.072627">
        <ele>33</ele>
        <time>2019-12-18T06:38:14Z</time>
      </trkpt>
      <trkpt lat="59.315728" lon="18.072612">
        <ele>33</ele>
        <time>2019-12-18T06:38:15Z</time>
      </trkpt>
      <trkpt lat="59.315755" lon="18.072597">
        <ele>33</ele>
        <time>2019-12-18T06:38:16Z</time>
      </trkpt>
      <trkpt lat="59.31578" lon="18.072578">
        <ele>33</ele>
        <time>2019-12-18T06:38:17Z</time>
      </trkpt>
      <trkpt lat="59.315798" lon="18.072566">
        <ele>33</ele>
        <time>2019-12-18T06:38:18Z</time>
      </trkpt>
      <trkpt lat="59.315828" lon="18.072554">
        <ele>34</ele>
        <time>2019-12-18T06:38:20Z</time>
      </trkpt>
      <trkpt lat="59.315861" lon="18.072542">
        <ele>34</ele>
        <time>2019-12-18T06:38:22Z</time>
      </trkpt>
      <trkpt lat="59.315883" lon="18.072527">
        <ele>0</ele>
        <time>2019-12-18T06:38:22Z</time>
      </trkpt>
      <trkpt lat="59.315902" lon="18.072511">
        <ele>34</ele>
        <time>2019-12-18T06:38:23Z</time>
      </trkpt>
      <trkpt lat="59.315922" lon="18.072498">
        <ele>34</ele>
        <time>2019-12-18T06:38:25Z</time>
      </trkpt>
      <trkpt lat="59.315944" lon="18.07249">
        <ele>34</ele>
        <time>2019-12-18T06:38:26Z</time>
      </trkpt>
      <trkpt lat="59.315966" lon="18.072484">
        <ele>35</ele>
        <time>2019-12-18T06:38:27Z</time>
      </trkpt>
      <trkpt lat="59.315992" lon="18.072473">
        <ele>35</ele>
        <time>2019-12-18T06:38:28Z</time>
      </trkpt>
      <trkpt lat="59.316018" lon="18.072456">
        <ele>35</ele>
        <time>2019-12-18T06:38:29Z</time>
      </trkpt>
      <trkpt lat="59.316042" lon="18.072437">
        <ele>35</ele>
        <time>2019-12-18T06:38:30Z</time>
      </trkpt>
      <trkpt lat="59.316064" lon="18.072416">
        <ele>0</ele>
        <time>2019-12-18T06:38:30Z</time>
      </trkpt>
      <trkpt lat="59.316093" lon="18.072399">
        <ele>35</ele>
        <time>2019-12-18T06:38:31Z</time>
      </trkpt>
      <trkpt lat="59.316123" lon="18.072378">
        <ele>35</ele>
        <time>2019-12-18T06:38:33Z</time>
      </trkpt>
      <trkpt lat="59.316149" lon="18.072356">
        <ele>35</ele>
        <time>2019-12-18T06:38:34Z</time>
      </trkpt>
      <trkpt lat="59.316175" lon="18.072337">
        <ele>35</ele>
        <time>2019-12-18T06:38:35Z</time>
      </trkpt>
      <trkpt lat="59.316198" lon="18.072321">
        <ele>35</ele>
        <time>2019-12-18T06:38:36Z</time>
      </trkpt>
      <trkpt lat="59.316228" lon="18.072309">
        <ele>35</ele>
        <time>2019-12-18T06:38:37Z</time>
      </trkpt>
      <trkpt lat="59.316254" lon="18.072294">
        <ele>35</ele>
        <time>2019-12-18T06:38:38Z</time>
      </trkpt>
      <trkpt lat="59.316281" lon="18.072277">
        <ele>35</ele>
        <time>2019-12-18T06:38:39Z</time>
      </trkpt>
      <trkpt lat="59.316306" lon="18.072264">
        <ele>35</ele>
        <time>2019-12-18T06:38:40Z</time>
      </trkpt>
      <trkpt lat="59.316333" lon="18.072242">
        <ele>36</ele>
        <time>2019-12-18T06:38:41Z</time>
      </trkpt>
      <trkpt lat="59.316359" lon="18.072226">
        <ele>36</ele>
        <time>2019-12-18T06:38:42Z</time>
      </trkpt>
      <trkpt lat="59.316447" lon="18.07216">
        <ele>36</ele>
        <time>2019-12-18T06:38:45Z</time>
      </trkpt>
      <trkpt lat="59.316497" lon="18.072149">
        <ele>37</ele>
        <time>2019-12-18T06:38:48Z</time>
      </trkpt>
      <trkpt lat="59.31655" lon="18.072136">
        <ele>0</ele>
        <time>2019-12-18T06:38:49Z</time>
      </trkpt>
      <trkpt lat="59.316574" lon="18.072124">
        <ele>37</ele>
        <time>2019-12-18T06:38:50Z</time>
      </trkpt>
      <trkpt lat="59.316594" lon="18.072111">
        <ele>37</ele>
        <time>2019-12-18T06:38:52Z</time>
      </trkpt>
      <trkpt lat="59.316613" lon="18.072096">
        <ele>37</ele>
        <time>2019-12-18T06:38:53Z</time>
      </trkpt>
      <trkpt lat="59.316639" lon="18.072081">
        <ele>38</ele>
        <time>2019-12-18T06:38:54Z</time>
      </trkpt>
      <trkpt lat="59.316668" lon="18.072058">
        <ele>38</ele>
        <time>2019-12-18T06:38:55Z</time>
      </trkpt>
      <trkpt lat="59.316778" lon="18.071995">
        <ele>38</ele>
        <time>2019-12-18T06:38:58Z</time>
      </trkpt>
      <trkpt lat="59.316827" lon="18.071966">
        <ele>0</ele>
        <time>2019-12-18T06:38:58Z</time>
      </trkpt>
      <trkpt lat="59.316864" lon="18.07193">
        <ele>38</ele>
        <time>2019-12-18T06:38:59Z</time>
      </trkpt>
      <trkpt lat="59.316895" lon="18.071895">
        <ele>38</ele>
        <time>2019-12-18T06:39:01Z</time>
      </trkpt>
      <trkpt lat="59.316923" lon="18.071869">
        <ele>38</ele>
        <time>2019-12-18T06:39:02Z</time>
      </trkpt>
      <trkpt lat="59.316953" lon="18.07185">
        <ele>38</ele>
        <time>2019-12-18T06:39:03Z</time>
      </trkpt>
      <trkpt lat="59.316979" lon="18.071826">
        <ele>38</ele>
        <time>2019-12-18T06:39:04Z</time>
      </trkpt>
      <trkpt lat="59.317007" lon="18.071809">
        <ele>40</ele>
        <time>2019-12-18T06:39:05Z</time>
      </trkpt>
      <trkpt lat="59.317045" lon="18.071788">
        <ele>40</ele>
        <time>2019-12-18T06:39:06Z</time>
      </trkpt>
      <trkpt lat="59.317068" lon="18.07177">
        <ele>40</ele>
        <time>2019-12-18T06:39:07Z</time>
      </trkpt>
      <trkpt lat="59.317087" lon="18.071749">
        <ele>40</ele>
        <time>2019-12-18T06:39:08Z</time>
      </trkpt>
      <trkpt lat="59.317109" lon="18.071733">
        <ele>0</ele>
        <time>2019-12-18T06:39:08Z</time>
      </trkpt>
      <trkpt lat="59.317132" lon="18.071729">
        <ele>41</ele>
        <time>2019-12-18T06:39:11Z</time>
      </trkpt>
      <trkpt lat="59.317149" lon="18.071758">
        <ele>41</ele>
        <time>2019-12-18T06:39:13Z</time>
      </trkpt>
      <trkpt lat="59.317169" lon="18.071768">
        <ele>41</ele>
        <time>2019-12-18T06:39:14Z</time>
      </trkpt>
      <trkpt lat="59.317201" lon="18.071759">
        <ele>41</ele>
        <time>2019-12-18T06:39:16Z</time>
      </trkpt>
      <trkpt lat="59.317221" lon="18.071759">
        <ele>41</ele>
        <time>2019-12-18T06:39:17Z</time>
      </trkpt>
      <trkpt lat="59.317248" lon="18.071748">
        <ele>41</ele>
        <time>2019-12-18T06:39:18Z</time>
      </trkpt>
      <trkpt lat="59.31728" lon="18.071738">
        <ele>0</ele>
        <time>2019-12-18T06:39:18Z</time>
      </trkpt>
      <trkpt lat="59.317311" lon="18.071724">
        <ele>42</ele>
        <time>2019-12-18T06:39:19Z</time>
      </trkpt>
      <trkpt lat="59.317342" lon="18.071707">
        <ele>42</ele>
        <time>2019-12-18T06:39:21Z</time>
      </trkpt>
      <trkpt lat="59.317369" lon="18.071689">
        <ele>42</ele>
        <time>2019-12-18T06:39:22Z</time>
      </trkpt>
      <trkpt lat="59.317395" lon="18.071678">
        <ele>42</ele>
        <time>2019-12-18T06:39:23Z</time>
      </trkpt>
      <trkpt lat="59.317419" lon="18.071668">
        <ele>42</ele>
        <time>2019-12-18T06:39:24Z</time>
      </trkpt>
      <trkpt lat="59.317443" lon="18.071661">
        <ele>42</ele>
        <time>2019-12-18T06:39:25Z</time>
      </trkpt>
      <trkpt lat="59.317469" lon="18.071656">
        <ele>42</ele>
        <time>2019-12-18T06:39:26Z</time>
      </trkpt>
      <trkpt lat="59.317493" lon="18.071635">
        <ele>42</ele>
        <time>2019-12-18T06:39:27Z</time>
      </trkpt>
      <trkpt lat="59.317519" lon="18.071611">
        <ele>0</ele>
        <time>2019-12-18T06:39:27Z</time>
      </trkpt>
      <trkpt lat="59.317546" lon="18.071592">
        <ele>43</ele>
        <time>2019-12-18T06:39:28Z</time>
      </trkpt>
      <trkpt lat="59.317577" lon="18.071582">
        <ele>43</ele>
        <time>2019-12-18T06:39:30Z</time>
      </trkpt>
      <trkpt lat="59.317601" lon="18.071567">
        <ele>43</ele>
        <time>2019-12-18T06:39:31Z</time>
      </trkpt>
      <trkpt lat="59.317625" lon="18.071545">
        <ele>43</ele>
        <time>2019-12-18T06:39:32Z</time>
      </trkpt>
      <trkpt lat="59.317664" lon="18.071532">
        <ele>43</ele>
        <time>2019-12-18T06:39:33Z</time>
      </trkpt>
      <trkpt lat="59.317698" lon="18.071522">
        <ele>43</ele>
        <time>2019-12-18T06:39:34Z</time>
      </trkpt>
      <trkpt lat="59.317728" lon="18.07151">
        <ele>43</ele>
        <time>2019-12-18T06:39:35Z</time>
      </trkpt>
      <trkpt lat="59.31776" lon="18.071499">
        <ele>43</ele>
        <time>2019-12-18T06:39:36Z</time>
      </trkpt>
      <trkpt lat="59.317795" lon="18.071483">
        <ele>0</ele>
        <time>2019-12-18T06:39:36Z</time>
      </trkpt>
      <trkpt lat="59.317826" lon="18.07147">
        <ele>43</ele>
        <time>2019-12-18T06:39:37Z</time>
      </trkpt>
      <trkpt lat="59.317859" lon="18.071465">
        <ele>43</ele>
        <time>2019-12-18T06:39:39Z</time>
      </trkpt>
      <trkpt lat="59.317887" lon="18.071452">
        <ele>44</ele>
        <time>2019-12-18T06:39:40Z</time>
      </trkpt>
      <trkpt lat="59.31791" lon="18.071436">
        <ele>44</ele>
        <time>2019-12-18T06:39:41Z</time>
      </trkpt>
      <trkpt lat="59.317937" lon="18.071419">
        <ele>44</ele>
        <time>2019-12-18T06:39:42Z</time>
      </trkpt>
      <trkpt lat="59.317965" lon="18.071407">
        <ele>44</ele>
        <time>2019-12-18T06:39:43Z</time>
      </trkpt>
      <trkpt lat="59.317994" lon="18.071397">
        <ele>44</ele>
        <time>2019-12-18T06:39:44Z</time>
      </trkpt>
      <trkpt lat="59.318023" lon="18.071387">
        <ele>44</ele>
        <time>2019-12-18T06:39:45Z</time>
      </trkpt>
      <trkpt lat="59.318052" lon="18.071378">
        <ele>45</ele>
        <time>2019-12-18T06:39:46Z</time>
      </trkpt>
      <trkpt lat="59.318081" lon="18.071373">
        <ele>0</ele>
        <time>2019-12-18T06:39:46Z</time>
      </trkpt>
      <trkpt lat="59.318104" lon="18.071371">
        <ele>45</ele>
        <time>2019-12-18T06:39:47Z</time>
      </trkpt>
      <trkpt lat="59.31813" lon="18.071373">
        <ele>46</ele>
        <time>2019-12-18T06:39:49Z</time>
      </trkpt>
      <trkpt lat="59.31816" lon="18.071357">
        <ele>46</ele>
        <time>2019-12-18T06:39:50Z</time>
      </trkpt>
      <trkpt lat="59.318192" lon="18.071343">
        <ele>46</ele>
        <time>2019-12-18T06:39:51Z</time>
      </trkpt>
      <trkpt lat="59.318228" lon="18.071329">
        <ele>46</ele>
        <time>2019-12-18T06:39:52Z</time>
      </trkpt>
      <trkpt lat="59.31826" lon="18.071313">
        <ele>0</ele>
        <time>2019-12-18T06:39:52Z</time>
      </trkpt>
      <trkpt lat="59.318288" lon="18.071306">
        <ele>46</ele>
        <time>2019-12-18T06:39:53Z</time>
      </trkpt>
      <trkpt lat="59.318316" lon="18.071293">
        <ele>46</ele>
        <time>2019-12-18T06:39:55Z</time>
      </trkpt>
      <trkpt lat="59.318343" lon="18.071274">
        <ele>46</ele>
        <time>2019-12-18T06:39:56Z</time>
      </trkpt>
      <trkpt lat="59.318365" lon="18.07126">
        <ele>46</ele>
        <time>2019-12-18T06:39:57Z</time>
      </trkpt>
      <trkpt lat="59.318391" lon="18.071242">
        <ele>46</ele>
        <time>2019-12-18T06:39:58Z</time>
      </trkpt>
      <trkpt lat="59.318423" lon="18.071222">
        <ele>46</ele>
        <time>2019-12-18T06:39:59Z</time>
      </trkpt>
      <trkpt lat="59.31846" lon="18.071196">
        <ele>46</ele>
        <time>2019-12-18T06:40:00Z</time>
      </trkpt>
      <trkpt lat="59.318502" lon="18.071153">
        <ele>46</ele>
        <time>2019-12-18T06:40:01Z</time>
      </trkpt>
      <trkpt lat="59.318538" lon="18.071124">
        <ele>47</ele>
        <time>2019-12-18T06:40:02Z</time>
      </trkpt>
      <trkpt lat="59.318571" lon="18.0711">
        <ele>47</ele>
        <time>2019-12-18T06:40:03Z</time>
      </trkpt>
      <trkpt lat="59.318603" lon="18.071076">
        <ele>47</ele>
        <time>2019-12-18T06:40:04Z</time>
      </trkpt>
      <trkpt lat="59.318633" lon="18.07106">
        <ele>46</ele>
        <time>2019-12-18T06:40:05Z</time>
      </trkpt>
      <trkpt lat="59.31866" lon="18.071028">
        <ele>0</ele>
        <time>2019-12-18T06:40:05Z</time>
      </trkpt>
      <trkpt lat="59.318684" lon="18.071006">
        <ele>46</ele>
        <time>2019-12-18T06:40:06Z</time>
      </trkpt>
      <trkpt lat="59.318701" lon="18.070982">
        <ele>46</ele>
        <time>2019-12-18T06:40:08Z</time>
      </trkpt>
      <trkpt lat="59.318723" lon="18.070966">
        <ele>0</ele>
        <time>2019-12-18T06:40:08Z</time>
      </trkpt>
      <trkpt lat="59.318748" lon="18.070949">
        <ele>46</ele>
        <time>2019-12-18T06:40:09Z</time>
      </trkpt>
      <trkpt lat="59.318776" lon="18.070946">
        <ele>46</ele>
        <time>2019-12-18T06:40:11Z</time>
      </trkpt>
      <trkpt lat="59.318803" lon="18.070944">
        <ele>46</ele>
        <time>2019-12-18T06:40:12Z</time>
      </trkpt>
      <trkpt lat="59.31883" lon="18.070942">
        <ele>46</ele>
        <time>2019-12-18T06:40:13Z</time>
      </trkpt>
      <trkpt lat="59.318855" lon="18.070939">
        <ele>46</ele>
        <time>2019-12-18T06:40:14Z</time>
      </trkpt>
      <trkpt lat="59.318886" lon="18.070937">
        <ele>46</ele>
        <time>2019-12-18T06:40:15Z</time>
      </trkpt>
      <trkpt lat="59.318915" lon="18.070932">
        <ele>46</ele>
        <time>2019-12-18T06:40:16Z</time>
      </trkpt>
      <trkpt lat="59.318945" lon="18.07092">
        <ele>46</ele>
        <time>2019-12-18T06:40:17Z</time>
      </trkpt>
      <trkpt lat="59.318978" lon="18.070904">
        <ele>46</ele>
        <time>2019-12-18T06:40:18Z</time>
      </trkpt>
      <trkpt lat="59.319011" lon="18.070892">
        <ele>46</ele>
        <time>2019-12-18T06:40:19Z</time>
      </trkpt>
      <trkpt lat="59.319041" lon="18.070882">
        <ele>46</ele>
        <time>2019-12-18T06:40:20Z</time>
      </trkpt>
      <trkpt lat="59.319071" lon="18.07087">
        <ele>46</ele>
        <time>2019-12-18T06:40:21Z</time>
      </trkpt>
      <trkpt lat="59.3191" lon="18.070858">
        <ele>46</ele>
        <time>2019-12-18T06:40:22Z</time>
      </trkpt>
      <trkpt lat="59.319128" lon="18.070849">
        <ele>46</ele>
        <time>2019-12-18T06:40:23Z</time>
      </trkpt>
      <trkpt lat="59.319151" lon="18.070842">
        <ele>46</ele>
        <time>2019-12-18T06:40:24Z</time>
      </trkpt>
      <trkpt lat="59.319173" lon="18.070836">
        <ele>0</ele>
        <time>2019-12-18T06:40:24Z</time>
      </trkpt>
      <trkpt lat="59.319206" lon="18.070838">
        <ele>46</ele>
        <time>2019-12-18T06:40:27Z</time>
      </trkpt>
      <trkpt lat="59.319231" lon="18.07083">
        <ele>0</ele>
        <time>2019-12-18T06:40:27Z</time>
      </trkpt>
      <trkpt lat="59.319261" lon="18.070821">
        <ele>47</ele>
        <time>2019-12-18T06:40:28Z</time>
      </trkpt>
      <trkpt lat="59.319286" lon="18.070816">
        <ele>47</ele>
        <time>2019-12-18T06:40:30Z</time>
      </trkpt>
      <trkpt lat="59.319338" lon="18.070798">
        <ele>47</ele>
        <time>2019-12-18T06:40:32Z</time>
      </trkpt>
      <trkpt lat="59.319403" lon="18.070702">
        <ele>46</ele>
        <time>2019-12-18T06:40:35Z</time>
      </trkpt>
      <trkpt lat="59.3195" lon="18.070679">
        <ele>45</ele>
        <time>2019-12-18T06:40:38Z</time>
      </trkpt>
      <trkpt lat="59.319541" lon="18.070658">
        <ele>45</ele>
        <time>2019-12-18T06:40:39Z</time>
      </trkpt>
      <trkpt lat="59.319575" lon="18.07065">
        <ele>45</ele>
        <time>2019-12-18T06:40:40Z</time>
      </trkpt>
      <trkpt lat="59.319606" lon="18.070638">
        <ele>45</ele>
        <time>2019-12-18T06:40:41Z</time>
      </trkpt>
      <trkpt lat="59.319697" lon="18.070582">
        <ele>45</ele>
        <time>2019-12-18T06:40:43Z</time>
      </trkpt>
      <trkpt lat="59.319809" lon="18.070482">
        <ele>45</ele>
        <time>2019-12-18T06:40:44Z</time>
      </trkpt>
      <trkpt lat="59.319896" lon="18.070388">
        <ele>42</ele>
        <time>2019-12-18T06:40:50Z</time>
      </trkpt>
      <trkpt lat="59.31996" lon="18.07046">
        <ele>41</ele>
        <time>2019-12-18T06:40:52Z</time>
      </trkpt>
      <trkpt lat="59.320017" lon="18.070606">
        <ele>39</ele>
        <time>2019-12-18T06:40:54Z</time>
      </trkpt>
      <trkpt lat="59.320045" lon="18.070671">
        <ele>38</ele>
        <time>2019-12-18T06:40:55Z</time>
      </trkpt>
      <trkpt lat="59.320078" lon="18.070728">
        <ele>0</ele>
        <time>2019-12-18T06:40:55Z</time>
      </trkpt>
      <trkpt lat="59.320119" lon="18.070768">
        <ele>37</ele>
        <time>2019-12-18T06:40:56Z</time>
      </trkpt>
      <trkpt lat="59.320152" lon="18.070796">
        <ele>36</ele>
        <time>2019-12-18T06:40:58Z</time>
      </trkpt>
      <trkpt lat="59.32018" lon="18.070832">
        <ele>36</ele>
        <time>2019-12-18T06:40:59Z</time>
      </trkpt>
      <trkpt lat="59.320204" lon="18.070866">
        <ele>35</ele>
        <time>2019-12-18T06:41:00Z</time>
      </trkpt>
      <trkpt lat="59.320229" lon="18.070894">
        <ele>35</ele>
        <time>2019-12-18T06:41:01Z</time>
      </trkpt>
      <trkpt lat="59.32026" lon="18.070911">
        <ele>35</ele>
        <time>2019-12-18T06:41:02Z</time>
      </trkpt>
      <trkpt lat="59.320286" lon="18.070932">
        <ele>0</ele>
        <time>2019-12-18T06:41:02Z</time>
      </trkpt>
      <trkpt lat="59.320313" lon="18.070952">
        <ele>34</ele>
        <time>2019-12-18T06:41:03Z</time>
      </trkpt>
      <trkpt lat="59.320337" lon="18.07097">
        <ele>34</ele>
        <time>2019-12-18T06:41:05Z</time>
      </trkpt>
      <trkpt lat="59.320351" lon="18.071008">
        <ele>33</ele>
        <time>2019-12-18T06:41:06Z</time>
      </trkpt>
      <trkpt lat="59.320354" lon="18.071066">
        <ele>33</ele>
        <time>2019-12-18T06:41:07Z</time>
      </trkpt>
      <trkpt lat="59.320361" lon="18.071118">
        <ele>33</ele>
        <time>2019-12-18T06:41:08Z</time>
      </trkpt>
      <trkpt lat="59.320372" lon="18.071162">
        <ele>32</ele>
        <time>2019-12-18T06:41:09Z</time>
      </trkpt>
      <trkpt lat="59.320386" lon="18.071224">
        <ele>31</ele>
        <time>2019-12-18T06:41:10Z</time>
      </trkpt>
      <trkpt lat="59.3204" lon="18.071281">
        <ele>31</ele>
        <time>2019-12-18T06:41:11Z</time>
      </trkpt>
      <trkpt lat="59.320416" lon="18.071326">
        <ele>30</ele>
        <time>2019-12-18T06:41:12Z</time>
      </trkpt>
      <trkpt lat="59.320436" lon="18.071362">
        <ele>0</ele>
        <time>2019-12-18T06:41:12Z</time>
      </trkpt>
      <trkpt lat="59.320457" lon="18.071392">
        <ele>29</ele>
        <time>2019-12-18T06:41:13Z</time>
      </trkpt>
      <trkpt lat="59.320481" lon="18.071406">
        <ele>28</ele>
        <time>2019-12-18T06:41:15Z</time>
      </trkpt>
      <trkpt lat="59.320504" lon="18.071418">
        <ele>28</ele>
        <time>2019-12-18T06:41:16Z</time>
      </trkpt>
      <trkpt lat="59.32053" lon="18.071432">
        <ele>27</ele>
        <time>2019-12-18T06:41:17Z</time>
      </trkpt>
      <trkpt lat="59.32055" lon="18.071432">
        <ele>27</ele>
        <time>2019-12-18T06:41:18Z</time>
      </trkpt>
      <trkpt lat="59.320571" lon="18.071432">
        <ele>26</ele>
        <time>2019-12-18T06:41:19Z</time>
      </trkpt>
      <trkpt lat="59.320592" lon="18.07143">
        <ele>25</ele>
        <time>2019-12-18T06:41:20Z</time>
      </trkpt>
      <trkpt lat="59.320617" lon="18.071432">
        <ele>25</ele>
        <time>2019-12-18T06:41:21Z</time>
      </trkpt>
      <trkpt lat="59.320643" lon="18.071442">
        <ele>0</ele>
        <time>2019-12-18T06:41:21Z</time>
      </trkpt>
      <trkpt lat="59.32067" lon="18.071456">
        <ele>24</ele>
        <time>2019-12-18T06:41:22Z</time>
      </trkpt>
      <trkpt lat="59.3207" lon="18.071466">
        <ele>24</ele>
        <time>2019-12-18T06:41:24Z</time>
      </trkpt>
      <trkpt lat="59.320728" lon="18.071475">
        <ele>24</ele>
        <time>2019-12-18T06:41:25Z</time>
      </trkpt>
      <trkpt lat="59.320757" lon="18.071492">
        <ele>23</ele>
        <time>2019-12-18T06:41:26Z</time>
      </trkpt>
      <trkpt lat="59.320782" lon="18.071522">
        <ele>23</ele>
        <time>2019-12-18T06:41:27Z</time>
      </trkpt>
      <trkpt lat="59.320807" lon="18.071567">
        <ele>23</ele>
        <time>2019-12-18T06:41:28Z</time>
      </trkpt>
      <trkpt lat="59.320826" lon="18.071616">
        <ele>23</ele>
        <time>2019-12-18T06:41:29Z</time>
      </trkpt>
      <trkpt lat="59.32084" lon="18.071672">
        <ele>22</ele>
        <time>2019-12-18T06:41:30Z</time>
      </trkpt>
      <trkpt lat="59.320851" lon="18.071728">
        <ele>22</ele>
        <time>2019-12-18T06:41:31Z</time>
      </trkpt>
      <trkpt lat="59.320864" lon="18.071784">
        <ele>0</ele>
        <time>2019-12-18T06:41:31Z</time>
      </trkpt>
      <trkpt lat="59.320874" lon="18.071844">
        <ele>22</ele>
        <time>2019-12-18T06:41:32Z</time>
      </trkpt>
      <trkpt lat="59.320886" lon="18.071898">
        <ele>22</ele>
        <time>2019-12-18T06:41:34Z</time>
      </trkpt>
      <trkpt lat="59.320899" lon="18.071962">
        <ele>21</ele>
        <time>2019-12-18T06:41:35Z</time>
      </trkpt>
      <trkpt lat="59.320915" lon="18.072017">
        <ele>21</ele>
        <time>2019-12-18T06:41:36Z</time>
      </trkpt>
      <trkpt lat="59.320934" lon="18.072068">
        <ele>21</ele>
        <time>2019-12-18T06:41:37Z</time>
      </trkpt>
      <trkpt lat="59.320953" lon="18.072118">
        <ele>20</ele>
        <time>2019-12-18T06:41:38Z</time>
      </trkpt>
      <trkpt lat="59.320976" lon="18.072158">
        <ele>20</ele>
        <time>2019-12-18T06:41:39Z</time>
      </trkpt>
      <trkpt lat="59.321" lon="18.072188">
        <ele>19</ele>
        <time>2019-12-18T06:41:40Z</time>
      </trkpt>
      <trkpt lat="59.321026" lon="18.072212">
        <ele>0</ele>
        <time>2019-12-18T06:41:40Z</time>
      </trkpt>
      <trkpt lat="59.321056" lon="18.072232">
        <ele>19</ele>
        <time>2019-12-18T06:41:41Z</time>
      </trkpt>
      <trkpt lat="59.321085" lon="18.072248">
        <ele>18</ele>
        <time>2019-12-18T06:41:43Z</time>
      </trkpt>
      <trkpt lat="59.321111" lon="18.072264">
        <ele>18</ele>
        <time>2019-12-18T06:41:44Z</time>
      </trkpt>
      <trkpt lat="59.321136" lon="18.072282">
        <ele>18</ele>
        <time>2019-12-18T06:41:45Z</time>
      </trkpt>
      <trkpt lat="59.321163" lon="18.0723">
        <ele>18</ele>
        <time>2019-12-18T06:41:46Z</time>
      </trkpt>
      <trkpt lat="59.32119" lon="18.072316">
        <ele>18</ele>
        <time>2019-12-18T06:41:47Z</time>
      </trkpt>
      <trkpt lat="59.321217" lon="18.07233">
        <ele>0</ele>
        <time>2019-12-18T06:41:47Z</time>
      </trkpt>
      <trkpt lat="59.321245" lon="18.072338">
        <ele>17</ele>
        <time>2019-12-18T06:41:48Z</time>
      </trkpt>
      <trkpt lat="59.321275" lon="18.072352">
        <ele>17</ele>
        <time>2019-12-18T06:41:50Z</time>
      </trkpt>
      <trkpt lat="59.321303" lon="18.07237">
        <ele>17</ele>
        <time>2019-12-18T06:41:51Z</time>
      </trkpt>
      <trkpt lat="59.321332" lon="18.072392">
        <ele>16</ele>
        <time>2019-12-18T06:41:52Z</time>
      </trkpt>
      <trkpt lat="59.321362" lon="18.07241">
        <ele>16</ele>
        <time>2019-12-18T06:41:53Z</time>
      </trkpt>
      <trkpt lat="59.32139" lon="18.072432">
        <ele>16</ele>
        <time>2019-12-18T06:41:54Z</time>
      </trkpt>
      <trkpt lat="59.32142" lon="18.072458">
        <ele>16</ele>
        <time>2019-12-18T06:41:55Z</time>
      </trkpt>
      <trkpt lat="59.32145" lon="18.072486">
        <ele>16</ele>
        <time>2019-12-18T06:41:56Z</time>
      </trkpt>
      <trkpt lat="59.32148" lon="18.072515">
        <ele>15</ele>
        <time>2019-12-18T06:41:57Z</time>
      </trkpt>
      <trkpt lat="59.321507" lon="18.072536">
        <ele>15</ele>
        <time>2019-12-18T06:41:58Z</time>
      </trkpt>
      <trkpt lat="59.321534" lon="18.072554">
        <ele>15</ele>
        <time>2019-12-18T06:41:59Z</time>
      </trkpt>
      <trkpt lat="59.321562" lon="18.07257">
        <ele>0</ele>
        <time>2019-12-18T06:41:59Z</time>
      </trkpt>
      <trkpt lat="59.321588" lon="18.072591">
        <ele>14</ele>
        <time>2019-12-18T06:42:00Z</time>
      </trkpt>
      <trkpt lat="59.321616" lon="18.072608">
        <ele>14</ele>
        <time>2019-12-18T06:42:02Z</time>
      </trkpt>
      <trkpt lat="59.321643" lon="18.072624">
        <ele>14</ele>
        <time>2019-12-18T06:42:03Z</time>
      </trkpt>
      <trkpt lat="59.321669" lon="18.072644">
        <ele>14</ele>
        <time>2019-12-18T06:42:04Z</time>
      </trkpt>
      <trkpt lat="59.321694" lon="18.072658">
        <ele>0</ele>
        <time>2019-12-18T06:42:04Z</time>
      </trkpt>
      <trkpt lat="59.321722" lon="18.072672">
        <ele>13</ele>
        <time>2019-12-18T06:42:05Z</time>
      </trkpt>
      <trkpt lat="59.321751" lon="18.072694">
        <ele>13</ele>
        <time>2019-12-18T06:42:07Z</time>
      </trkpt>
      <trkpt lat="59.321784" lon="18.072719">
        <ele>13</ele>
        <time>2019-12-18T06:42:08Z</time>
      </trkpt>
      <trkpt lat="59.321814" lon="18.072735">
        <ele>13</ele>
        <time>2019-12-18T06:42:09Z</time>
      </trkpt>
      <trkpt lat="59.321841" lon="18.072743">
        <ele>13</ele>
        <time>2019-12-18T06:42:10Z</time>
      </trkpt>
      <trkpt lat="59.32187" lon="18.072758">
        <ele>12</ele>
        <time>2019-12-18T06:42:11Z</time>
      </trkpt>
      <trkpt lat="59.321897" lon="18.072772">
        <ele>12</ele>
        <time>2019-12-18T06:42:12Z</time>
      </trkpt>
      <trkpt lat="59.321926" lon="18.072788">
        <ele>12</ele>
        <time>2019-12-18T06:42:13Z</time>
      </trkpt>
      <trkpt lat="59.321951" lon="18.072816">
        <ele>13</ele>
        <time>2019-12-18T06:42:14Z</time>
      </trkpt>
      <trkpt lat="59.321977" lon="18.07284">
        <ele>12</ele>
        <time>2019-12-18T06:42:15Z</time>
      </trkpt>
      <trkpt lat="59.322" lon="18.072867">
        <ele>13</ele>
        <time>2019-12-18T06:42:16Z</time>
      </trkpt>
      <trkpt lat="59.322038" lon="18.072896">
        <ele>13</ele>
        <time>2019-12-18T06:42:17Z</time>
      </trkpt>
      <trkpt lat="59.322065" lon="18.072924">
        <ele>13</ele>
        <time>2019-12-18T06:42:18Z</time>
      </trkpt>
      <trkpt lat="59.322059" lon="18.073009">
        <ele>13</ele>
        <time>2019-12-18T06:42:19Z</time>
      </trkpt>
      <trkpt lat="59.322046" lon="18.073062">
        <ele>13</ele>
        <time>2019-12-18T06:42:21Z</time>
      </trkpt>
      <trkpt lat="59.322036" lon="18.073126">
        <ele>0</ele>
        <time>2019-12-18T06:42:21Z</time>
      </trkpt>
      <trkpt lat="59.322028" lon="18.073192">
        <ele>13</ele>
        <time>2019-12-18T06:42:22Z</time>
      </trkpt>
      <trkpt lat="59.321991" lon="18.073354">
        <ele>13</ele>
        <time>2019-12-18T06:42:26Z</time>
      </trkpt>
      <trkpt lat="59.321974" lon="18.073466">
        <ele>13</ele>
        <time>2019-12-18T06:42:28Z</time>
      </trkpt>
      <trkpt lat="59.321958" lon="18.073527">
        <ele>13</ele>
        <time>2019-12-18T06:42:29Z</time>
      </trkpt>
      <trkpt lat="59.321935" lon="18.073703">
        <ele>12</ele>
        <time>2019-12-18T06:42:32Z</time>
      </trkpt>
      <trkpt lat="59.32198" lon="18.073875">
        <ele>11</ele>
        <time>2019-12-18T06:42:35Z</time>
      </trkpt>
      <trkpt lat="59.321993" lon="18.073921">
        <ele>11</ele>
        <time>2019-12-18T06:42:36Z</time>
      </trkpt>
      <trkpt lat="59.322005" lon="18.073965">
        <ele>10</ele>
        <time>2019-12-18T06:42:37Z</time>
      </trkpt>
      <trkpt lat="59.322075" lon="18.074095">
        <ele>10</ele>
        <time>2019-12-18T06:42:39Z</time>
      </trkpt>
      <trkpt lat="59.322146" lon="18.07423">
        <ele>9</ele>
        <time>2019-12-18T06:42:44Z</time>
      </trkpt>
      <trkpt lat="59.322233" lon="18.074305">
        <ele>9</ele>
        <time>2019-12-18T06:42:47Z</time>
      </trkpt>
      <trkpt lat="59.322327" lon="18.074438">
        <ele>8</ele>
        <time>2019-12-18T06:42:51Z</time>
      </trkpt>
      <trkpt lat="59.322435" lon="18.074441">
        <ele>8</ele>
        <time>2019-12-18T06:42:54Z</time>
      </trkpt>
      <trkpt lat="59.322522" lon="18.074494">
        <ele>8</ele>
        <time>2019-12-18T06:42:56Z</time>
      </trkpt>
      <trkpt lat="59.322609" lon="18.074571">
        <ele>7</ele>
        <time>2019-12-18T06:43:00Z</time>
      </trkpt>
      <trkpt lat="59.322636" lon="18.074598">
        <ele>7</ele>
        <time>2019-12-18T06:43:01Z</time>
      </trkpt>
      <trkpt lat="59.322742" lon="18.074691">
        <ele>7</ele>
        <time>2019-12-18T06:43:05Z</time>
      </trkpt>
      <trkpt lat="59.322833" lon="18.074712">
        <ele>6</ele>
        <time>2019-12-18T06:43:08Z</time>
      </trkpt>
      <trkpt lat="59.322935" lon="18.07477">
        <ele>6</ele>
        <time>2019-12-18T06:43:11Z</time>
      </trkpt>
      <trkpt lat="59.323001" lon="18.074905">
        <ele>0</ele>
        <time>2019-12-18T06:43:15Z</time>
      </trkpt>
      <trkpt lat="59.323073" lon="18.07504">
        <ele>6</ele>
        <time>2019-12-18T06:43:21Z</time>
      </trkpt>
      <trkpt lat="59.323162" lon="18.075114">
        <ele>5</ele>
        <time>2019-12-18T06:43:26Z</time>
      </trkpt>
      <trkpt lat="59.323281" lon="18.075108">
        <ele>5</ele>
        <time>2019-12-18T06:43:30Z</time>
      </trkpt>
      <trkpt lat="59.323396" lon="18.075069">
        <ele>5</ele>
        <time>2019-12-18T06:43:32Z</time>
      </trkpt>
      <trkpt lat="59.323494" lon="18.075067">
        <ele>5</ele>
        <time>2019-12-18T06:43:35Z</time>
      </trkpt>
      <trkpt lat="59.323595" lon="18.075075">
        <ele>5</ele>
        <time>2019-12-18T06:43:41Z</time>
      </trkpt>
      <trkpt lat="59.323699" lon="18.07511">
        <ele>5</ele>
        <time>2019-12-18T06:43:45Z</time>
      </trkpt>
      <trkpt lat="59.323812" lon="18.075179">
        <ele>5</ele>
        <time>2019-12-18T06:43:49Z</time>
      </trkpt>
      <trkpt lat="59.323913" lon="18.075256">
        <ele>4</ele>
        <time>2019-12-18T06:43:53Z</time>
      </trkpt>
      <trkpt lat="59.324003" lon="18.07529">
        <ele>3</ele>
        <time>2019-12-18T06:43:59Z</time>
      </trkpt>
      <trkpt lat="59.324097" lon="18.075285">
        <ele>3</ele>
        <time>2019-12-18T06:44:02Z</time>
      </trkpt>
      <trkpt lat="59.324192" lon="18.075353">
        <ele>3</ele>
        <time>2019-12-18T06:44:07Z</time>
      </trkpt>
      <trkpt lat="59.324312" lon="18.075373">
        <ele>3</ele>
        <time>2019-12-18T06:44:11Z</time>
      </trkpt>
      <trkpt lat="59.324413" lon="18.075415">
        <ele>3</ele>
        <time>2019-12-18T06:44:15Z</time>
      </trkpt>
      <trkpt lat="59.324511" lon="18.075403">
        <ele>3</ele>
        <time>2019-12-18T06:44:19Z</time>
      </trkpt>
      <trkpt lat="59.324611" lon="18.0754">
        <ele>3</ele>
        <time>2019-12-18T06:44:22Z</time>
      </trkpt>
      <trkpt lat="59.324713" lon="18.075393">
        <ele>3</ele>
        <time>2019-12-18T06:44:25Z</time>
      </trkpt>
      <trkpt lat="59.324835" lon="18.07543">
        <ele>3</ele>
        <time>2019-12-18T06:44:28Z</time>
      </trkpt>
      <trkpt lat="59.324937" lon="18.07549">
        <ele>3</ele>
        <time>2019-12-18T06:44:34Z</time>
      </trkpt>
      <trkpt lat="59.325028" lon="18.075462">
        <ele>3</ele>
        <time>2019-12-18T06:44:38Z</time>
      </trkpt>
      <trkpt lat="59.325134" lon="18.075502">
        <ele>4</ele>
        <time>2019-12-18T06:44:46Z</time>
      </trkpt>
      <trkpt lat="59.325234" lon="18.075502">
        <ele>0</ele>
        <time>2019-12-18T06:44:50Z</time>
      </trkpt>
      <trkpt lat="59.325324" lon="18.075548">
        <ele>5</ele>
        <time>2019-12-18T06:44:55Z</time>
      </trkpt>
      <trkpt lat="59.325456" lon="18.075564">
        <ele>5</ele>
        <time>2019-12-18T06:44:57Z</time>
      </trkpt>
      <trkpt lat="59.325546" lon="18.075523">
        <ele>6</ele>
        <time>2019-12-18T06:45:01Z</time>
      </trkpt>
      <trkpt lat="59.325674" lon="18.075538">
        <ele>6</ele>
        <time>2019-12-18T06:45:04Z</time>
      </trkpt>
      <trkpt lat="59.325744" lon="18.075581">
        <ele>7</ele>
        <time>2019-12-18T06:45:06Z</time>
      </trkpt>
      <trkpt lat="59.325771" lon="18.075616">
        <ele>7</ele>
        <time>2019-12-18T06:45:07Z</time>
      </trkpt>
      <trkpt lat="59.325797" lon="18.075641">
        <ele>0</ele>
        <time>2019-12-18T06:45:07Z</time>
      </trkpt>
      <trkpt lat="59.325822" lon="18.075647">
        <ele>7</ele>
        <time>2019-12-18T06:45:08Z</time>
      </trkpt>
      <trkpt lat="59.325843" lon="18.075627">
        <ele>0</ele>
        <time>2019-12-18T06:45:09Z</time>
      </trkpt>
      <trkpt lat="59.325862" lon="18.075616">
        <ele>7</ele>
        <time>2019-12-18T06:45:10Z</time>
      </trkpt>
      <trkpt lat="59.325882" lon="18.075606">
        <ele>7</ele>
        <time>2019-12-18T06:45:12Z</time>
      </trkpt>
      <trkpt lat="59.325898" lon="18.075574">
        <ele>7</ele>
        <time>2019-12-18T06:45:13Z</time>
      </trkpt>
      <trkpt lat="59.325916" lon="18.07554">
        <ele>7</ele>
        <time>2019-12-18T06:45:14Z</time>
      </trkpt>
      <trkpt lat="59.325939" lon="18.075515">
        <ele>7</ele>
        <time>2019-12-18T06:45:15Z</time>
      </trkpt>
      <trkpt lat="59.32596" lon="18.075482">
        <ele>7</ele>
        <time>2019-12-18T06:45:16Z</time>
      </trkpt>
      <trkpt lat="59.325984" lon="18.07546">
        <ele>7</ele>
        <time>2019-12-18T06:45:17Z</time>
      </trkpt>
      <trkpt lat="59.326009" lon="18.075435">
        <ele>7</ele>
        <time>2019-12-18T06:45:18Z</time>
      </trkpt>
      <trkpt lat="59.326035" lon="18.075419">
        <ele>8</ele>
        <time>2019-12-18T06:45:19Z</time>
      </trkpt>
      <trkpt lat="59.326059" lon="18.075396">
        <ele>8</ele>
        <time>2019-12-18T06:45:20Z</time>
      </trkpt>
      <trkpt lat="59.326081" lon="18.075376">
        <ele>8</ele>
        <time>2019-12-18T06:45:21Z</time>
      </trkpt>
      <trkpt lat="59.326103" lon="18.07536">
        <ele>8</ele>
        <time>2019-12-18T06:45:22Z</time>
      </trkpt>
      <trkpt lat="59.326124" lon="18.075341">
        <ele>7</ele>
        <time>2019-12-18T06:45:23Z</time>
      </trkpt>
      <trkpt lat="59.326143" lon="18.075324">
        <ele>8</ele>
        <time>2019-12-18T06:45:24Z</time>
      </trkpt>
      <trkpt lat="59.326163" lon="18.075298">
        <ele>8</ele>
        <time>2019-12-18T06:45:25Z</time>
      </trkpt>
      <trkpt lat="59.326182" lon="18.075275">
        <ele>8</ele>
        <time>2019-12-18T06:45:26Z</time>
      </trkpt>
      <trkpt lat="59.326202" lon="18.07525">
        <ele>8</ele>
        <time>2019-12-18T06:45:27Z</time>
      </trkpt>
      <trkpt lat="59.326225" lon="18.075229">
        <ele>8</ele>
        <time>2019-12-18T06:45:28Z</time>
      </trkpt>
      <trkpt lat="59.326247" lon="18.075207">
        <ele>0</ele>
        <time>2019-12-18T06:45:28Z</time>
      </trkpt>
      <trkpt lat="59.326267" lon="18.075174">
        <ele>8</ele>
        <time>2019-12-18T06:45:29Z</time>
      </trkpt>
      <trkpt lat="59.326289" lon="18.075137">
        <ele>8</ele>
        <time>2019-12-18T06:45:31Z</time>
      </trkpt>
      <trkpt lat="59.326308" lon="18.0751">
        <ele>8</ele>
        <time>2019-12-18T06:45:32Z</time>
      </trkpt>
      <trkpt lat="59.32632" lon="18.075031">
        <ele>9</ele>
        <time>2019-12-18T06:45:33Z</time>
      </trkpt>
      <trkpt lat="59.32634" lon="18.074979">
        <ele>9</ele>
        <time>2019-12-18T06:45:34Z</time>
      </trkpt>
      <trkpt lat="59.32636" lon="18.074929">
        <ele>9</ele>
        <time>2019-12-18T06:45:35Z</time>
      </trkpt>
      <trkpt lat="59.326379" lon="18.074894">
        <ele>10</ele>
        <time>2019-12-18T06:45:36Z</time>
      </trkpt>
      <trkpt lat="59.326398" lon="18.074867">
        <ele>10</ele>
        <time>2019-12-18T06:45:37Z</time>
      </trkpt>
      <trkpt lat="59.326416" lon="18.074843">
        <ele>10</ele>
        <time>2019-12-18T06:45:38Z</time>
      </trkpt>
      <trkpt lat="59.326442" lon="18.07483">
        <ele>10</ele>
        <time>2019-12-18T06:45:39Z</time>
      </trkpt>
      <trkpt lat="59.326466" lon="18.074821">
        <ele>11</ele>
        <time>2019-12-18T06:45:40Z</time>
      </trkpt>
      <trkpt lat="59.326484" lon="18.074809">
        <ele>11</ele>
        <time>2019-12-18T06:45:41Z</time>
      </trkpt>
      <trkpt lat="59.326501" lon="18.074796">
        <ele>11</ele>
        <time>2019-12-18T06:45:42Z</time>
      </trkpt>
      <trkpt lat="59.326539" lon="18.074783">
        <ele>11</ele>
        <time>2019-12-18T06:45:44Z</time>
      </trkpt>
      <trkpt lat="59.326562" lon="18.074776">
        <ele>11</ele>
        <time>2019-12-18T06:45:45Z</time>
      </trkpt>
      <trkpt lat="59.326586" lon="18.074763">
        <ele>11</ele>
        <time>2019-12-18T06:45:46Z</time>
      </trkpt>
      <trkpt lat="59.32661" lon="18.074746">
        <ele>11</ele>
        <time>2019-12-18T06:45:47Z</time>
      </trkpt>
      <trkpt lat="59.326633" lon="18.074738">
        <ele>0</ele>
        <time>2019-12-18T06:45:47Z</time>
      </trkpt>
      <trkpt lat="59.326657" lon="18.074724">
        <ele>11</ele>
        <time>2019-12-18T06:45:48Z</time>
      </trkpt>
      <trkpt lat="59.32668" lon="18.07471">
        <ele>10</ele>
        <time>2019-12-18T06:45:50Z</time>
      </trkpt>
      <trkpt lat="59.326703" lon="18.074697">
        <ele>10</ele>
        <time>2019-12-18T06:45:51Z</time>
      </trkpt>
      <trkpt lat="59.326726" lon="18.074685">
        <ele>10</ele>
        <time>2019-12-18T06:45:52Z</time>
      </trkpt>
      <trkpt lat="59.326748" lon="18.074672">
        <ele>10</ele>
        <time>2019-12-18T06:45:53Z</time>
      </trkpt>
      <trkpt lat="59.326771" lon="18.074655">
        <ele>10</ele>
        <time>2019-12-18T06:45:54Z</time>
      </trkpt>
      <trkpt lat="59.326793" lon="18.074647">
        <ele>10</ele>
        <time>2019-12-18T06:45:55Z</time>
      </trkpt>
      <trkpt lat="59.326816" lon="18.074632">
        <ele>10</ele>
        <time>2019-12-18T06:45:56Z</time>
      </trkpt>
      <trkpt lat="59.326839" lon="18.074618">
        <ele>10</ele>
        <time>2019-12-18T06:45:57Z</time>
      </trkpt>
      <trkpt lat="59.326861" lon="18.074603">
        <ele>10</ele>
        <time>2019-12-18T06:45:58Z</time>
      </trkpt>
      <trkpt lat="59.326883" lon="18.074585">
        <ele>9</ele>
        <time>2019-12-18T06:45:59Z</time>
      </trkpt>
      <trkpt lat="59.326904" lon="18.074561">
        <ele>10</ele>
        <time>2019-12-18T06:46:00Z</time>
      </trkpt>
      <trkpt lat="59.326925" lon="18.074531">
        <ele>9</ele>
        <time>2019-12-18T06:46:01Z</time>
      </trkpt>
      <trkpt lat="59.326944" lon="18.074507">
        <ele>9</ele>
        <time>2019-12-18T06:46:02Z</time>
      </trkpt>
      <trkpt lat="59.326964" lon="18.074477">
        <ele>9</ele>
        <time>2019-12-18T06:46:03Z</time>
      </trkpt>
      <trkpt lat="59.326983" lon="18.074447">
        <ele>9</ele>
        <time>2019-12-18T06:46:04Z</time>
      </trkpt>
      <trkpt lat="59.327002" lon="18.074419">
        <ele>9</ele>
        <time>2019-12-18T06:46:05Z</time>
      </trkpt>
      <trkpt lat="59.327022" lon="18.074389">
        <ele>9</ele>
        <time>2019-12-18T06:46:06Z</time>
      </trkpt>
      <trkpt lat="59.327042" lon="18.074364">
        <ele>0</ele>
        <time>2019-12-18T06:46:06Z</time>
      </trkpt>
      <trkpt lat="59.327063" lon="18.074342">
        <ele>9</ele>
        <time>2019-12-18T06:46:07Z</time>
      </trkpt>
      <trkpt lat="59.327083" lon="18.074315">
        <ele>0</ele>
        <time>2019-12-18T06:46:08Z</time>
      </trkpt>
      <trkpt lat="59.327104" lon="18.074288">
        <ele>9</ele>
        <time>2019-12-18T06:46:09Z</time>
      </trkpt>
      <trkpt lat="59.327125" lon="18.074265">
        <ele>8</ele>
        <time>2019-12-18T06:46:11Z</time>
      </trkpt>
      <trkpt lat="59.327145" lon="18.074243">
        <ele>8</ele>
        <time>2019-12-18T06:46:12Z</time>
      </trkpt>
      <trkpt lat="59.327166" lon="18.074221">
        <ele>8</ele>
        <time>2019-12-18T06:46:13Z</time>
      </trkpt>
      <trkpt lat="59.327187" lon="18.074194">
        <ele>8</ele>
        <time>2019-12-18T06:46:14Z</time>
      </trkpt>
      <trkpt lat="59.327209" lon="18.074171">
        <ele>8</ele>
        <time>2019-12-18T06:46:15Z</time>
      </trkpt>
      <trkpt lat="59.32723" lon="18.074151">
        <ele>8</ele>
        <time>2019-12-18T06:46:16Z</time>
      </trkpt>
      <trkpt lat="59.327251" lon="18.074129">
        <ele>7</ele>
        <time>2019-12-18T06:46:17Z</time>
      </trkpt>
      <trkpt lat="59.327272" lon="18.074101">
        <ele>7</ele>
        <time>2019-12-18T06:46:18Z</time>
      </trkpt>
      <trkpt lat="59.327292" lon="18.074074">
        <ele>7</ele>
        <time>2019-12-18T06:46:19Z</time>
      </trkpt>
      <trkpt lat="59.327314" lon="18.07405">
        <ele>7</ele>
        <time>2019-12-18T06:46:20Z</time>
      </trkpt>
      <trkpt lat="59.327336" lon="18.074025">
        <ele>7</ele>
        <time>2019-12-18T06:46:21Z</time>
      </trkpt>
      <trkpt lat="59.327356" lon="18.073996">
        <ele>7</ele>
        <time>2019-12-18T06:46:22Z</time>
      </trkpt>
      <trkpt lat="59.327377" lon="18.073964">
        <ele>7</ele>
        <time>2019-12-18T06:46:23Z</time>
      </trkpt>
      <trkpt lat="59.327398" lon="18.073931">
        <ele>7</ele>
        <time>2019-12-18T06:46:24Z</time>
      </trkpt>
      <trkpt lat="59.327421" lon="18.073904">
        <ele>7</ele>
        <time>2019-12-18T06:46:25Z</time>
      </trkpt>
      <trkpt lat="59.327442" lon="18.073877">
        <ele>0</ele>
        <time>2019-12-18T06:46:25Z</time>
      </trkpt>
      <trkpt lat="59.327464" lon="18.073852">
        <ele>7</ele>
        <time>2019-12-18T06:46:26Z</time>
      </trkpt>
      <trkpt lat="59.327487" lon="18.073823">
        <ele>7</ele>
        <time>2019-12-18T06:46:28Z</time>
      </trkpt>
      <trkpt lat="59.327511" lon="18.073797">
        <ele>0</ele>
        <time>2019-12-18T06:46:28Z</time>
      </trkpt>
      <trkpt lat="59.327535" lon="18.073775">
        <ele>7</ele>
        <time>2019-12-18T06:46:29Z</time>
      </trkpt>
      <trkpt lat="59.327557" lon="18.073749">
        <ele>7</ele>
        <time>2019-12-18T06:46:31Z</time>
      </trkpt>
      <trkpt lat="59.32758" lon="18.073728">
        <ele>7</ele>
        <time>2019-12-18T06:46:32Z</time>
      </trkpt>
      <trkpt lat="59.327601" lon="18.073704">
        <ele>7</ele>
        <time>2019-12-18T06:46:33Z</time>
      </trkpt>
      <trkpt lat="59.327624" lon="18.073683">
        <ele>6</ele>
        <time>2019-12-18T06:46:34Z</time>
      </trkpt>
      <trkpt lat="59.327647" lon="18.073661">
        <ele>6</ele>
        <time>2019-12-18T06:46:35Z</time>
      </trkpt>
      <trkpt lat="59.327669" lon="18.07364">
        <ele>6</ele>
        <time>2019-12-18T06:46:36Z</time>
      </trkpt>
      <trkpt lat="59.327691" lon="18.073617">
        <ele>6</ele>
        <time>2019-12-18T06:46:37Z</time>
      </trkpt>
      <trkpt lat="59.327711" lon="18.073595">
        <ele>6</ele>
        <time>2019-12-18T06:46:38Z</time>
      </trkpt>
      <trkpt lat="59.327733" lon="18.073568">
        <ele>6</ele>
        <time>2019-12-18T06:46:39Z</time>
      </trkpt>
      <trkpt lat="59.327754" lon="18.07354">
        <ele>6</ele>
        <time>2019-12-18T06:46:40Z</time>
      </trkpt>
      <trkpt lat="59.327775" lon="18.073514">
        <ele>5</ele>
        <time>2019-12-18T06:46:41Z</time>
      </trkpt>
      <trkpt lat="59.327797" lon="18.073489">
        <ele>5</ele>
        <time>2019-12-18T06:46:42Z</time>
      </trkpt>
      <trkpt lat="59.327819" lon="18.073462">
        <ele>5</ele>
        <time>2019-12-18T06:46:43Z</time>
      </trkpt>
      <trkpt lat="59.327841" lon="18.073439">
        <ele>5</ele>
        <time>2019-12-18T06:46:44Z</time>
      </trkpt>
      <trkpt lat="59.327863" lon="18.073417">
        <ele>0</ele>
        <time>2019-12-18T06:46:44Z</time>
      </trkpt>
      <trkpt lat="59.327886" lon="18.073394">
        <ele>5</ele>
        <time>2019-12-18T06:46:45Z</time>
      </trkpt>
      <trkpt lat="59.327908" lon="18.073372">
        <ele>5</ele>
        <time>2019-12-18T06:46:47Z</time>
      </trkpt>
      <trkpt lat="59.327931" lon="18.073347">
        <ele>4</ele>
        <time>2019-12-18T06:46:48Z</time>
      </trkpt>
      <trkpt lat="59.327953" lon="18.073326">
        <ele>0</ele>
        <time>2019-12-18T06:46:48Z</time>
      </trkpt>
      <trkpt lat="59.327976" lon="18.073306">
        <ele>4</ele>
        <time>2019-12-18T06:46:49Z</time>
      </trkpt>
      <trkpt lat="59.328" lon="18.073285">
        <ele>4</ele>
        <time>2019-12-18T06:46:51Z</time>
      </trkpt>
      <trkpt lat="59.328024" lon="18.073265">
        <ele>4</ele>
        <time>2019-12-18T06:46:52Z</time>
      </trkpt>
      <trkpt lat="59.328048" lon="18.073244">
        <ele>4</ele>
        <time>2019-12-18T06:46:53Z</time>
      </trkpt>
      <trkpt lat="59.328072" lon="18.073226">
        <ele>4</ele>
        <time>2019-12-18T06:46:54Z</time>
      </trkpt>
      <trkpt lat="59.328098" lon="18.073211">
        <ele>4</ele>
        <time>2019-12-18T06:46:55Z</time>
      </trkpt>
      <trkpt lat="59.328123" lon="18.073195">
        <ele>5</ele>
        <time>2019-12-18T06:46:56Z</time>
      </trkpt>
      <trkpt lat="59.32815" lon="18.073176">
        <ele>5</ele>
        <time>2019-12-18T06:46:57Z</time>
      </trkpt>
      <trkpt lat="59.328176" lon="18.073156">
        <ele>6</ele>
        <time>2019-12-18T06:46:58Z</time>
      </trkpt>
      <trkpt lat="59.328202" lon="18.07314">
        <ele>5</ele>
        <time>2019-12-18T06:46:59Z</time>
      </trkpt>
      <trkpt lat="59.328228" lon="18.073142">
        <ele>5</ele>
        <time>2019-12-18T06:47:00Z</time>
      </trkpt>
      <trkpt lat="59.328253" lon="18.073147">
        <ele>5</ele>
        <time>2019-12-18T06:47:01Z</time>
      </trkpt>
      <trkpt lat="59.328278" lon="18.073154">
        <ele>5</ele>
        <time>2019-12-18T06:47:02Z</time>
      </trkpt>
      <trkpt lat="59.328303" lon="18.073159">
        <ele>5</ele>
        <time>2019-12-18T06:47:03Z</time>
      </trkpt>
      <trkpt lat="59.328329" lon="18.073165">
        <ele>0</ele>
        <time>2019-12-18T06:47:03Z</time>
      </trkpt>
      <trkpt lat="59.328354" lon="18.073173">
        <ele>5</ele>
        <time>2019-12-18T06:47:04Z</time>
      </trkpt>
      <trkpt lat="59.328376" lon="18.073181">
        <ele>5</ele>
        <time>2019-12-18T06:47:06Z</time>
      </trkpt>
      <trkpt lat="59.328401" lon="18.073189">
        <ele>5</ele>
        <time>2019-12-18T06:47:07Z</time>
      </trkpt>
      <trkpt lat="59.328424" lon="18.073197">
        <ele>0</ele>
        <time>2019-12-18T06:47:07Z</time>
      </trkpt>
      <trkpt lat="59.328447" lon="18.073204">
        <ele>5</ele>
        <time>2019-12-18T06:47:08Z</time>
      </trkpt>
      <trkpt lat="59.328471" lon="18.073207">
        <ele>5</ele>
        <time>2019-12-18T06:47:10Z</time>
      </trkpt>
      <trkpt lat="59.328495" lon="18.073208">
        <ele>4</ele>
        <time>2019-12-18T06:47:11Z</time>
      </trkpt>
      <trkpt lat="59.32852" lon="18.073211">
        <ele>4</ele>
        <time>2019-12-18T06:47:12Z</time>
      </trkpt>
      <trkpt lat="59.328544" lon="18.073217">
        <ele>4</ele>
        <time>2019-12-18T06:47:13Z</time>
      </trkpt>
      <trkpt lat="59.32857" lon="18.073224">
        <ele>5</ele>
        <time>2019-12-18T06:47:14Z</time>
      </trkpt>
      <trkpt lat="59.328596" lon="18.073228">
        <ele>5</ele>
        <time>2019-12-18T06:47:15Z</time>
      </trkpt>
      <trkpt lat="59.32862" lon="18.073233">
        <ele>5</ele>
        <time>2019-12-18T06:47:16Z</time>
      </trkpt>
      <trkpt lat="59.328644" lon="18.073236">
        <ele>5</ele>
        <time>2019-12-18T06:47:17Z</time>
      </trkpt>
      <trkpt lat="59.328672" lon="18.073239">
        <ele>5</ele>
        <time>2019-12-18T06:47:18Z</time>
      </trkpt>
      <trkpt lat="59.3287" lon="18.073242">
        <ele>6</ele>
        <time>2019-12-18T06:47:19Z</time>
      </trkpt>
      <trkpt lat="59.328728" lon="18.073245">
        <ele>6</ele>
        <time>2019-12-18T06:47:20Z</time>
      </trkpt>
      <trkpt lat="59.328756" lon="18.073245">
        <ele>6</ele>
        <time>2019-12-18T06:47:21Z</time>
      </trkpt>
      <trkpt lat="59.328781" lon="18.07325">
        <ele>6</ele>
        <time>2019-12-18T06:47:22Z</time>
      </trkpt>
      <trkpt lat="59.328807" lon="18.073257">
        <ele>0</ele>
        <time>2019-12-18T06:47:22Z</time>
      </trkpt>
      <trkpt lat="59.328833" lon="18.073264">
        <ele>6</ele>
        <time>2019-12-18T06:47:23Z</time>
      </trkpt>
      <trkpt lat="59.32886" lon="18.073273">
        <ele>6</ele>
        <time>2019-12-18T06:47:25Z</time>
      </trkpt>
      <trkpt lat="59.328886" lon="18.073281">
        <ele>5</ele>
        <time>2019-12-18T06:47:26Z</time>
      </trkpt>
      <trkpt lat="59.328912" lon="18.073289">
        <ele>0</ele>
        <time>2019-12-18T06:47:26Z</time>
      </trkpt>
      <trkpt lat="59.328937" lon="18.073294">
        <ele>5</ele>
        <time>2019-12-18T06:47:27Z</time>
      </trkpt>
      <trkpt lat="59.328962" lon="18.0733">
        <ele>5</ele>
        <time>2019-12-18T06:47:29Z</time>
      </trkpt>
      <trkpt lat="59.328985" lon="18.07331">
        <ele>5</ele>
        <time>2019-12-18T06:47:30Z</time>
      </trkpt>
      <trkpt lat="59.329012" lon="18.073319">
        <ele>5</ele>
        <time>2019-12-18T06:47:31Z</time>
      </trkpt>
      <trkpt lat="59.329037" lon="18.073326">
        <ele>5</ele>
        <time>2019-12-18T06:47:32Z</time>
      </trkpt>
      <trkpt lat="59.329064" lon="18.073333">
        <ele>5</ele>
        <time>2019-12-18T06:47:33Z</time>
      </trkpt>
      <trkpt lat="59.32909" lon="18.07334">
        <ele>5</ele>
        <time>2019-12-18T06:47:34Z</time>
      </trkpt>
      <trkpt lat="59.329116" lon="18.073342">
        <ele>4</ele>
        <time>2019-12-18T06:47:35Z</time>
      </trkpt>
      <trkpt lat="59.329142" lon="18.073348">
        <ele>4</ele>
        <time>2019-12-18T06:47:36Z</time>
      </trkpt>
      <trkpt lat="59.329168" lon="18.073356">
        <ele>4</ele>
        <time>2019-12-18T06:47:37Z</time>
      </trkpt>
      <trkpt lat="59.329194" lon="18.07336">
        <ele>4</ele>
        <time>2019-12-18T06:47:38Z</time>
      </trkpt>
      <trkpt lat="59.32922" lon="18.073365">
        <ele>4</ele>
        <time>2019-12-18T06:47:39Z</time>
      </trkpt>
      <trkpt lat="59.329246" lon="18.073369">
        <ele>4</ele>
        <time>2019-12-18T06:47:40Z</time>
      </trkpt>
      <trkpt lat="59.329272" lon="18.073377">
        <ele>4</ele>
        <time>2019-12-18T06:47:41Z</time>
      </trkpt>
      <trkpt lat="59.329298" lon="18.073386">
        <ele>0</ele>
        <time>2019-12-18T06:47:41Z</time>
      </trkpt>
      <trkpt lat="59.329326" lon="18.073391">
        <ele>4</ele>
        <time>2019-12-18T06:47:42Z</time>
      </trkpt>
      <trkpt lat="59.329352" lon="18.073396">
        <ele>4</ele>
        <time>2019-12-18T06:47:44Z</time>
      </trkpt>
      <trkpt lat="59.32938" lon="18.073393">
        <ele>4</ele>
        <time>2019-12-18T06:47:45Z</time>
      </trkpt>
      <trkpt lat="59.329405" lon="18.073402">
        <ele>4</ele>
        <time>2019-12-18T06:47:46Z</time>
      </trkpt>
      <trkpt lat="59.329432" lon="18.073414">
        <ele>0</ele>
        <time>2019-12-18T06:47:46Z</time>
      </trkpt>
      <trkpt lat="59.329455" lon="18.073433">
        <ele>4</ele>
        <time>2019-12-18T06:47:47Z</time>
      </trkpt>
      <trkpt lat="59.329479" lon="18.073457">
        <ele>4</ele>
        <time>2019-12-18T06:47:49Z</time>
      </trkpt>
      <trkpt lat="59.329502" lon="18.073488">
        <ele>5</ele>
        <time>2019-12-18T06:47:50Z</time>
      </trkpt>
      <trkpt lat="59.329523" lon="18.073524">
        <ele>5</ele>
        <time>2019-12-18T06:47:51Z</time>
      </trkpt>
      <trkpt lat="59.329542" lon="18.073557">
        <ele>4</ele>
        <time>2019-12-18T06:47:52Z</time>
      </trkpt>
      <trkpt lat="59.329554" lon="18.073581">
        <ele>4</ele>
        <time>2019-12-18T06:47:53Z</time>
      </trkpt>
      <trkpt lat="59.329574" lon="18.073599">
        <ele>4</ele>
        <time>2019-12-18T06:47:54Z</time>
      </trkpt>
      <trkpt lat="59.329596" lon="18.073613">
        <ele>4</ele>
        <time>2019-12-18T06:47:55Z</time>
      </trkpt>
      <trkpt lat="59.329621" lon="18.073626">
        <ele>4</ele>
        <time>2019-12-18T06:47:57Z</time>
      </trkpt>
      <trkpt lat="59.329647" lon="18.073621">
        <ele>3</ele>
        <time>2019-12-18T06:48:03Z</time>
      </trkpt>
      <trkpt lat="59.329684" lon="18.073606">
        <ele>4</ele>
        <time>2019-12-18T06:48:05Z</time>
      </trkpt>
      <trkpt lat="59.329711" lon="18.073597">
        <ele>4</ele>
        <time>2019-12-18T06:48:06Z</time>
      </trkpt>
      <trkpt lat="59.329741" lon="18.073579">
        <ele>4</ele>
        <time>2019-12-18T06:48:07Z</time>
      </trkpt>
      <trkpt lat="59.329769" lon="18.073564">
        <ele>4</ele>
        <time>2019-12-18T06:48:08Z</time>
      </trkpt>
      <trkpt lat="59.329795" lon="18.073551">
        <ele>4</ele>
        <time>2019-12-18T06:48:09Z</time>
      </trkpt>
      <trkpt lat="59.329821" lon="18.073534">
        <ele>5</ele>
        <time>2019-12-18T06:48:10Z</time>
      </trkpt>
      <trkpt lat="59.329846" lon="18.073516">
        <ele>4</ele>
        <time>2019-12-18T06:48:11Z</time>
      </trkpt>
      <trkpt lat="59.329871" lon="18.073503">
        <ele>0</ele>
        <time>2019-12-18T06:48:11Z</time>
      </trkpt>
      <trkpt lat="59.329897" lon="18.073483">
        <ele>4</ele>
        <time>2019-12-18T06:48:12Z</time>
      </trkpt>
      <trkpt lat="59.329923" lon="18.073457">
        <ele>4</ele>
        <time>2019-12-18T06:48:14Z</time>
      </trkpt>
      <trkpt lat="59.32995" lon="18.073439">
        <ele>4</ele>
        <time>2019-12-18T06:48:15Z</time>
      </trkpt>
      <trkpt lat="59.329977" lon="18.07343">
        <ele>4</ele>
        <time>2019-12-18T06:48:16Z</time>
      </trkpt>
      <trkpt lat="59.330002" lon="18.073426">
        <ele>4</ele>
        <time>2019-12-18T06:48:17Z</time>
      </trkpt>
      <trkpt lat="59.330026" lon="18.073419">
        <ele>4</ele>
        <time>2019-12-18T06:48:18Z</time>
      </trkpt>
      <trkpt lat="59.330052" lon="18.073406">
        <ele>4</ele>
        <time>2019-12-18T06:48:19Z</time>
      </trkpt>
      <trkpt lat="59.330078" lon="18.073391">
        <ele>0</ele>
        <time>2019-12-18T06:48:19Z</time>
      </trkpt>
      <trkpt lat="59.330104" lon="18.073379">
        <ele>4</ele>
        <time>2019-12-18T06:48:20Z</time>
      </trkpt>
      <trkpt lat="59.330129" lon="18.073369">
        <ele>4</ele>
        <time>2019-12-18T06:48:22Z</time>
      </trkpt>
      <trkpt lat="59.330154" lon="18.073357">
        <ele>4</ele>
        <time>2019-12-18T06:48:23Z</time>
      </trkpt>
      <trkpt lat="59.33018" lon="18.073345">
        <ele>4</ele>
        <time>2019-12-18T06:48:24Z</time>
      </trkpt>
      <trkpt lat="59.330204" lon="18.073329">
        <ele>4</ele>
        <time>2019-12-18T06:48:25Z</time>
      </trkpt>
      <trkpt lat="59.330229" lon="18.07331">
        <ele>3</ele>
        <time>2019-12-18T06:48:26Z</time>
      </trkpt>
      <trkpt lat="59.330253" lon="18.073297">
        <ele>3</ele>
        <time>2019-12-18T06:48:27Z</time>
      </trkpt>
      <trkpt lat="59.330278" lon="18.073286">
        <ele>4</ele>
        <time>2019-12-18T06:48:28Z</time>
      </trkpt>
      <trkpt lat="59.330304" lon="18.073268">
        <ele>3</ele>
        <time>2019-12-18T06:48:29Z</time>
      </trkpt>
      <trkpt lat="59.330327" lon="18.073258">
        <ele>3</ele>
        <time>2019-12-18T06:48:30Z</time>
      </trkpt>
      <trkpt lat="59.33035" lon="18.073251">
        <ele>3</ele>
        <time>2019-12-18T06:48:31Z</time>
      </trkpt>
      <trkpt lat="59.330371" lon="18.073243">
        <ele>0</ele>
        <time>2019-12-18T06:48:31Z</time>
      </trkpt>
      <trkpt lat="59.330394" lon="18.073231">
        <ele>3</ele>
        <time>2019-12-18T06:48:32Z</time>
      </trkpt>
      <trkpt lat="59.330414" lon="18.073215">
        <ele>3</ele>
        <time>2019-12-18T06:48:34Z</time>
      </trkpt>
      <trkpt lat="59.330436" lon="18.073203">
        <ele>3</ele>
        <time>2019-12-18T06:48:35Z</time>
      </trkpt>
      <trkpt lat="59.330458" lon="18.07319">
        <ele>3</ele>
        <time>2019-12-18T06:48:36Z</time>
      </trkpt>
      <trkpt lat="59.330482" lon="18.073173">
        <ele>3</ele>
        <time>2019-12-18T06:48:37Z</time>
      </trkpt>
      <trkpt lat="59.330504" lon="18.073157">
        <ele>3</ele>
        <time>2019-12-18T06:48:38Z</time>
      </trkpt>
      <trkpt lat="59.330526" lon="18.073145">
        <ele>0</ele>
        <time>2019-12-18T06:48:38Z</time>
      </trkpt>
      <trkpt lat="59.330548" lon="18.073134">
        <ele>3</ele>
        <time>2019-12-18T06:48:39Z</time>
      </trkpt>
      <trkpt lat="59.330569" lon="18.073135">
        <ele>3</ele>
        <time>2019-12-18T06:48:40Z</time>
      </trkpt>
      <trkpt lat="59.330586" lon="18.073178">
        <ele>3</ele>
        <time>2019-12-18T06:48:43Z</time>
      </trkpt>
      <trkpt lat="59.330596" lon="18.073211">
        <ele>3</ele>
        <time>2019-12-18T06:48:44Z</time>
      </trkpt>
      <trkpt lat="59.330608" lon="18.073253">
        <ele>3</ele>
        <time>2019-12-18T06:48:45Z</time>
      </trkpt>
      <trkpt lat="59.33062" lon="18.073292">
        <ele>3</ele>
        <time>2019-12-18T06:48:46Z</time>
      </trkpt>
      <trkpt lat="59.330633" lon="18.07333">
        <ele>3</ele>
        <time>2019-12-18T06:48:47Z</time>
      </trkpt>
      <trkpt lat="59.330646" lon="18.073371">
        <ele>3</ele>
        <time>2019-12-18T06:48:48Z</time>
      </trkpt>
      <trkpt lat="59.330659" lon="18.073414">
        <ele>3</ele>
        <time>2019-12-18T06:48:49Z</time>
      </trkpt>
      <trkpt lat="59.330674" lon="18.073455">
        <ele>3</ele>
        <time>2019-12-18T06:48:50Z</time>
      </trkpt>
      <trkpt lat="59.33069" lon="18.073495">
        <ele>3</ele>
        <time>2019-12-18T06:48:51Z</time>
      </trkpt>
      <trkpt lat="59.330705" lon="18.073536">
        <ele>3</ele>
        <time>2019-12-18T06:48:52Z</time>
      </trkpt>
      <trkpt lat="59.330715" lon="18.073578">
        <ele>0</ele>
        <time>2019-12-18T06:48:52Z</time>
      </trkpt>
      <trkpt lat="59.330729" lon="18.073621">
        <ele>4</ele>
        <time>2019-12-18T06:48:53Z</time>
      </trkpt>
      <trkpt lat="59.330725" lon="18.07367">
        <ele>4</ele>
        <time>2019-12-18T06:48:55Z</time>
      </trkpt>
      <trkpt lat="59.330734" lon="18.073711">
        <ele>4</ele>
        <time>2019-12-18T06:48:56Z</time>
      </trkpt>
      <trkpt lat="59.330744" lon="18.073754">
        <ele>4</ele>
        <time>2019-12-18T06:48:57Z</time>
      </trkpt>
      <trkpt lat="59.330756" lon="18.073794">
        <ele>0</ele>
        <time>2019-12-18T06:48:57Z</time>
      </trkpt>
      <trkpt lat="59.330767" lon="18.073841">
        <ele>4</ele>
        <time>2019-12-18T06:48:58Z</time>
      </trkpt>
      <trkpt lat="59.330781" lon="18.073886">
        <ele>4</ele>
        <time>2019-12-18T06:49:00Z</time>
      </trkpt>
      <trkpt lat="59.330798" lon="18.073924">
        <ele>4</ele>
        <time>2019-12-18T06:49:01Z</time>
      </trkpt>
      <trkpt lat="59.330814" lon="18.073961">
        <ele>4</ele>
        <time>2019-12-18T06:49:02Z</time>
      </trkpt>
      <trkpt lat="59.330832" lon="18.074002">
        <ele>4</ele>
        <time>2019-12-18T06:49:03Z</time>
      </trkpt>
      <trkpt lat="59.330849" lon="18.074043">
        <ele>4</ele>
        <time>2019-12-18T06:49:04Z</time>
      </trkpt>
      <trkpt lat="59.330885" lon="18.074113">
        <ele>5</ele>
        <time>2019-12-18T06:49:06Z</time>
      </trkpt>
      <trkpt lat="59.330938" lon="18.074224">
        <ele>5</ele>
        <time>2019-12-18T06:49:09Z</time>
      </trkpt>
      <trkpt lat="59.33096" lon="18.074259">
        <ele>5</ele>
        <time>2019-12-18T06:49:10Z</time>
      </trkpt>
      <trkpt lat="59.331034" lon="18.074399">
        <ele>6</ele>
        <time>2019-12-18T06:49:13Z</time>
      </trkpt>
      <trkpt lat="59.331118" lon="18.074514">
        <ele>6</ele>
        <time>2019-12-18T06:49:19Z</time>
      </trkpt>
      <trkpt lat="59.331211" lon="18.074609">
        <ele>6</ele>
        <time>2019-12-18T06:49:24Z</time>
      </trkpt>
      <trkpt lat="59.331306" lon="18.074691">
        <ele>6</ele>
        <time>2019-12-18T06:49:28Z</time>
      </trkpt>
      <trkpt lat="59.3314" lon="18.074757">
        <ele>6</ele>
        <time>2019-12-18T06:49:32Z</time>
      </trkpt>
      <trkpt lat="59.331489" lon="18.074844">
        <ele>7</ele>
        <time>2019-12-18T06:49:35Z</time>
      </trkpt>
      <trkpt lat="59.331566" lon="18.074949">
        <ele>8</ele>
        <time>2019-12-18T06:49:40Z</time>
      </trkpt>
      <trkpt lat="59.331649" lon="18.075038">
        <ele>8</ele>
        <time>2019-12-18T06:49:43Z</time>
      </trkpt>
      <trkpt lat="59.331745" lon="18.075041">
        <ele>8</ele>
        <time>2019-12-18T06:49:45Z</time>
      </trkpt>
      <trkpt lat="59.331782" lon="18.075084">
        <ele>8</ele>
        <time>2019-12-18T06:49:46Z</time>
      </trkpt>
      <trkpt lat="59.331807" lon="18.075143">
        <ele>8</ele>
        <time>2019-12-18T06:49:47Z</time>
      </trkpt>
      <trkpt lat="59.33182" lon="18.075206">
        <ele>8</ele>
        <time>2019-12-18T06:49:48Z</time>
      </trkpt>
      <trkpt lat="59.33184" lon="18.075245">
        <ele>9</ele>
        <time>2019-12-18T06:49:49Z</time>
      </trkpt>
      <trkpt lat="59.331861" lon="18.075279">
        <ele>0</ele>
        <time>2019-12-18T06:49:49Z</time>
      </trkpt>
      <trkpt lat="59.331883" lon="18.075304">
        <ele>10</ele>
        <time>2019-12-18T06:49:50Z</time>
      </trkpt>
      <trkpt lat="59.331913" lon="18.075335">
        <ele>11</ele>
        <time>2019-12-18T06:49:52Z</time>
      </trkpt>
      <trkpt lat="59.331941" lon="18.075375">
        <ele>12</ele>
        <time>2019-12-18T06:49:53Z</time>
      </trkpt>
      <trkpt lat="59.331968" lon="18.075417">
        <ele>12</ele>
        <time>2019-12-18T06:49:54Z</time>
      </trkpt>
      <trkpt lat="59.331989" lon="18.075456">
        <ele>0</ele>
        <time>2019-12-18T06:49:54Z</time>
      </trkpt>
      <trkpt lat="59.332014" lon="18.075496">
        <ele>12</ele>
        <time>2019-12-18T06:49:55Z</time>
      </trkpt>
      <trkpt lat="59.332036" lon="18.075542">
        <ele>13</ele>
        <time>2019-12-18T06:49:57Z</time>
      </trkpt>
      <trkpt lat="59.332058" lon="18.075584">
        <ele>13</ele>
        <time>2019-12-18T06:49:58Z</time>
      </trkpt>
      <trkpt lat="59.332076" lon="18.075623">
        <ele>13</ele>
        <time>2019-12-18T06:49:59Z</time>
      </trkpt>
      <trkpt lat="59.332095" lon="18.075662">
        <ele>14</ele>
        <time>2019-12-18T06:50:00Z</time>
      </trkpt>
      <trkpt lat="59.332113" lon="18.0757">
        <ele>14</ele>
        <time>2019-12-18T06:50:01Z</time>
      </trkpt>
      <trkpt lat="59.332128" lon="18.075748">
        <ele>14</ele>
        <time>2019-12-18T06:50:02Z</time>
      </trkpt>
      <trkpt lat="59.332145" lon="18.075788">
        <ele>0</ele>
        <time>2019-12-18T06:50:02Z</time>
      </trkpt>
      <trkpt lat="59.332161" lon="18.075828">
        <ele>14</ele>
        <time>2019-12-18T06:50:03Z</time>
      </trkpt>
      <trkpt lat="59.332179" lon="18.075874">
        <ele>14</ele>
        <time>2019-12-18T06:50:05Z</time>
      </trkpt>
      <trkpt lat="59.332196" lon="18.075923">
        <ele>14</ele>
        <time>2019-12-18T06:50:06Z</time>
      </trkpt>
      <trkpt lat="59.332214" lon="18.075968">
        <ele>0</ele>
        <time>2019-12-18T06:50:06Z</time>
      </trkpt>
      <trkpt lat="59.332232" lon="18.076016">
        <ele>14</ele>
        <time>2019-12-18T06:50:07Z</time>
      </trkpt>
      <trkpt lat="59.332249" lon="18.076061">
        <ele>14</ele>
        <time>2019-12-18T06:50:09Z</time>
      </trkpt>
      <trkpt lat="59.332265" lon="18.076102">
        <ele>13</ele>
        <time>2019-12-18T06:50:10Z</time>
      </trkpt>
      <trkpt lat="59.332283" lon="18.076142">
        <ele>13</ele>
        <time>2019-12-18T06:50:11Z</time>
      </trkpt>
      <trkpt lat="59.332301" lon="18.076184">
        <ele>13</ele>
        <time>2019-12-18T06:50:12Z</time>
      </trkpt>
      <trkpt lat="59.332317" lon="18.076226">
        <ele>13</ele>
        <time>2019-12-18T06:50:13Z</time>
      </trkpt>
      <trkpt lat="59.332332" lon="18.07627">
        <ele>0</ele>
        <time>2019-12-18T06:50:13Z</time>
      </trkpt>
      <trkpt lat="59.332345" lon="18.07631">
        <ele>13</ele>
        <time>2019-12-18T06:50:14Z</time>
      </trkpt>
      <trkpt lat="59.332362" lon="18.076355">
        <ele>13</ele>
        <time>2019-12-18T06:50:16Z</time>
      </trkpt>
      <trkpt lat="59.332379" lon="18.076398">
        <ele>13</ele>
        <time>2019-12-18T06:50:17Z</time>
      </trkpt>
      <trkpt lat="59.332397" lon="18.076436">
        <ele>13</ele>
        <time>2019-12-18T06:50:18Z</time>
      </trkpt>
      <trkpt lat="59.332416" lon="18.076474">
        <ele>13</ele>
        <time>2019-12-18T06:50:19Z</time>
      </trkpt>
      <trkpt lat="59.332431" lon="18.076522">
        <ele>13</ele>
        <time>2019-12-18T06:50:20Z</time>
      </trkpt>
      <trkpt lat="59.332443" lon="18.076568">
        <ele>14</ele>
        <time>2019-12-18T06:50:21Z</time>
      </trkpt>
      <trkpt lat="59.332458" lon="18.076607">
        <ele>14</ele>
        <time>2019-12-18T06:50:22Z</time>
      </trkpt>
      <trkpt lat="59.332475" lon="18.076644">
        <ele>14</ele>
        <time>2019-12-18T06:50:23Z</time>
      </trkpt>
      <trkpt lat="59.332489" lon="18.07667">
        <ele>14</ele>
        <time>2019-12-18T06:50:24Z</time>
      </trkpt>
      <trkpt lat="59.332509" lon="18.07671">
        <ele>13</ele>
        <time>2019-12-18T06:50:26Z</time>
      </trkpt>
      <trkpt lat="59.332525" lon="18.076745">
        <ele>13</ele>
        <time>2019-12-18T06:50:28Z</time>
      </trkpt>
      <trkpt lat="59.332532" lon="18.076778">
        <ele>11</ele>
        <time>2019-12-18T06:50:34Z</time>
      </trkpt>
      <trkpt lat="59.332557" lon="18.076782">
        <ele>11</ele>
        <time>2019-12-18T06:50:41Z</time>
      </trkpt>
      <trkpt lat="59.33259" lon="18.076806">
        <ele>11</ele>
        <time>2019-12-18T06:50:43Z</time>
      </trkpt>
      <trkpt lat="59.332607" lon="18.076851">
        <ele>11</ele>
        <time>2019-12-18T06:50:45Z</time>
      </trkpt>
      <trkpt lat="59.332615" lon="18.076906">
        <ele>12</ele>
        <time>2019-12-18T06:50:47Z</time>
      </trkpt>
      <trkpt lat="59.332623" lon="18.07696">
        <ele>12</ele>
        <time>2019-12-18T06:50:49Z</time>
      </trkpt>
      <trkpt lat="59.332636" lon="18.077">
        <ele>12</ele>
        <time>2019-12-18T06:50:51Z</time>
      </trkpt>
      <trkpt lat="59.332654" lon="18.077028">
        <ele>12</ele>
        <time>2019-12-18T06:50:52Z</time>
      </trkpt>
      <trkpt lat="59.332665" lon="18.077058">
        <ele>11</ele>
        <time>2019-12-18T06:50:55Z</time>
      </trkpt>
      <trkpt lat="59.33266" lon="18.077106">
        <ele>11</ele>
        <time>2019-12-18T06:50:57Z</time>
      </trkpt>
      <trkpt lat="59.33269" lon="18.077101">
        <ele>11</ele>
        <time>2019-12-18T06:50:59Z</time>
      </trkpt>
      <trkpt lat="59.332721" lon="18.077112">
        <ele>12</ele>
        <time>2019-12-18T06:51:00Z</time>
      </trkpt>
      <trkpt lat="59.332752" lon="18.077132">
        <ele>12</ele>
        <time>2019-12-18T06:51:01Z</time>
      </trkpt>
      <trkpt lat="59.332778" lon="18.077143">
        <ele>12</ele>
        <time>2019-12-18T06:51:02Z</time>
      </trkpt>
      <trkpt lat="59.332805" lon="18.077153">
        <ele>12</ele>
        <time>2019-12-18T06:51:03Z</time>
      </trkpt>
      <trkpt lat="59.332834" lon="18.077173">
        <ele>12</ele>
        <time>2019-12-18T06:51:04Z</time>
      </trkpt>
      <trkpt lat="59.332859" lon="18.077192">
        <ele>12</ele>
        <time>2019-12-18T06:51:05Z</time>
      </trkpt>
      <trkpt lat="59.332903" lon="18.077213">
        <ele>0</ele>
        <time>2019-12-18T06:51:06Z</time>
      </trkpt>
      <trkpt lat="59.332928" lon="18.077242">
        <ele>12</ele>
        <time>2019-12-18T06:51:07Z</time>
      </trkpt>
      <trkpt lat="59.332954" lon="18.077282">
        <ele>12</ele>
        <time>2019-12-18T06:51:09Z</time>
      </trkpt>
      <trkpt lat="59.332976" lon="18.07732">
        <ele>12</ele>
        <time>2019-12-18T06:51:10Z</time>
      </trkpt>
      <trkpt lat="59.332994" lon="18.077355">
        <ele>0</ele>
        <time>2019-12-18T06:51:10Z</time>
      </trkpt>
      <trkpt lat="59.333014" lon="18.077384">
        <ele>12</ele>
        <time>2019-12-18T06:51:11Z</time>
      </trkpt>
      <trkpt lat="59.333031" lon="18.077415">
        <ele>12</ele>
        <time>2019-12-18T06:51:13Z</time>
      </trkpt>
      <trkpt lat="59.333046" lon="18.07745">
        <ele>12</ele>
        <time>2019-12-18T06:51:14Z</time>
      </trkpt>
      <trkpt lat="59.333058" lon="18.077481">
        <ele>12</ele>
        <time>2019-12-18T06:51:15Z</time>
      </trkpt>
      <trkpt lat="59.333076" lon="18.077513">
        <ele>12</ele>
        <time>2019-12-18T06:51:16Z</time>
      </trkpt>
      <trkpt lat="59.333099" lon="18.077542">
        <ele>12</ele>
        <time>2019-12-18T06:51:17Z</time>
      </trkpt>
      <trkpt lat="59.333122" lon="18.07756">
        <ele>12</ele>
        <time>2019-12-18T06:51:18Z</time>
      </trkpt>
      <trkpt lat="59.333146" lon="18.077577">
        <ele>12</ele>
        <time>2019-12-18T06:51:19Z</time>
      </trkpt>
      <trkpt lat="59.33317" lon="18.077595">
        <ele>12</ele>
        <time>2019-12-18T06:51:20Z</time>
      </trkpt>
      <trkpt lat="59.333199" lon="18.077609">
        <ele>12</ele>
        <time>2019-12-18T06:51:21Z</time>
      </trkpt>
      <trkpt lat="59.333223" lon="18.077626">
        <ele>12</ele>
        <time>2019-12-18T06:51:22Z</time>
      </trkpt>
      <trkpt lat="59.333254" lon="18.07764">
        <ele>13</ele>
        <time>2019-12-18T06:51:23Z</time>
      </trkpt>
      <trkpt lat="59.333276" lon="18.077669">
        <ele>13</ele>
        <time>2019-12-18T06:51:24Z</time>
      </trkpt>
      <trkpt lat="59.333295" lon="18.077687">
        <ele>0</ele>
        <time>2019-12-18T06:51:24Z</time>
      </trkpt>
      <trkpt lat="59.333327" lon="18.077696">
        <ele>13</ele>
        <time>2019-12-18T06:51:25Z</time>
      </trkpt>
      <trkpt lat="59.333363" lon="18.077712">
        <ele>13</ele>
        <time>2019-12-18T06:51:27Z</time>
      </trkpt>
      <trkpt lat="59.333391" lon="18.077731">
        <ele>13</ele>
        <time>2019-12-18T06:51:28Z</time>
      </trkpt>
      <trkpt lat="59.333412" lon="18.077743">
        <ele>13</ele>
        <time>2019-12-18T06:51:29Z</time>
      </trkpt>
      <trkpt lat="59.333425" lon="18.077769">
        <ele>0</ele>
        <time>2019-12-18T06:51:29Z</time>
      </trkpt>
      <trkpt lat="59.333436" lon="18.077805">
        <ele>13</ele>
        <time>2019-12-18T06:51:30Z</time>
      </trkpt>
      <trkpt lat="59.333446" lon="18.077841">
        <ele>14</ele>
        <time>2019-12-18T06:51:32Z</time>
      </trkpt>
      <trkpt lat="59.333456" lon="18.077872">
        <ele>14</ele>
        <time>2019-12-18T06:51:33Z</time>
      </trkpt>
      <trkpt lat="59.333469" lon="18.077906">
        <ele>14</ele>
        <time>2019-12-18T06:51:34Z</time>
      </trkpt>
      <trkpt lat="59.333483" lon="18.077938">
        <ele>14</ele>
        <time>2019-12-18T06:51:35Z</time>
      </trkpt>
      <trkpt lat="59.333502" lon="18.077968">
        <ele>14</ele>
        <time>2019-12-18T06:51:36Z</time>
      </trkpt>
      <trkpt lat="59.333528" lon="18.077995">
        <ele>14</ele>
        <time>2019-12-18T06:51:37Z</time>
      </trkpt>
      <trkpt lat="59.333568" lon="18.078042">
        <ele>14</ele>
        <time>2019-12-18T06:51:39Z</time>
      </trkpt>
      <trkpt lat="59.333656" lon="18.078139">
        <ele>14</ele>
        <time>2019-12-18T06:51:43Z</time>
      </trkpt>
      <trkpt lat="59.33376" lon="18.07819">
        <ele>14</ele>
        <time>2019-12-18T06:51:45Z</time>
      </trkpt>
      <trkpt lat="59.333853" lon="18.078223">
        <ele>0</ele>
        <time>2019-12-18T06:51:48Z</time>
      </trkpt>
      <trkpt lat="59.33395" lon="18.078275">
        <ele>15</ele>
        <time>2019-12-18T06:51:52Z</time>
      </trkpt>
      <trkpt lat="59.33404" lon="18.078309">
        <ele>14</ele>
        <time>2019-12-18T06:51:54Z</time>
      </trkpt>
      <trkpt lat="59.33407" lon="18.078329">
        <ele>14</ele>
        <time>2019-12-18T06:51:55Z</time>
      </trkpt>
      <trkpt lat="59.334118" lon="18.078382">
        <ele>15</ele>
        <time>2019-12-18T06:51:58Z</time>
      </trkpt>
      <trkpt lat="59.334135" lon="18.078405">
        <ele>15</ele>
        <time>2019-12-18T06:51:59Z</time>
      </trkpt>
      <trkpt lat="59.33415" lon="18.078432">
        <ele>16</ele>
        <time>2019-12-18T06:52:00Z</time>
      </trkpt>
      <trkpt lat="59.334162" lon="18.078467">
        <ele>16</ele>
        <time>2019-12-18T06:52:01Z</time>
      </trkpt>
      <trkpt lat="59.334182" lon="18.078489">
        <ele>16</ele>
        <time>2019-12-18T06:52:02Z</time>
      </trkpt>
      <trkpt lat="59.334271" lon="18.078544">
        <ele>16</ele>
        <time>2019-12-18T06:52:04Z</time>
      </trkpt>
      <trkpt lat="59.334364" lon="18.078582">
        <ele>0</ele>
        <time>2019-12-18T06:52:07Z</time>
      </trkpt>
      <trkpt lat="59.334444" lon="18.078728">
        <ele>19</ele>
        <time>2019-12-18T06:52:13Z</time>
      </trkpt>
      <trkpt lat="59.334543" lon="18.07879">
        <ele>20</ele>
        <time>2019-12-18T06:52:17Z</time>
      </trkpt>
      <trkpt lat="59.334633" lon="18.078824">
        <ele>21</ele>
        <time>2019-12-18T06:52:20Z</time>
      </trkpt>
      <trkpt lat="59.334739" lon="18.078828">
        <ele>22</ele>
        <time>2019-12-18T06:52:21Z</time>
      </trkpt>
      <trkpt lat="59.334837" lon="18.07887">
        <ele>22</ele>
        <time>2019-12-18T06:52:25Z</time>
      </trkpt>
      <trkpt lat="59.334922" lon="18.078937">
        <ele>23</ele>
        <time>2019-12-18T06:52:27Z</time>
      </trkpt>
      <trkpt lat="59.335021" lon="18.079019">
        <ele>23</ele>
        <time>2019-12-18T06:52:32Z</time>
      </trkpt>
      <trkpt lat="59.335119" lon="18.079099">
        <ele>23</ele>
        <time>2019-12-18T06:52:36Z</time>
      </trkpt>
      <trkpt lat="59.335214" lon="18.079211">
        <ele>24</ele>
        <time>2019-12-18T06:52:39Z</time>
      </trkpt>
      <trkpt lat="59.335307" lon="18.079288">
        <ele>25</ele>
        <time>2019-12-18T06:52:44Z</time>
      </trkpt>
      <trkpt lat="59.335407" lon="18.079354">
        <ele>26</ele>
        <time>2019-12-18T06:52:49Z</time>
      </trkpt>
      <trkpt lat="59.33544" lon="18.079367">
        <ele>25</ele>
        <time>2019-12-18T06:52:50Z</time>
      </trkpt>
      <trkpt lat="59.335482" lon="18.079368">
        <ele>26</ele>
        <time>2019-12-18T06:52:51Z</time>
      </trkpt>
      <trkpt lat="59.335507" lon="18.079386">
        <ele>26</ele>
        <time>2019-12-18T06:52:52Z</time>
      </trkpt>
      <trkpt lat="59.335536" lon="18.079424">
        <ele>26</ele>
        <time>2019-12-18T06:52:53Z</time>
      </trkpt>
      <trkpt lat="59.335565" lon="18.079451">
        <ele>0</ele>
        <time>2019-12-18T06:52:53Z</time>
      </trkpt>
      <trkpt lat="59.335588" lon="18.079481">
        <ele>26</ele>
        <time>2019-12-18T06:52:54Z</time>
      </trkpt>
      <trkpt lat="59.335612" lon="18.079512">
        <ele>26</ele>
        <time>2019-12-18T06:52:56Z</time>
      </trkpt>
      <trkpt lat="59.335633" lon="18.079547">
        <ele>26</ele>
        <time>2019-12-18T06:52:57Z</time>
      </trkpt>
      <trkpt lat="59.335653" lon="18.079578">
        <ele>26</ele>
        <time>2019-12-18T06:52:58Z</time>
      </trkpt>
      <trkpt lat="59.335688" lon="18.079639">
        <ele>26</ele>
        <time>2019-12-18T06:53:00Z</time>
      </trkpt>
      <trkpt lat="59.335712" lon="18.079675">
        <ele>26</ele>
        <time>2019-12-18T06:53:01Z</time>
      </trkpt>
      <trkpt lat="59.335738" lon="18.079708">
        <ele>26</ele>
        <time>2019-12-18T06:53:02Z</time>
      </trkpt>
      <trkpt lat="59.335759" lon="18.079726">
        <ele>26</ele>
        <time>2019-12-18T06:53:03Z</time>
      </trkpt>
      <trkpt lat="59.335778" lon="18.079746">
        <ele>26</ele>
        <time>2019-12-18T06:53:04Z</time>
      </trkpt>
      <trkpt lat="59.335805" lon="18.079769">
        <ele>0</ele>
        <time>2019-12-18T06:53:04Z</time>
      </trkpt>
      <trkpt lat="59.335829" lon="18.07978">
        <ele>26</ele>
        <time>2019-12-18T06:53:05Z</time>
      </trkpt>
      <trkpt lat="59.335853" lon="18.079783">
        <ele>26</ele>
        <time>2019-12-18T06:53:07Z</time>
      </trkpt>
      <trkpt lat="59.335877" lon="18.079796">
        <ele>26</ele>
        <time>2019-12-18T06:53:08Z</time>
      </trkpt>
      <trkpt lat="59.335903" lon="18.079815">
        <ele>27</ele>
        <time>2019-12-18T06:53:09Z</time>
      </trkpt>
      <trkpt lat="59.335929" lon="18.079832">
        <ele>27</ele>
        <time>2019-12-18T06:53:10Z</time>
      </trkpt>
      <trkpt lat="59.335952" lon="18.079843">
        <ele>27</ele>
        <time>2019-12-18T06:53:11Z</time>
      </trkpt>
      <trkpt lat="59.335975" lon="18.079853">
        <ele>27</ele>
        <time>2019-12-18T06:53:12Z</time>
      </trkpt>
      <trkpt lat="59.335995" lon="18.079864">
        <ele>27</ele>
        <time>2019-12-18T06:53:13Z</time>
      </trkpt>
      <trkpt lat="59.336014" lon="18.07988">
        <ele>0</ele>
        <time>2019-12-18T06:53:13Z</time>
      </trkpt>
      <trkpt lat="59.336034" lon="18.079897">
        <ele>27</ele>
        <time>2019-12-18T06:53:14Z</time>
      </trkpt>
      <trkpt lat="59.336064" lon="18.079906">
        <ele>27</ele>
        <time>2019-12-18T06:53:17Z</time>
      </trkpt>
      <trkpt lat="59.336092" lon="18.079941">
        <ele>28</ele>
        <time>2019-12-18T06:53:19Z</time>
      </trkpt>
      <trkpt lat="59.336117" lon="18.079979">
        <ele>28</ele>
        <time>2019-12-18T06:53:21Z</time>
      </trkpt>
      <trkpt lat="59.336194" lon="18.08009">
        <ele>29</ele>
        <time>2019-12-18T06:53:26Z</time>
      </trkpt>
      <trkpt lat="59.336283" lon="18.080207">
        <ele>30</ele>
        <time>2019-12-18T06:53:31Z</time>
      </trkpt>
      <trkpt lat="59.336321" lon="18.080244">
        <ele>30</ele>
        <time>2019-12-18T06:53:33Z</time>
      </trkpt>
      <trkpt lat="59.336342" lon="18.080259">
        <ele>30</ele>
        <time>2019-12-18T06:53:34Z</time>
      </trkpt>
      <trkpt lat="59.33636" lon="18.080279">
        <ele>30</ele>
        <time>2019-12-18T06:53:35Z</time>
      </trkpt>
      <trkpt lat="59.336382" lon="18.080305">
        <ele>30</ele>
        <time>2019-12-18T06:53:36Z</time>
      </trkpt>
      <trkpt lat="59.336406" lon="18.080327">
        <ele>31</ele>
        <time>2019-12-18T06:53:37Z</time>
      </trkpt>
      <trkpt lat="59.336425" lon="18.080354">
        <ele>31</ele>
        <time>2019-12-18T06:53:38Z</time>
      </trkpt>
      <trkpt lat="59.336441" lon="18.080367">
        <ele>0</ele>
        <time>2019-12-18T06:53:38Z</time>
      </trkpt>
      <trkpt lat="59.336462" lon="18.080389">
        <ele>31</ele>
        <time>2019-12-18T06:53:39Z</time>
      </trkpt>
      <trkpt lat="59.336486" lon="18.08041">
        <ele>31</ele>
        <time>2019-12-18T06:53:41Z</time>
      </trkpt>
      <trkpt lat="59.336587" lon="18.080496">
        <ele>32</ele>
        <time>2019-12-18T06:53:45Z</time>
      </trkpt>
      <trkpt lat="59.336683" lon="18.080573">
        <ele>33</ele>
        <time>2019-12-18T06:53:49Z</time>
      </trkpt>
      <trkpt lat="59.336786" lon="18.080632">
        <ele>34</ele>
        <time>2019-12-18T06:53:53Z</time>
      </trkpt>
      <trkpt lat="59.336879" lon="18.080597">
        <ele>33</ele>
        <time>2019-12-18T06:53:55Z</time>
      </trkpt>
      <trkpt lat="59.336922" lon="18.080606">
        <ele>0</ele>
        <time>2019-12-18T06:53:55Z</time>
      </trkpt>
      <trkpt lat="59.336961" lon="18.080649">
        <ele>33</ele>
        <time>2019-12-18T06:53:56Z</time>
      </trkpt>
      <trkpt lat="59.336995" lon="18.080669">
        <ele>33</ele>
        <time>2019-12-18T06:53:58Z</time>
      </trkpt>
      <trkpt lat="59.337018" lon="18.080681">
        <ele>33</ele>
        <time>2019-12-18T06:53:59Z</time>
      </trkpt>
      <trkpt lat="59.337046" lon="18.080688">
        <ele>32</ele>
        <time>2019-12-18T06:54:01Z</time>
      </trkpt>
      <trkpt lat="59.337079" lon="18.080713">
        <ele>32</ele>
        <time>2019-12-18T06:54:02Z</time>
      </trkpt>
      <trkpt lat="59.337106" lon="18.080754">
        <ele>32</ele>
        <time>2019-12-18T06:54:05Z</time>
      </trkpt>
      <trkpt lat="59.337131" lon="18.080798">
        <ele>33</ele>
        <time>2019-12-18T06:54:07Z</time>
      </trkpt>
      <trkpt lat="59.337144" lon="18.080827">
        <ele>33</ele>
        <time>2019-12-18T06:54:08Z</time>
      </trkpt>
      <trkpt lat="59.337158" lon="18.08086">
        <ele>33</ele>
        <time>2019-12-18T06:54:09Z</time>
      </trkpt>
      <trkpt lat="59.337174" lon="18.080886">
        <ele>33</ele>
        <time>2019-12-18T06:54:10Z</time>
      </trkpt>
      <trkpt lat="59.337201" lon="18.08094">
        <ele>33</ele>
        <time>2019-12-18T06:54:12Z</time>
      </trkpt>
      <trkpt lat="59.337227" lon="18.080986">
        <ele>34</ele>
        <time>2019-12-18T06:54:14Z</time>
      </trkpt>
      <trkpt lat="59.337256" lon="18.081028">
        <ele>34</ele>
        <time>2019-12-18T06:54:16Z</time>
      </trkpt>
      <trkpt lat="59.337298" lon="18.081069">
        <ele>34</ele>
        <time>2019-12-18T06:54:18Z</time>
      </trkpt>
      <trkpt lat="59.337355" lon="18.081106">
        <ele>34</ele>
        <time>2019-12-18T06:54:19Z</time>
      </trkpt>
      <trkpt lat="59.33745" lon="18.08121">
        <ele>35</ele>
        <time>2019-12-18T06:54:24Z</time>
      </trkpt>
      <trkpt lat="59.337474" lon="18.081239">
        <ele>35</ele>
        <time>2019-12-18T06:54:25Z</time>
      </trkpt>
      <trkpt lat="59.337502" lon="18.081256">
        <ele>35</ele>
        <time>2019-12-18T06:54:26Z</time>
      </trkpt>
      <trkpt lat="59.337539" lon="18.081286">
        <ele>35</ele>
        <time>2019-12-18T06:54:27Z</time>
      </trkpt>
      <trkpt lat="59.337574" lon="18.0813">
        <ele>35</ele>
        <time>2019-12-18T06:54:28Z</time>
      </trkpt>
      <trkpt lat="59.337671" lon="18.081376">
        <ele>35</ele>
        <time>2019-12-18T06:54:31Z</time>
      </trkpt>
      <trkpt lat="59.337755" lon="18.081446">
        <ele>35</ele>
        <time>2019-12-18T06:54:34Z</time>
      </trkpt>
      <trkpt lat="59.337866" lon="18.08152">
        <ele>35</ele>
        <time>2019-12-18T06:54:37Z</time>
      </trkpt>
      <trkpt lat="59.337984" lon="18.081512">
        <ele>35</ele>
        <time>2019-12-18T06:54:40Z</time>
      </trkpt>
      <trkpt lat="59.338041" lon="18.08152">
        <ele>35</ele>
        <time>2019-12-18T06:54:42Z</time>
      </trkpt>
      <trkpt lat="59.33809" lon="18.081552">
        <ele>35</ele>
        <time>2019-12-18T06:54:43Z</time>
      </trkpt>
      <trkpt lat="59.338176" lon="18.081612">
        <ele>35</ele>
        <time>2019-12-18T06:54:45Z</time>
      </trkpt>
      <trkpt lat="59.338243" lon="18.081736">
        <ele>34</ele>
        <time>2019-12-18T06:54:50Z</time>
      </trkpt>
      <trkpt lat="59.338265" lon="18.081784">
        <ele>34</ele>
        <time>2019-12-18T06:54:51Z</time>
      </trkpt>
      <trkpt lat="59.338289" lon="18.08183">
        <ele>35</ele>
        <time>2019-12-18T06:54:54Z</time>
      </trkpt>
      <trkpt lat="59.338341" lon="18.081904">
        <ele>35</ele>
        <time>2019-12-18T06:54:58Z</time>
      </trkpt>
      <trkpt lat="59.338363" lon="18.081929">
        <ele>0</ele>
        <time>2019-12-18T06:54:58Z</time>
      </trkpt>
      <trkpt lat="59.338392" lon="18.081961">
        <ele>35</ele>
        <time>2019-12-18T06:54:59Z</time>
      </trkpt>
      <trkpt lat="59.338465" lon="18.082079">
        <ele>35</ele>
        <time>2019-12-18T06:55:04Z</time>
      </trkpt>
      <trkpt lat="59.338573" lon="18.082175">
        <ele>35</ele>
        <time>2019-12-18T06:55:08Z</time>
      </trkpt>
      <trkpt lat="59.338671" lon="18.082268">
        <ele>35</ele>
        <time>2019-12-18T06:55:12Z</time>
      </trkpt>
      <trkpt lat="59.338776" lon="18.082284">
        <ele>35</ele>
        <time>2019-12-18T06:55:14Z</time>
      </trkpt>
      <trkpt lat="59.338915" lon="18.082254">
        <ele>35</ele>
        <time>2019-12-18T06:55:17Z</time>
      </trkpt>
      <trkpt lat="59.339045" lon="18.08233">
        <ele>35</ele>
        <time>2019-12-18T06:55:18Z</time>
      </trkpt>
      <trkpt lat="59.339106" lon="18.082449">
        <ele>35</ele>
        <time>2019-12-18T06:55:21Z</time>
      </trkpt>
      <trkpt lat="59.339134" lon="18.082493">
        <ele>0</ele>
        <time>2019-12-18T06:55:21Z</time>
      </trkpt>
      <trkpt lat="59.339166" lon="18.082526">
        <ele>35</ele>
        <time>2019-12-18T06:55:22Z</time>
      </trkpt>
      <trkpt lat="59.339192" lon="18.082549">
        <ele>36</ele>
        <time>2019-12-18T06:55:24Z</time>
      </trkpt>
      <trkpt lat="59.339217" lon="18.082574">
        <ele>36</ele>
        <time>2019-12-18T06:55:25Z</time>
      </trkpt>
      <trkpt lat="59.339249" lon="18.08259">
        <ele>36</ele>
        <time>2019-12-18T06:55:27Z</time>
      </trkpt>
      <trkpt lat="59.339271" lon="18.082585">
        <ele>36</ele>
        <time>2019-12-18T06:55:28Z</time>
      </trkpt>
      <trkpt lat="59.339291" lon="18.082595">
        <ele>35</ele>
        <time>2019-12-18T06:55:29Z</time>
      </trkpt>
      <trkpt lat="59.339309" lon="18.082612">
        <ele>35</ele>
        <time>2019-12-18T06:55:30Z</time>
      </trkpt>
      <trkpt lat="59.339325" lon="18.082644">
        <ele>34</ele>
        <time>2019-12-18T06:55:31Z</time>
      </trkpt>
      <trkpt lat="59.339324" lon="18.082693">
        <ele>33</ele>
        <time>2019-12-18T06:55:32Z</time>
      </trkpt>
      <trkpt lat="59.339299" lon="18.082825">
        <ele>29</ele>
        <time>2019-12-18T06:55:34Z</time>
      </trkpt>
      <trkpt lat="59.339288" lon="18.082903">
        <ele>29</ele>
        <time>2019-12-18T06:55:35Z</time>
      </trkpt>
      <trkpt lat="59.339289" lon="18.082959">
        <ele>28</ele>
        <time>2019-12-18T06:55:36Z</time>
      </trkpt>
      <trkpt lat="59.339265" lon="18.083183">
        <ele>25</ele>
        <time>2019-12-18T06:55:40Z</time>
      </trkpt>
      <trkpt lat="59.339249" lon="18.083382">
        <ele>23</ele>
        <time>2019-12-18T06:55:43Z</time>
      </trkpt>
      <trkpt lat="59.339231" lon="18.083564">
        <ele>22</ele>
        <time>2019-12-18T06:55:48Z</time>
      </trkpt>
      <trkpt lat="59.339302" lon="18.083725">
        <ele>22</ele>
        <time>2019-12-18T06:55:55Z</time>
      </trkpt>
      <trkpt lat="59.339366" lon="18.083873">
        <ele>23</ele>
        <time>2019-12-18T06:56:01Z</time>
      </trkpt>
      <trkpt lat="59.339467" lon="18.083976">
        <ele>23</ele>
        <time>2019-12-18T06:56:05Z</time>
      </trkpt>
      <trkpt lat="59.339554" lon="18.084057">
        <ele>24</ele>
        <time>2019-12-18T06:56:09Z</time>
      </trkpt>
      <trkpt lat="59.33959" lon="18.084072">
        <ele>24</ele>
        <time>2019-12-18T06:56:10Z</time>
      </trkpt>
      <trkpt lat="59.33969" lon="18.084132">
        <ele>25</ele>
        <time>2019-12-18T06:56:14Z</time>
      </trkpt>
      <trkpt lat="59.339711" lon="18.084159">
        <ele>0</ele>
        <time>2019-12-18T06:56:14Z</time>
      </trkpt>
      <trkpt lat="59.33973" lon="18.084187">
        <ele>25</ele>
        <time>2019-12-18T06:56:15Z</time>
      </trkpt>
      <trkpt lat="59.339804" lon="18.084287">
        <ele>26</ele>
        <time>2019-12-18T06:56:21Z</time>
      </trkpt>
      <trkpt lat="59.339878" lon="18.084402">
        <ele>26</ele>
        <time>2019-12-18T06:56:25Z</time>
      </trkpt>
      <trkpt lat="59.339963" lon="18.084528">
        <ele>26</ele>
        <time>2019-12-18T06:56:27Z</time>
      </trkpt>
      <trkpt lat="59.340059" lon="18.084644">
        <ele>27</ele>
        <time>2019-12-18T06:56:32Z</time>
      </trkpt>
      <trkpt lat="59.340086" lon="18.084666">
        <ele>27</ele>
        <time>2019-12-18T06:56:33Z</time>
      </trkpt>
      <trkpt lat="59.340187" lon="18.084716">
        <ele>27</ele>
        <time>2019-12-18T06:56:36Z</time>
      </trkpt>
      <trkpt lat="59.340292" lon="18.084779">
        <ele>28</ele>
        <time>2019-12-18T06:56:38Z</time>
      </trkpt>
      <trkpt lat="59.340331" lon="18.084818">
        <ele>0</ele>
        <time>2019-12-18T06:56:38Z</time>
      </trkpt>
      <trkpt lat="59.340359" lon="18.084863">
        <ele>28</ele>
        <time>2019-12-18T06:56:39Z</time>
      </trkpt>
      <trkpt lat="59.34038" lon="18.08491">
        <ele>27</ele>
        <time>2019-12-18T06:56:41Z</time>
      </trkpt>
      <trkpt lat="59.340397" lon="18.085092">
        <ele>0</ele>
        <time>2019-12-18T06:56:44Z</time>
      </trkpt>
      <trkpt lat="59.340387" lon="18.085131">
        <ele>0</ele>
        <time>2019-12-18T06:56:45Z</time>
      </trkpt>
    </trkseg>
  </trk>
</gpx>